Provisional Data: Young Woman's Creek near North Bend, PA


Please select a monitoring station.
Please select start date.
Please select start date.

Toggle Unit: C/F Toggle Unit: C/F
Sample Time Temperature (C) Temperature (F) Specific Conductivity (mS/cm) pH   Turbidity (NTU+) DO (mg/L)
12/11/2021 12:00:00 AM 4.51 40.118 0.036 7.06 1.51 12.35
12/11/2021 12:15:00 AM 4.5 40.1 0.036 7.06 1.48 12.35
12/11/2021 12:30:00 AM 4.49 40.082 0.036 7.06 1.55 12.35
12/11/2021 12:45:00 AM 4.47 40.046 0.036 7.05 1.59 12.35
12/11/2021 1:00:00 AM 4.47 40.046 0.036 7.06 1.59 12.35
12/11/2021 1:15:00 AM 4.46 40.028 0.036 7.06 1.6 12.35
12/11/2021 1:30:00 AM 4.46 40.028 0.036 7.06 1.51 12.34
12/11/2021 1:45:00 AM 4.46 40.028 0.036 7.06 1.61 12.35
12/11/2021 2:00:00 AM 4.46 40.028 0.036 7.06 1.51 12.34
12/11/2021 2:15:00 AM 4.45 40.01 0.036 7.06 1.5 12.34
12/11/2021 2:30:00 AM 4.45 40.01 0.036 7.06 1.53 12.33
12/11/2021 2:45:00 AM 4.45 40.01 0.036 7.06 1.53 12.33
12/11/2021 3:00:00 AM 4.46 40.028 0.036 7.06 1.51 12.33
12/11/2021 3:15:00 AM 4.46 40.028 0.036 7.05 1.54 12.32
12/11/2021 3:30:00 AM 4.46 40.028 0.036 7.05 1.48 12.32
12/11/2021 3:45:00 AM 4.46 40.028 0.036 7.05 1.59 12.31
12/11/2021 4:00:00 AM 4.46 40.028 0.035 7.05 1.55 12.31
12/11/2021 4:15:00 AM 4.45 40.01 0.035 7.05 1.73 12.31
12/11/2021 4:30:00 AM 4.45 40.01 0.035 7.04 1.79 12.31
12/11/2021 4:45:00 AM 4.45 40.01 0.035 7.04 1.79 12.3
12/11/2021 5:00:00 AM 4.47 40.046 0.035 7.04 1.76 12.29
12/11/2021 5:15:00 AM 4.47 40.046 0.035 7.04 1.67 12.28
12/11/2021 5:30:00 AM 4.48 40.064 0.035 7.04 1.69 12.27
12/11/2021 5:45:00 AM 4.49 40.082 0.035 7.04 1.97 12.27
12/11/2021 6:00:00 AM 4.5 40.1 0.035 7.03 1.84 12.27
12/11/2021 6:15:00 AM 4.51 40.118 0.035 7.03 2.12 12.26
12/11/2021 6:30:00 AM 4.53 40.154 0.035 7.02 1.86 12.26
12/11/2021 6:45:00 AM 4.54 40.172 0.035 7.02 1.84 12.25
12/11/2021 7:00:00 AM 4.56 40.208 0.035 7.02 2.02 12.24
12/11/2021 7:15:00 AM 4.57 40.226 0.035 7.01 2.18 12.24
12/11/2021 7:30:00 AM 4.6 40.28 0.035 7 2.02 12.22
12/11/2021 7:45:00 AM 4.62 40.316 0.035 7 2.11 12.23
12/11/2021 8:00:00 AM 4.64 40.352 0.035 6.99 2.51 12.21
12/11/2021 8:15:00 AM 4.66 40.388 0.035 7 2.54 12.21
12/11/2021 8:30:00 AM 4.69 40.442 0.035 7 2.62 12.21
12/11/2021 8:45:00 AM 4.72 40.496 0.035 7.01 2.73 12.21
12/11/2021 9:00:00 AM 4.75 40.55 0.035 7.02 2.97 12.22
12/11/2021 9:15:00 AM 4.78 40.604 0.035 7.03 2.84 12.21
12/11/2021 9:30:00 AM 4.82 40.676 0.035 7.02 3.18 12.22
12/11/2021 9:45:00 AM 4.86 40.748 0.035 7.04 3.19 12.22
12/11/2021 10:00:00 AM 4.9 40.82 0.035 7.03 3.26 12.21
12/11/2021 10:15:00 AM 4.95 40.91 0.035 7.03 3.17 12.2
12/11/2021 10:30:00 AM 4.99 40.982 0.035 7.03 3.52 12.19
12/11/2021 10:45:00 AM 5.03 41.054 0.035 7.03 3.41 12.18
12/11/2021 11:00:00 AM 5.08 41.144 0.035 7.03 3.68 12.16
12/11/2021 11:15:00 AM 5.12 41.216 0.035 7 3.42 12.14
12/11/2021 11:30:00 AM 5.17 41.306 0.034 7.01 3.59 12.11
12/11/2021 11:45:00 AM 5.21 41.378 0.034 7.01 3.69 12.1
12/11/2021 12:00:00 PM 5.26 41.468 0.034 7.01 3.38 12.07
12/11/2021 12:15:00 PM 5.3 41.54 0.034 7.02 3.53 12.06
12/11/2021 12:30:00 PM 5.35 41.63 0.034 7 3.46 12.04
12/11/2021 12:45:00 PM 5.41 41.738 0.034 7.04 3.47 12.04
12/11/2021 1:00:00 PM 5.47 41.846 0.034 7.02 3.26 12.03
12/11/2021 1:15:00 PM 5.52 41.936 0.034 7.02 3.42 12.01
12/11/2021 1:30:00 PM 5.58 42.044 0.034 7.05 3.36 11.98
12/11/2021 1:45:00 PM 5.64 42.152 0.034 6.98 3.15 11.97
12/11/2021 2:00:00 PM 5.7 42.26 0.034 6.99 3.08 11.94
12/11/2021 2:15:00 PM 5.75 42.35 0.034 7 3.1 11.91
12/11/2021 2:30:00 PM 5.8 42.44 0.034 7 3 11.88
12/11/2021 2:45:00 PM 5.84 42.512 0.034 6.99 2.98 11.86
12/11/2021 3:00:00 PM 5.89 42.602 0.034 6.98 2.93 11.83
12/11/2021 3:15:00 PM 5.93 42.674 0.034 7.02 2.86 11.81
12/11/2021 3:30:00 PM 5.97 42.746 0.034 6.95 2.81 11.78
12/11/2021 3:45:00 PM 6.01 42.818 0.034 7 2.85 11.75
12/11/2021 4:00:00 PM 6.05 42.89 0.035 6.98 2.92 11.73
12/11/2021 4:15:00 PM 6.09 42.962 0.035 6.99 2.82 11.71
12/11/2021 4:30:00 PM 6.12 43.016 0.035 6.95 2.89 11.68
12/11/2021 4:45:00 PM 6.16 43.088 0.035 6.97 2.81 11.66
12/11/2021 5:00:00 PM 6.19 43.142 0.035 6.96 2.84 11.63
12/11/2021 5:15:00 PM 6.23 43.214 0.035 7 2.9 11.62
12/11/2021 5:30:00 PM 6.29 43.322 0.035 6.97 2.93 11.6
12/11/2021 5:45:00 PM 6.34 43.412 0.035 6.98 2.88 11.59
12/11/2021 6:00:00 PM 6.38 43.484 0.035 6.95 3.02 11.58
12/11/2021 6:15:00 PM 6.43 43.574 0.035 6.95 2.99 11.57
12/11/2021 6:30:00 PM 6.47 43.646 0.035 6.99 3 11.56
12/11/2021 6:45:00 PM 6.49 43.682 0.036 6.96 3.06 11.56
12/11/2021 7:00:00 PM 6.5 43.7 0.036 6.98 2.85 11.55
12/11/2021 7:15:00 PM 6.49 43.682 0.036 7.01 2.9 11.56
12/11/2021 7:30:00 PM 6.49 43.682 0.036 6.97 3.02 11.57
12/11/2021 7:45:00 PM 6.49 43.682 0.036 7.01 3 11.59
12/11/2021 8:00:00 PM 6.49 43.682 0.036 7.02 2.96 11.59
12/11/2021 8:15:00 PM 6.47 43.646 0.036 6.99 2.9 11.6
12/11/2021 8:30:00 PM 6.44 43.592 0.036 7.01 2.89 11.63
12/11/2021 8:45:00 PM 6.4 43.52 0.036 6.98 2.8 11.64
12/11/2021 9:00:00 PM 6.39 43.502 0.036 6.95 2.99 11.65
12/11/2021 9:15:00 PM 6.36 43.448 0.036 6.99 2.86 11.67
12/11/2021 9:30:00 PM 6.34 43.412 0.036 6.97 2.96 11.68
12/11/2021 9:45:00 PM 6.31 43.358 0.036 7 2.8 11.69
12/11/2021 10:00:00 PM 6.29 43.322 0.036 6.98 2.84 11.7
12/11/2021 10:15:00 PM 6.26 43.268 0.036 7.01 2.99 11.72
12/11/2021 10:30:00 PM 6.22 43.196 0.036 6.98 2.83 11.73
12/11/2021 10:45:00 PM 6.19 43.142 0.036 6.98 2.89 11.75
12/11/2021 11:00:00 PM 6.14 43.052 0.036 6.99 2.8 11.76
12/11/2021 11:15:00 PM 6.11 42.998 0.036 6.99 2.8 11.78
12/11/2021 11:30:00 PM 6.07 42.926 0.036 6.99 2.72 11.8
12/11/2021 11:45:00 PM 6.05 42.89 0.036 6.99 2.67 11.81
12/12/2021 12:00:00 AM 6 42.8 0.036 6.99 2.75 11.83
12/12/2021 12:15:00 AM 5.97 42.746 0.036 6.98 2.74 11.84
12/12/2021 12:30:00 AM 5.93 42.674 0.036 6.99 2.77 11.85
12/12/2021 12:45:00 AM 5.9 42.62 0.036 6.98 2.71 11.87
12/12/2021 1:00:00 AM 5.87 42.566 0.036 6.98 2.78 11.88
12/12/2021 1:15:00 AM 5.83 42.494 0.036 6.99 2.73 11.89
12/12/2021 1:30:00 AM 5.8 42.44 0.036 6.98 2.61 11.91
12/12/2021 1:45:00 AM 5.77 42.386 0.036 6.97 2.7 11.92
12/12/2021 2:00:00 AM 5.74 42.332 0.036 6.99 2.65 11.93
12/12/2021 2:15:00 AM 5.71 42.278 0.036 6.99 2.59 11.95
12/12/2021 2:30:00 AM 5.67 42.206 0.036 7.01 2.67 11.97
12/12/2021 2:45:00 AM 5.64 42.152 0.036 6.98 2.52 11.98
12/12/2021 3:00:00 AM 5.6 42.08 0.036 6.97 2.69 12
12/12/2021 3:15:00 AM 5.57 42.026 0.036 7 2.54 12.01
12/12/2021 3:30:00 AM 5.53 41.954 0.036 6.97 2.64 12.02
12/12/2021 3:45:00 AM 5.49 41.882 0.036 6.97 2.62 12.04
12/12/2021 4:00:00 AM 5.46 41.828 0.036 6.98 2.57 12.05
12/12/2021 4:15:00 AM 5.41 41.738 0.036 6.97 2.57 12.07
12/12/2021 4:30:00 AM 5.36 41.648 0.036 6.95 2.52 12.09
12/12/2021 4:45:00 AM 5.31 41.558 0.036 6.96 2.67 12.1
12/12/2021 5:00:00 AM 5.28 41.504 0.036 6.95 2.62 12.12
12/12/2021 5:15:00 AM 5.25 41.45 0.036 7.01 2.72 12.13
12/12/2021 5:30:00 AM 5.22 41.396 0.036 6.99 2.64 12.14
12/12/2021 5:45:00 AM 5.18 41.324 0.036 6.97 2.61 12.16
12/12/2021 6:00:00 AM 5.14 41.252 0.036 6.95 2.46 12.18
12/12/2021 6:15:00 AM 5.1 41.18 0.036 6.97 2.56 12.18
12/12/2021 6:30:00 AM 5.08 41.144 0.036 6.98 2.51 12.2
12/12/2021 6:45:00 AM 5.05 41.09 0.036 6.96 2.51 12.21
12/12/2021 7:00:00 AM 5.02 41.036 0.036 6.96 2.51 12.23
12/12/2021 7:15:00 AM 4.98 40.964 0.036 7 2.48 12.24
12/12/2021 7:30:00 AM 4.96 40.928 0.036 6.98 2.44 12.25
12/12/2021 7:45:00 AM 4.94 40.892 0.036 6.97 2.47 12.28
12/12/2021 8:00:00 AM 4.91 40.838 0.036 6.96 2.47 12.3
12/12/2021 8:15:00 AM 4.89 40.802 0.036 6.99 2.36 12.33
12/12/2021 8:30:00 AM 4.86 40.748 0.036 7 2.34 12.36
12/12/2021 8:45:00 AM 4.84 40.712 0.036 7.01 2.36 12.38
12/12/2021 9:00:00 AM 4.83 40.694 0.036 7 2.4 12.41
12/12/2021 9:15:00 AM 4.83 40.694 0.036 7.02 2.33 12.44
12/12/2021 9:30:00 AM 4.84 40.712 0.036 7.03 2.45 12.47
12/12/2021 9:45:00 AM 4.85 40.73 0.036 7.04 2.24 12.49
12/12/2021 10:00:00 AM 4.87 40.766 0.035 7.05 2.34 12.49
12/12/2021 10:15:00 AM 4.86 40.748 0.035 7.04 2.22 12.5
12/12/2021 10:30:00 AM 4.88 40.784 0.035 7.05 2.15 12.5
12/12/2021 10:45:00 AM 4.88 40.784 0.035 7.05 2.35 12.49
12/12/2021 11:00:00 AM 4.9 40.82 0.035 7.03 2.24 12.5
12/12/2021 11:15:00 AM 4.92 40.856 0.035 7.05 2.24 12.5
12/12/2021 11:30:00 AM 4.97 40.946 0.035 7.06 2.24 12.5
12/12/2021 11:45:00 AM 5.02 41.036 0.035 7.04 2.27 12.49
12/12/2021 12:00:00 PM 5.07 41.126 0.035 7.03 2.13 12.48
12/12/2021 12:15:00 PM 5.12 41.216 0.035 7.07 2.21 12.46
12/12/2021 12:30:00 PM 5.16 41.288 0.035 7.04 2.22 12.45
12/12/2021 12:45:00 PM 5.19 41.342 0.035 7.04 2.22 12.44
12/12/2021 1:00:00 PM 5.21 41.378 0.035 7.03 2.19 12.42
12/12/2021 1:15:00 PM 5.23 41.414 0.035 7.04 2.13 12.42
12/12/2021 1:30:00 PM 5.25 41.45 0.035 7.07 2.2 12.4
12/12/2021 1:45:00 PM 5.28 41.504 0.035 7.08 2.12 12.39
12/12/2021 2:00:00 PM 5.3 41.54 0.035 7.05 2.17 12.37
12/12/2021 2:15:00 PM 5.31 41.558 0.035 7.06 2.21 12.36
12/12/2021 2:30:00 PM 5.32 41.576 0.035 7.04 2.21 12.35
12/12/2021 2:45:00 PM 5.3 41.54 0.035 7.05 2.22 12.33
12/12/2021 3:00:00 PM 5.31 41.558 0.035 7.04 2.19 12.31
12/12/2021 3:15:00 PM 5.32 41.576 0.035 7.03 2.2 12.3
12/12/2021 3:30:00 PM 5.32 41.576 0.035 7.03 2.32 12.28
12/12/2021 3:45:00 PM 5.33 41.594 0.035 7.05 2.24 12.27
12/12/2021 4:00:00 PM 5.34 41.612 0.035 6.98 2.17 12.26
12/12/2021 4:15:00 PM 5.34 41.612 0.035 7.02 2.15 12.24
12/12/2021 4:30:00 PM 5.33 41.594 0.035 7 2.26 12.23
12/12/2021 4:45:00 PM 5.31 41.558 0.035 7 2.25 12.22
12/12/2021 5:00:00 PM 5.29 41.522 0.035 6.95 2.24 12.21
12/12/2021 5:15:00 PM 5.26 41.468 0.035 6.99 2.29 12.2
12/12/2021 5:30:00 PM 5.22 41.396 0.035 6.96 2.27 12.21
12/12/2021 5:45:00 PM 5.18 41.324 0.035 6.97 2.34 12.22
12/12/2021 6:00:00 PM 5.13 41.234 0.035 6.97 2.28 12.23
12/12/2021 6:15:00 PM 5.08 41.144 0.035 6.96 2.33 12.25
12/12/2021 6:30:00 PM 5.03 41.054 0.035 6.96 2.41 12.26
12/12/2021 6:45:00 PM 4.98 40.964 0.035 6.98 2.34 12.29
12/12/2021 7:00:00 PM 4.93 40.874 0.035 6.94 2.37 12.3
12/12/2021 7:15:00 PM 4.88 40.784 0.035 6.99 2.43 12.32
12/12/2021 7:30:00 PM 4.83 40.694 0.035 6.98 2.38 12.34
12/12/2021 7:45:00 PM 4.78 40.604 0.035 6.96 2.38 12.35
12/12/2021 8:00:00 PM 4.73 40.514 0.035 6.98 2.31 12.37
12/12/2021 8:15:00 PM 4.69 40.442 0.035 6.96 2.37 12.38
12/12/2021 8:30:00 PM 4.65 40.37 0.035 6.96 2.3 12.4
12/12/2021 8:45:00 PM 4.62 40.316 0.035 6.98 2.33 12.41
12/12/2021 9:00:00 PM 4.58 40.244 0.035 6.96 2.43 12.42
12/12/2021 9:15:00 PM 4.55 40.19 0.035 6.96 2.42 12.44
12/12/2021 9:30:00 PM 4.51 40.118 0.035 6.95 2.34 12.45
12/12/2021 9:45:00 PM 4.48 40.064 0.035 6.95 2.32 12.46
12/12/2021 10:00:00 PM 4.45 40.01 0.035 6.95 2.3 12.47
12/12/2021 10:15:00 PM 4.41 39.938 0.035 6.95 2.33 12.49
12/12/2021 10:30:00 PM 4.38 39.884 0.035 6.94 2.32 12.5
12/12/2021 10:45:00 PM 4.34 39.812 0.035 6.94 2.32 12.51
12/12/2021 11:00:00 PM 4.31 39.758 0.035 6.95 2.37 12.52
12/12/2021 11:15:00 PM 4.28 39.704 0.035 6.95 2.23 12.53
12/12/2021 11:30:00 PM 4.25 39.65 0.035 6.94 2.28 12.53
12/12/2021 11:45:00 PM 4.22 39.596 0.035 6.94 2.3 12.54
12/13/2021 12:00:00 AM 4.19 39.542 0.035 6.77 2.37 12.56
12/13/2021 12:15:00 AM 4.17 39.506 0.035 6.84 2.25 12.57
12/13/2021 12:30:00 AM 4.14 39.452 0.035 6.86 2.29 12.58
12/13/2021 12:45:00 AM 4.12 39.416 0.035 6.85 2.2 12.59
12/13/2021 1:00:00 AM 4.09 39.362 0.035 6.86 2.28 12.6
12/13/2021 1:15:00 AM 4.07 39.326 0.035 6.85 2.34 12.61
12/13/2021 1:30:00 AM 4.04 39.272 0.035 6.88 2.32 12.61
12/13/2021 1:45:00 AM 4.02 39.236 0.035 6.87 2.33 12.63
12/13/2021 2:00:00 AM 4 39.2 0.035 6.87 2.34 12.64
12/13/2021 2:15:00 AM 3.98 39.164 0.035 6.88 2.25 12.65
12/13/2021 2:30:00 AM 3.96 39.128 0.035 6.88 2.25 12.66
12/13/2021 2:45:00 AM 3.94 39.092 0.035 6.89 2.18 12.67
12/13/2021 3:00:00 AM 3.93 39.074 0.035 6.89 2.3 12.67
12/13/2021 3:15:00 AM 3.92 39.056 0.035 6.9 2.33 12.67
12/13/2021 3:30:00 AM 3.91 39.038 0.035 6.9 2.33 12.68
12/13/2021 3:45:00 AM 3.9 39.02 0.035 6.9 2.22 12.68
12/13/2021 4:00:00 AM 3.9 39.02 0.035 6.91 2.3 12.68
12/13/2021 4:15:00 AM 3.9 39.02 0.035 6.93 2.35 12.68
12/13/2021 4:30:00 AM 3.9 39.02 0.035 6.95 2.35 12.68
12/13/2021 4:45:00 AM 3.9 39.02 0.035 6.91 2.17 12.69
12/13/2021 5:00:00 AM 3.9 39.02 0.035 6.92 2.22 12.69
12/13/2021 5:15:00 AM 3.89 39.002 0.035 6.91 2.25 12.68
12/13/2021 5:30:00 AM 3.88 38.984 0.035 6.93 2.37 12.69
12/13/2021 5:45:00 AM 3.88 38.984 0.035 6.92 2.22 12.69
12/13/2021 6:00:00 AM 3.88 38.984 0.035 6.93 2.33 12.69
12/13/2021 6:15:00 AM 3.89 39.002 0.035 6.91 2.29 12.69
12/13/2021 6:30:00 AM 3.88 38.984 0.035 6.9 2.32 12.69
12/13/2021 6:45:00 AM 3.88 38.984 0.035 6.92 2.26 12.69
12/13/2021 7:00:00 AM 3.87 38.966 0.035 6.91 2.24 12.69
12/13/2021 7:15:00 AM 3.87 38.966 0.035 6.93 2.23 12.69
12/13/2021 7:30:00 AM 3.86 38.948 0.035 6.94 2.28 12.7
12/13/2021 7:45:00 AM 3.86 38.948 0.035 6.9 2.28 12.7
12/13/2021 8:00:00 AM 3.85 38.93 0.035 6.9 2.25 12.72
12/13/2021 8:15:00 AM 3.85 38.93 0.035 6.95 2.25 12.74
12/13/2021 8:30:00 AM 3.85 38.93 0.035 6.96 2.21 12.75
12/13/2021 8:45:00 AM 3.85 38.93 0.035 6.92 2.25 12.77
12/13/2021 9:00:00 AM 3.85 38.93 0.035 6.95 2.18 12.77
12/13/2021 9:15:00 AM 3.86 38.948 0.034 6.95 2.22 12.78
12/13/2021 9:30:00 AM 3.86 38.948 0.034 6.97 2.05 12.8
12/13/2021 9:45:00 AM 3.87 38.966 0.034 6.96 2.13 12.79
12/13/2021 10:00:00 AM 3.88 38.984 0.034 6.97 2.08 12.8
12/13/2021 10:15:00 AM 3.9 39.02 0.034 6.98 2.12 12.81
12/13/2021 10:30:00 AM 3.94 39.092 0.034 6.98 2.1 12.8
12/13/2021 10:45:00 AM 3.99 39.182 0.034 6.98 2.09 12.8
12/13/2021 11:00:00 AM 4.04 39.272 0.034 7.01 2.07 12.8
12/13/2021 11:15:00 AM 4.1 39.38 0.034 7 1.95 12.79
12/13/2021 11:30:00 AM 4.17 39.506 0.034 6.99 2 12.78
12/13/2021 11:45:00 AM 4.26 39.668 0.034 6.98 2.13 12.75
12/13/2021 12:00:00 PM 4.36 39.848 0.034 7.02 2.08 12.73
12/13/2021 12:15:00 PM 4.45 40.01 0.034 7.02 2.07 12.7
12/13/2021 12:30:00 PM 4.55 40.19 0.034 7.03 2.05 12.67
12/13/2021 12:45:00 PM 4.62 40.316 0.034 7.01 2.1 12.64
12/13/2021 1:00:00 PM 4.7 40.46 0.034 7.03 2.1 12.61
12/13/2021 1:15:00 PM 4.77 40.586 0.034 7.05 2.06 12.58
12/13/2021 1:30:00 PM 4.83 40.694 0.034 7.02 1.99 12.55
12/13/2021 1:45:00 PM 4.89 40.802 0.034 7.02 2.03 12.52
12/13/2021 2:00:00 PM 4.95 40.91 0.034 7.02 2.02 12.49
12/13/2021 2:15:00 PM 5.01 41.018 0.034 7.01 1.9 12.46
12/13/2021 2:30:00 PM 5.05 41.09 0.034 7.01 1.96 12.43
12/13/2021 2:45:00 PM 5.1 41.18 0.034 7.02 2.01 12.4
12/13/2021 3:00:00 PM 5.14 41.252 0.034 6.99 2.02 12.37
12/13/2021 3:15:00 PM 5.18 41.324 0.034 6.99 2.07 12.34
12/13/2021 3:30:00 PM 5.22 41.396 0.034 7.01 2.12 12.31
12/13/2021 3:45:00 PM 5.26 41.468 0.034 7.01 2.09 12.29
12/13/2021 4:00:00 PM 5.29 41.522 0.034 7.01 2 12.27
12/13/2021 4:15:00 PM 5.32 41.576 0.034 6.98 1.98 12.25
12/13/2021 4:30:00 PM 5.33 41.594 0.034 6.98 2.05 12.24
12/13/2021 4:45:00 PM 5.33 41.594 0.034 6.96 2 12.22
12/13/2021 5:00:00 PM 5.32 41.576 0.034 6.96 2.02 12.2
12/13/2021 5:15:00 PM 5.31 41.558 0.034 6.94 2.08 12.2
12/13/2021 5:30:00 PM 5.29 41.522 0.034 6.98 2.09 12.2
12/13/2021 5:45:00 PM 5.26 41.468 0.034 6.96 2.09 12.2
12/13/2021 6:00:00 PM 5.23 41.414 0.034 6.94 2.11 12.21
12/13/2021 6:15:00 PM 5.2 41.36 0.034 6.95 2.16 12.22
12/13/2021 6:30:00 PM 5.16 41.288 0.034 6.94 2.04 12.23
12/13/2021 6:45:00 PM 5.12 41.216 0.034 6.97 2 12.25
12/13/2021 7:00:00 PM 5.08 41.144 0.034 6.96 2.08 12.26
12/13/2021 7:15:00 PM 5.04 41.072 0.034 6.93 2.14 12.28
12/13/2021 7:30:00 PM 4.99 40.982 0.034 6.96 2.24 12.29
12/13/2021 7:45:00 PM 4.96 40.928 0.034 6.95 2.12 12.3
12/13/2021 8:00:00 PM 4.92 40.856 0.034 6.95 2.16 12.32
12/13/2021 8:15:00 PM 4.88 40.784 0.034 6.93 2.17 12.34
12/13/2021 8:30:00 PM 4.85 40.73 0.034 6.95 2.11 12.35
12/13/2021 8:45:00 PM 4.81 40.658 0.034 6.96 2.18 12.36
12/13/2021 9:00:00 PM 4.78 40.604 0.034 6.95 2.14 12.38
12/13/2021 9:15:00 PM 4.75 40.55 0.034 6.95 2.17 12.39
12/13/2021 9:30:00 PM 4.72 40.496 0.034 6.95 2.02 12.39
12/13/2021 9:45:00 PM 4.69 40.442 0.034 6.96 2.13 12.41
12/13/2021 10:00:00 PM 4.66 40.388 0.034 6.95 2.04 12.43
12/13/2021 10:15:00 PM 4.63 40.334 0.034 6.94 2.08 12.43
12/13/2021 10:30:00 PM 4.6 40.28 0.034 6.93 2.13 12.44
12/13/2021 10:45:00 PM 4.58 40.244 0.034 6.95 2.23 12.46
12/13/2021 11:00:00 PM 4.55 40.19 0.034 6.94 2.06 12.47
12/13/2021 11:15:00 PM 4.52 40.136 0.034 6.95 2.11 12.48
12/13/2021 11:30:00 PM 4.49 40.082 0.034 6.95 2.18 12.5
12/13/2021 11:45:00 PM 4.46 40.028 0.034 6.93 2.1 12.5
12/14/2021 12:00:00 AM 4.43 39.974 0.034 6.96 2.04 12.52
12/14/2021 12:15:00 AM 4.41 39.938 0.034 6.95 2.05 12.53
12/14/2021 12:30:00 AM 4.38 39.884 0.034 6.95 2 12.54
12/14/2021 12:45:00 AM 4.36 39.848 0.034 6.94 2.06 12.55
12/14/2021 1:00:00 AM 4.33 39.794 0.034 6.92 2.1 12.55
12/14/2021 1:15:00 AM 4.31 39.758 0.034 6.93 2 12.57
12/14/2021 1:30:00 AM 4.28 39.704 0.034 6.93 2.1 12.58
12/14/2021 1:45:00 AM 4.26 39.668 0.034 6.92 2.14 12.59
12/14/2021 2:00:00 AM 4.24 39.632 0.034 6.96 2.1 12.6
12/14/2021 2:15:00 AM 4.21 39.578 0.034 6.94 2.04 12.61
12/14/2021 2:30:00 AM 4.19 39.542 0.034 6.95 2.02 12.62
12/14/2021 2:45:00 AM 4.17 39.506 0.034 6.92 2.06 12.63
12/14/2021 3:00:00 AM 4.14 39.452 0.034 6.94 1.97 12.63
12/14/2021 3:15:00 AM 4.12 39.416 0.034 6.95 2.02 12.64
12/14/2021 3:30:00 AM 4.1 39.38 0.034 6.93 2 12.65
12/14/2021 3:45:00 AM 4.07 39.326 0.034 6.94 2.03 12.66
12/14/2021 4:00:00 AM 4.05 39.29 0.034 6.94 1.98 12.67
12/14/2021 4:15:00 AM 4.03 39.254 0.034 6.92 2.09 12.68
12/14/2021 4:30:00 AM 4.01 39.218 0.034 6.93 2.04 12.68
12/14/2021 4:45:00 AM 3.98 39.164 0.034 6.93 2.04 12.7
12/14/2021 5:00:00 AM 3.96 39.128 0.034 6.93 1.97 12.7
12/14/2021 5:15:00 AM 3.94 39.092 0.034 6.94 1.96 12.71
12/14/2021 5:30:00 AM 3.92 39.056 0.034 6.95 2.06 12.73
12/14/2021 5:45:00 AM 3.9 39.02 0.034 6.94 1.97 12.73
12/14/2021 6:00:00 AM 3.88 38.984 0.034 6.78 2.05 12.74
12/14/2021 6:15:00 AM 3.86 38.948 0.034 6.76 2.01 12.75
12/14/2021 6:30:00 AM 3.84 38.912 0.034 6.82 1.95 12.77
12/14/2021 6:45:00 AM 3.82 38.876 0.034 6.84 1.99 12.77
12/14/2021 7:00:00 AM 3.81 38.858 0.034 6.84 2.07 12.78
12/14/2021 7:15:00 AM 3.79 38.822 0.034 6.87 1.94 12.8
12/14/2021 7:30:00 AM 3.77 38.786 0.034 6.86 1.96 12.8
12/14/2021 7:45:00 AM 3.75 38.75 0.034 6.87 1.91 12.82
12/14/2021 8:00:00 AM 3.74 38.732 0.034 6.88 1.95 12.84
12/14/2021 8:15:00 AM 3.73 38.714 0.034 6.89 1.85 12.86
12/14/2021 8:30:00 AM 3.72 38.696 0.034 6.87 1.91 12.88
12/14/2021 8:45:00 AM 3.71 38.678 0.034 6.9 1.91 12.9
12/14/2021 9:00:00 AM 3.7 38.66 0.034 6.89 1.94 12.91
12/14/2021 9:15:00 AM 3.7 38.66 0.034 6.92 1.92 12.93
12/14/2021 9:30:00 AM 3.7 38.66 0.034 6.93 1.87 12.94
12/14/2021 9:45:00 AM 3.7 38.66 0.034 6.94 1.91 12.95
12/14/2021 10:00:00 AM 3.71 38.678 0.034 6.94 1.93 12.96
12/14/2021 10:15:00 AM 3.74 38.732 0.034 6.96 1.8 12.97
12/14/2021 10:30:00 AM 3.78 38.804 0.034 6.95 1.81 12.98
12/14/2021 10:45:00 AM 3.82 38.876 0.034 6.98 1.79 12.98
12/14/2021 11:00:00 AM 3.87 38.966 0.034 6.98 1.82 12.98
12/14/2021 11:15:00 AM 3.93 39.074 0.034 6.99 9917.12 12.96
12/14/2021 11:30:00 AM 4 39.2 0.034 6.99 1.83 12.95
12/14/2021 11:45:00 AM 4.09 39.362 0.034 6.99 1.8 12.92
12/14/2021 12:00:00 PM 4.19 39.542 0.034 6.99 1.75 12.9
12/14/2021 12:15:00 PM 4.28 39.704 0.033 6.99 1.87 12.87
12/14/2021 12:45:00 PM 4.47 40.046 0.033 7.08 1.76 12.81
12/14/2021 1:00:00 PM 4.54 40.172 0.033 7.07 1.77 12.78
12/14/2021 1:15:00 PM 4.61 40.298 0.033 7.05 1.72 12.75
12/14/2021 1:30:00 PM 4.68 40.424 0.033 7.04 1.72 12.72
12/14/2021 1:45:00 PM 4.75 40.55 0.033 7.04 1.74 12.7
12/14/2021 2:00:00 PM 4.81 40.658 0.033 7.04 1.76 12.66
12/14/2021 2:15:00 PM 4.87 40.766 0.033 7.04 1.69 12.64
12/14/2021 2:30:00 PM 4.92 40.856 0.033 7.03 1.67 12.6
12/14/2021 2:45:00 PM 4.97 40.946 0.033 7.03 1.74 12.56
12/14/2021 3:00:00 PM 5.01 41.018 0.033 7.01 1.75 12.54
12/14/2021 3:15:00 PM 5.05 41.09 0.033 7.01 1.77 12.51
12/14/2021 3:30:00 PM 5.09 41.162 0.033 7 1.78 12.48
12/14/2021 3:45:00 PM 5.13 41.234 0.033 7 1.8 12.46
12/14/2021 4:00:00 PM 5.16 41.288 0.033 6.98 1.79 12.44
12/14/2021 4:15:00 PM 5.19 41.342 0.033 7 1.81 12.42
12/14/2021 4:30:00 PM 5.2 41.36 0.033 6.99 1.82 12.39
12/14/2021 4:45:00 PM 5.21 41.378 0.033 6.98 1.72 12.37
12/14/2021 5:00:00 PM 5.21 41.378 0.033 6.97 1.8 12.36
12/14/2021 5:15:00 PM 5.2 41.36 0.033 6.97 1.91 12.35
12/14/2021 5:30:00 PM 5.18 41.324 0.033 6.97 1.91 12.35
12/14/2021 5:45:00 PM 5.16 41.288 0.033 6.97 1.84 12.35
12/14/2021 6:00:00 PM 5.14 41.252 0.033 6.96 1.82 12.36
12/14/2021 6:15:00 PM 5.11 41.198 0.034 6.95 1.83 12.37
12/14/2021 6:30:00 PM 5.07 41.126 0.034 6.95 1.93 12.38
12/14/2021 6:45:00 PM 5.04 41.072 0.034 6.94 1.93 12.39
12/14/2021 7:00:00 PM 5.01 41.018 0.034 6.94 1.89 12.4
12/14/2021 7:15:00 PM 4.98 40.964 0.034 6.95 1.88 12.41
12/14/2021 7:30:00 PM 4.95 40.91 0.034 6.94 1.94 12.43
12/14/2021 7:45:00 PM 4.92 40.856 0.034 6.95 1.87 12.43
12/14/2021 8:00:00 PM 4.89 40.802 0.034 6.93 1.92 12.44
12/14/2021 8:15:00 PM 4.87 40.766 0.034 6.94 1.85 12.45
12/14/2021 8:30:00 PM 4.84 40.712 0.034 6.96 1.83 12.46
12/14/2021 8:45:00 PM 4.81 40.658 0.034 6.94 1.93 12.47
12/14/2021 9:00:00 PM 4.78 40.604 0.034 6.94 1.97 12.48
12/14/2021 9:15:00 PM 4.76 40.568 0.034 6.94 1.86 12.5
12/14/2021 9:30:00 PM 4.73 40.514 0.034 6.94 1.91 12.5
12/14/2021 9:45:00 PM 4.7 40.46 0.034 6.95 1.88 12.52
12/14/2021 10:00:00 PM 4.67 40.406 0.034 6.95 1.95 12.52
12/14/2021 10:15:00 PM 4.64 40.352 0.034 6.95 1.88 12.53
12/14/2021 10:30:00 PM 4.62 40.316 0.034 6.94 1.98 12.54
12/14/2021 10:45:00 PM 4.59 40.262 0.034 6.96 1.93 12.55
12/14/2021 11:00:00 PM 4.57 40.226 0.034 6.95 1.9 12.56
12/14/2021 11:15:00 PM 4.55 40.19 0.034 6.95 1.91 12.56
12/14/2021 11:30:00 PM 4.53 40.154 0.034 6.95 1.91 12.58
12/14/2021 11:45:00 PM 4.51 40.118 0.034 6.97 1.92 12.58
12/15/2021 12:00:00 AM 4.49 40.082 0.034 6.95 1.89 12.59
12/15/2021 12:15:00 AM 4.47 40.046 0.034 6.96 1.86 12.59
12/15/2021 12:30:00 AM 4.44 39.992 0.034 6.93 1.94 12.61
12/15/2021 12:45:00 AM 4.42 39.956 0.034 6.94 1.92 12.61
12/15/2021 1:00:00 AM 4.39 39.902 0.034 6.95 1.86 12.62
12/15/2021 1:15:00 AM 4.37 39.866 0.034 6.95 1.89 12.63
12/15/2021 1:30:00 AM 4.34 39.812 0.034 6.96 1.89 12.63
12/15/2021 1:45:00 AM 4.32 39.776 0.034 6.93 1.82 12.64
12/15/2021 2:00:00 AM 4.29 39.722 0.034 6.96 1.96 12.65
12/15/2021 2:15:00 AM 4.27 39.686 0.034 6.94 1.83 12.66
12/15/2021 2:30:00 AM 4.24 39.632 0.034 6.95 1.89 12.66
12/15/2021 2:45:00 AM 4.22 39.596 0.034 6.96 1.9 12.67
12/15/2021 3:00:00 AM 4.19 39.542 0.034 6.95 1.87 12.68
12/15/2021 3:15:00 AM 4.17 39.506 0.034 6.96 1.86 12.69
12/15/2021 3:30:00 AM 4.15 39.47 0.034 6.95 1.79 12.69
12/15/2021 3:45:00 AM 4.12 39.416 0.034 6.93 1.81 12.71
12/15/2021 4:00:00 AM 4.1 39.38 0.034 6.96 1.8 12.72
12/15/2021 4:15:00 AM 4.08 39.344 0.034 6.95 1.86 12.71
12/15/2021 4:30:00 AM 4.06 39.308 0.034 6.94 1.82 12.73
12/15/2021 4:45:00 AM 4.04 39.272 0.034 6.96 1.86 12.73
12/15/2021 5:00:00 AM 4.02 39.236 0.034 6.97 1.8 12.74
12/15/2021 5:15:00 AM 4.01 39.218 0.034 6.95 1.81 12.73
12/15/2021 5:30:00 AM 4 39.2 0.034 6.94 1.78 12.75
12/15/2021 5:45:00 AM 3.98 39.164 0.034 6.94 1.89 12.74
12/15/2021 6:00:00 AM 3.97 39.146 0.034 6.95 1.83 12.75
12/15/2021 6:15:00 AM 3.95 39.11 0.034 6.93 1.88 12.76
12/15/2021 6:30:00 AM 3.94 39.092 0.034 6.96 1.83 12.76
12/15/2021 6:45:00 AM 3.92 39.056 0.034 6.94 1.83 12.76
12/15/2021 7:00:00 AM 3.9 39.02 0.034 6.94 1.8 12.77
12/15/2021 7:15:00 AM 3.89 39.002 0.034 6.94 1.75 12.78
12/15/2021 7:30:00 AM 3.88 38.984 0.034 6.94 1.83 12.78
12/15/2021 7:45:00 AM 3.88 38.984 0.034 6.94 1.79 12.79
12/15/2021 8:00:00 AM 3.88 38.984 0.034 6.95 1.8 12.81
12/15/2021 8:15:00 AM 3.88 38.984 0.034 6.95 1.83 12.83
12/15/2021 8:30:00 AM 3.89 39.002 0.034 6.96 1.77 12.85
12/15/2021 8:45:00 AM 3.91 39.038 0.034 6.97 1.71 12.88
12/15/2021 9:00:00 AM 3.93 39.074 0.034 6.98 1.77 12.89
12/15/2021 9:15:00 AM 3.96 39.128 0.034 6.99 1.71 12.91
12/15/2021 9:30:00 AM 4 39.2 0.033 7 1.75 12.92
12/15/2021 9:45:00 AM 4.05 39.29 0.033 7.02 1.79 12.91
12/15/2021 10:00:00 AM 4.09 39.362 0.033 7.01 1.75 12.9
12/15/2021 10:15:00 AM 4.15 39.47 0.033 7.01 1.71 12.9
12/15/2021 10:30:00 AM 4.21 39.578 0.033 7.01 1.69 12.88
12/15/2021 10:45:00 AM 4.27 39.686 0.033 7.01 1.69 12.86
12/15/2021 11:00:00 AM 4.34 39.812 0.033 7.01 1.68 12.83
12/15/2021 11:15:00 AM 4.42 39.956 0.033 7.01 1.85 12.82
12/15/2021 11:30:00 AM 4.49 40.082 0.033 7 1.66 12.79
12/15/2021 11:45:00 AM 4.57 40.226 0.033 7.02 1.67 12.76
12/15/2021 12:00:00 PM 4.64 40.352 0.033 7.05 1.73 12.73
12/15/2021 12:15:00 PM 4.71 40.478 0.033 7.01 1.69 12.7
12/15/2021 12:30:00 PM 4.79 40.622 0.033 7.01 1.72 12.67
12/15/2021 12:45:00 PM 4.85 40.73 0.033 7.02 1.73 12.63
12/15/2021 1:00:00 PM 4.92 40.856 0.033 7.02 1.67 12.6
12/15/2021 1:15:00 PM 4.98 40.964 0.033 6.99 1.69 12.56
12/15/2021 1:30:00 PM 5.05 41.09 0.033 7.01 1.71 12.54
12/15/2021 1:45:00 PM 5.11 41.198 0.033 6.99 1.72 12.51
12/15/2021 2:00:00 PM 5.16 41.288 0.033 7 1.71 12.47
12/15/2021 2:15:00 PM 5.22 41.396 0.033 7.01 1.71 12.45
12/15/2021 2:30:00 PM 5.27 41.486 0.033 7.01 1.68 12.41
12/15/2021 2:45:00 PM 5.32 41.576 0.033 6.99 1.79 12.38
12/15/2021 3:00:00 PM 5.37 41.666 0.033 7 1.77 12.35
12/15/2021 3:15:00 PM 5.41 41.738 0.033 6.97 1.76 12.32
12/15/2021 3:30:00 PM 5.45 41.81 0.033 6.98 1.75 12.3
12/15/2021 3:45:00 PM 5.49 41.882 0.033 6.97 1.69 12.28
12/15/2021 4:00:00 PM 5.53 41.954 0.033 6.99 1.81 12.25
12/15/2021 4:15:00 PM 5.56 42.008 0.033 6.97 1.71 12.21
12/15/2021 4:30:00 PM 5.59 42.062 0.033 6.95 1.74 12.18
12/15/2021 4:45:00 PM 5.63 42.134 0.033 6.96 1.7 12.16
12/15/2021 5:00:00 PM 5.65 42.17 0.033 6.95 1.75 12.14
12/15/2021 5:15:00 PM 5.68 42.224 0.033 6.96 1.64 12.12
12/15/2021 5:30:00 PM 5.71 42.278 0.033 6.93 1.84 12.11
12/15/2021 5:45:00 PM 5.73 42.314 0.033 6.94 1.75 12.09
12/15/2021 6:00:00 PM 5.75 42.35 0.033 6.95 2.03 12.08
12/15/2021 6:15:00 PM 5.77 42.386 0.033 6.92 1.84 12.07
12/15/2021 6:30:00 PM 5.79 42.422 0.033 6.95 1.74 12.06
12/15/2021 6:45:00 PM 5.81 42.458 0.033 6.94 1.78 12.05
12/15/2021 7:00:00 PM 5.82 42.476 0.033 6.93 1.82 12.04
12/15/2021 7:15:00 PM 5.84 42.512 0.033 6.93 1.82 12.04
12/15/2021 7:30:00 PM 5.86 42.548 0.033 6.93 1.79 12.03
12/15/2021 7:45:00 PM 5.88 42.584 0.033 6.93 1.86 12.02
12/15/2021 8:00:00 PM 5.89 42.602 0.033 6.94 1.81 12.01
12/15/2021 8:15:00 PM 5.9 42.62 0.034 6.93 1.77 12.01
12/15/2021 8:30:00 PM 5.92 42.656 0.034 6.94 1.94 12.01
12/15/2021 8:45:00 PM 5.93 42.674 0.034 6.93 1.75 12
12/15/2021 9:00:00 PM 5.95 42.71 0.034 6.93 1.86 11.99
12/15/2021 9:15:00 PM 5.96 42.728 0.034 6.93 1.84 11.98
12/15/2021 9:30:00 PM 5.97 42.746 0.034 6.92 1.78 11.98
12/15/2021 9:45:00 PM 5.98 42.764 0.034 6.92 1.82 11.97
12/15/2021 10:00:00 PM 5.99 42.782 0.034 6.92 1.89 11.96
12/15/2021 10:15:00 PM 6 42.8 0.034 6.91 1.85 11.96
12/15/2021 10:30:00 PM 6.01 42.818 0.034 6.92 1.96 11.96
12/15/2021 10:45:00 PM 6.03 42.854 0.034 6.92 1.81 11.94
12/15/2021 11:00:00 PM 6.04 42.872 0.034 6.92 1.77 11.94
12/15/2021 11:15:00 PM 6.06 42.908 0.034 6.91 1.88 11.93
12/15/2021 11:30:00 PM 6.07 42.926 0.034 6.92 1.78 11.93
12/15/2021 11:45:00 PM 6.09 42.962 0.034 6.91 1.83 11.92
12/16/2021 12:00:00 AM 6.1 42.98 0.034 6.93 1.82 11.92
12/16/2021 12:15:00 AM 6.11 42.998 0.034 6.91 1.76 11.91
12/16/2021 12:30:00 AM 6.12 43.016 0.034 6.9 1.79 11.9
12/16/2021 12:45:00 AM 6.12 43.016 0.034 6.92 1.78 11.9
12/16/2021 1:00:00 AM 6.13 43.034 0.034 6.91 1.85 11.9
12/16/2021 1:15:00 AM 6.14 43.052 0.034 6.91 1.86 11.89
12/16/2021 1:30:00 AM 6.15 43.07 0.034 6.9 1.9 11.89
12/16/2021 1:45:00 AM 6.16 43.088 0.034 6.91 1.85 11.88
12/16/2021 2:00:00 AM 6.17 43.106 0.034 6.9 1.82 11.87
12/16/2021 2:15:00 AM 6.18 43.124 0.034 6.9 1.76 11.87
12/16/2021 2:30:00 AM 6.19 43.142 0.034 6.93 1.81 11.86
12/16/2021 2:45:00 AM 6.2 43.16 0.034 6.93 1.8 11.86
12/16/2021 3:00:00 AM 6.21 43.178 0.034 6.91 1.79 11.86
12/16/2021 3:15:00 AM 6.21 43.178 0.034 6.93 1.74 11.85
12/16/2021 3:30:00 AM 6.21 43.178 0.034 6.92 1.84 11.85
12/16/2021 3:45:00 AM 6.21 43.178 0.034 6.91 1.87 11.85
12/16/2021 4:00:00 AM 6.21 43.178 0.034 6.91 1.71 11.85
12/16/2021 4:15:00 AM 6.21 43.178 0.034 6.92 1.83 11.85
12/16/2021 4:30:00 AM 6.21 43.178 0.034 6.89 1.85 11.84
12/16/2021 4:45:00 AM 6.21 43.178 0.034 6.92 1.77 11.84
12/16/2021 5:00:00 AM 6.2 43.16 0.034 6.92 1.86 11.84
12/16/2021 5:15:00 AM 6.19 43.142 0.034 6.91 1.77 11.84
12/16/2021 5:30:00 AM 6.18 43.124 0.034 6.91 1.84 11.85
12/16/2021 5:45:00 AM 6.17 43.106 0.034 6.93 1.86 11.84
12/16/2021 6:00:00 AM 6.15 43.07 0.034 6.92 1.84 11.85
12/16/2021 6:15:00 AM 6.13 43.034 0.034 6.9 1.81 11.86
12/16/2021 6:30:00 AM 6.12 43.016 0.034 6.93 1.79 11.86
12/16/2021 6:45:00 AM 6.1 42.98 0.034 6.9 1.81 11.86
12/16/2021 7:00:00 AM 6.08 42.944 0.034 6.93 1.8 11.87
12/16/2021 7:15:00 AM 6.06 42.908 0.034 6.93 1.84 11.88
12/16/2021 7:30:00 AM 6.03 42.854 0.034 6.92 1.76 11.89
12/16/2021 7:45:00 AM 6.01 42.818 0.034 6.92 1.76 11.9
12/16/2021 8:00:00 AM 5.99 42.782 0.034 6.92 1.92 11.92
12/16/2021 8:15:00 AM 5.97 42.746 0.034 6.94 1.75 11.94
12/16/2021 8:30:00 AM 5.95 42.71 0.034 6.92 1.81 11.97
12/16/2021 8:45:00 AM 5.93 42.674 0.034 6.94 1.73 12
12/16/2021 9:00:00 AM 5.92 42.656 0.033 6.97 1.72 12.02
12/16/2021 9:15:00 AM 5.92 42.656 0.033 6.95 1.8 12.04
12/16/2021 9:30:00 AM 5.91 42.638 0.033 6.98 1.74 12.05
12/16/2021 9:45:00 AM 5.91 42.638 0.033 6.97 1.72 12.06
12/16/2021 10:00:00 AM 5.91 42.638 0.033 6.98 1.79 12.07
12/16/2021 10:15:00 AM 5.92 42.656 0.033 6.99 1.71 12.08
12/16/2021 10:30:00 AM 5.94 42.692 0.033 6.98 1.71 12.09
12/16/2021 10:45:00 AM 5.98 42.764 0.033 7 1.79 12.09
12/16/2021 11:00:00 AM 6.02 42.836 0.033 7.01 1.75 12.09
12/16/2021 11:15:00 AM 6.05 42.89 0.033 7.01 1.76 12.08
12/16/2021 11:30:00 AM 6.11 42.998 0.033 7 1.71 12.07
12/16/2021 11:45:00 AM 6.17 43.106 0.033 7.02 1.69 12.05
12/16/2021 12:00:00 PM 6.26 43.268 0.033 7.02 1.76 12.02
12/16/2021 12:15:00 PM 6.36 43.448 0.033 7.04 1.72 11.99
12/16/2021 12:30:00 PM 6.44 43.592 0.033 7.02 1.69 11.96
12/16/2021 12:45:00 PM 6.52 43.736 0.033 7.02 1.7 11.95
12/16/2021 1:00:00 PM 6.56 43.808 0.033 7.03 1.76 11.92
12/16/2021 1:15:00 PM 6.64 43.952 0.033 7.03 1.79 11.9
12/16/2021 1:30:00 PM 6.76 44.168 0.033 7.04 2.04 11.89
12/16/2021 1:45:00 PM 6.88 44.384 0.033 7.04 1.78 11.86
12/16/2021 2:00:00 PM 6.99 44.582 0.033 7.04 1.69 11.83
12/16/2021 2:15:00 PM 7.08 44.744 0.033 7.04 1.69 11.79
12/16/2021 2:30:00 PM 7.17 44.906 0.033 7.04 1.72 11.75
12/16/2021 2:45:00 PM 7.25 45.05 0.033 7.04 1.68 11.7
12/16/2021 3:00:00 PM 7.33 45.194 0.033 7.02 1.75 11.65
12/16/2021 3:15:00 PM 7.41 45.338 0.033 7.02 1.75 11.61
12/16/2021 3:30:00 PM 7.47 45.446 0.033 7 1.75 11.57
12/16/2021 3:45:00 PM 7.52 45.536 0.033 6.99 1.71 11.53
12/16/2021 4:00:00 PM 7.57 45.626 0.033 6.98 1.7 11.5
12/16/2021 4:15:00 PM 7.63 45.734 0.033 6.99 1.68 11.44
12/16/2021 4:30:00 PM 7.68 45.824 0.033 7 1.79 11.4
12/16/2021 4:45:00 PM 7.73 45.914 0.033 7.01 1.85 11.37
12/16/2021 5:00:00 PM 7.79 46.022 0.033 6.99 1.76 11.34
12/16/2021 5:15:00 PM 7.84 46.112 0.033 6.99 1.88 11.31
12/16/2021 5:30:00 PM 7.89 46.202 0.033 6.96 1.85 11.29
12/16/2021 5:45:00 PM 7.94 46.292 0.033 6.96 1.9 11.27
12/16/2021 6:00:00 PM 7.98 46.364 0.033 6.95 1.77 11.25
12/16/2021 6:15:00 PM 8.02 46.436 0.033 6.92 1.85 11.23
12/16/2021 6:30:00 PM 8.05 46.49 0.033 6.94 1.83 11.23
12/16/2021 6:45:00 PM 8.09 46.562 0.033 6.92 1.78 11.21
12/16/2021 7:00:00 PM 8.13 46.634 0.033 6.94 1.84 11.2
12/16/2021 7:15:00 PM 8.18 46.724 0.033 6.94 1.88 11.19
12/16/2021 7:30:00 PM 8.21 46.778 0.033 6.93 1.79 11.18
12/16/2021 7:45:00 PM 8.25 46.85 0.033 6.94 1.89 11.17
12/16/2021 8:00:00 PM 8.29 46.922 0.033 6.94 1.83 11.16
12/16/2021 8:15:00 PM 8.33 46.994 0.033 6.95 1.88 11.15
12/16/2021 8:30:00 PM 8.36 47.048 0.033 6.95 1.86 11.14
12/16/2021 8:45:00 PM 8.39 47.102 0.033 6.94 1.87 11.13
12/16/2021 9:00:00 PM 8.43 47.174 0.033 6.94 1.85 11.12
12/16/2021 9:15:00 PM 8.47 47.246 0.033 6.94 1.89 11.1
12/16/2021 9:30:00 PM 8.52 47.336 0.033 6.93 1.87 11.1
12/16/2021 9:45:00 PM 8.56 47.408 0.033 6.94 1.89 11.08
12/16/2021 10:00:00 PM 8.6 47.48 0.033 6.94 1.87 11.07
12/16/2021 10:15:00 PM 8.63 47.534 0.033 6.95 1.93 11.06
12/16/2021 10:30:00 PM 8.67 47.606 0.033 6.93 1.92 11.05
12/16/2021 10:45:00 PM 8.68 47.624 0.033 6.93 2 11.04
12/16/2021 11:00:00 PM 8.67 47.606 0.033 6.94 1.93 11.05
12/16/2021 11:15:00 PM 8.68 47.624 0.033 6.93 1.89 11.05
12/16/2021 11:30:00 PM 8.67 47.606 0.033 6.93 1.92 11.05
12/16/2021 11:45:00 PM 8.64 47.552 0.034 6.93 1.93 11.05
12/17/2021 12:00:00 AM 8.6 47.48 0.033 6.93 2.07 11.06
12/17/2021 12:15:00 AM 8.57 47.426 0.033 6.94 1.93 11.07
12/17/2021 12:30:00 AM 8.54 47.372 0.034 6.92 1.86 11.08
12/17/2021 12:45:00 AM 8.5 47.3 0.034 6.93 1.87 11.09
12/17/2021 1:00:00 AM 8.45 47.21 0.034 6.93 1.87 11.1
12/17/2021 1:15:00 AM 8.41 47.138 0.034 6.93 2.05 11.12
12/17/2021 1:30:00 AM 8.37 47.066 0.034 6.94 1.93 11.13
12/17/2021 1:45:00 AM 8.32 46.976 0.034 6.93 1.86 11.15
12/17/2021 2:00:00 AM 8.27 46.886 0.034 6.92 1.92 11.17
12/17/2021 2:15:00 AM 8.22 46.796 0.034 6.93 1.86 11.19
12/17/2021 2:30:00 AM 8.16 46.688 0.034 6.92 2.13 11.2
12/17/2021 2:45:00 AM 8.1 46.58 0.034 6.92 1.97 11.22
12/17/2021 3:00:00 AM 8.05 46.49 0.034 6.91 1.93 11.24
12/17/2021 3:15:00 AM 7.98 46.364 0.034 6.92 1.96 11.26
12/17/2021 3:30:00 AM 7.92 46.256 0.034 6.94 2 11.28
12/17/2021 3:45:00 AM 7.85 46.13 0.034 6.92 1.93 11.31
12/17/2021 4:00:00 AM 7.78 46.004 0.034 6.93 1.93 11.33
12/17/2021 4:15:00 AM 7.7 45.86 0.034 6.93 1.9 11.36
12/17/2021 4:30:00 AM 7.62 45.716 0.034 6.94 1.95 11.38
12/17/2021 4:45:00 AM 7.54 45.572 0.034 6.92 1.96 11.4
12/17/2021 5:00:00 AM 7.46 45.428 0.034 6.92 1.93 11.43
12/17/2021 5:15:00 AM 7.38 45.284 0.034 6.94 1.97 11.45
12/17/2021 5:30:00 AM 7.3 45.14 0.034 6.94 1.91 11.48
12/17/2021 5:45:00 AM 7.22 44.996 0.034 6.92 1.88 11.51
12/17/2021 6:00:00 AM 7.14 44.852 0.034 6.93 1.9 11.53
12/17/2021 6:15:00 AM 7.05 44.69 0.034 6.93 1.91 11.56
12/17/2021 6:30:00 AM 6.97 44.546 0.034 6.93 1.94 11.58
12/17/2021 6:45:00 AM 6.89 44.402 0.034 6.93 1.94 11.61
12/17/2021 7:00:00 AM 6.81 44.258 0.034 6.94 1.94 11.64
12/17/2021 7:15:00 AM 6.73 44.114 0.034 6.94 1.97 11.66
12/17/2021 7:30:00 AM 6.66 43.988 0.034 6.94 1.9 11.7
12/17/2021 7:45:00 AM 6.58 43.844 0.034 6.95 2.01 11.73
12/17/2021 8:00:00 AM 6.5 43.7 0.034 6.95 1.9 11.76
12/17/2021 8:15:00 AM 6.43 43.574 0.034 6.96 1.93 11.8
12/17/2021 8:30:00 AM 6.36 43.448 0.034 6.95 1.87 11.84
12/17/2021 8:45:00 AM 6.3 43.34 0.034 6.98 1.85 11.88
12/17/2021 9:00:00 AM 6.23 43.214 0.034 6.95 1.84 11.92
12/17/2021 9:15:00 AM 6.17 43.106 0.034 6.96 1.85 11.95
12/17/2021 9:30:00 AM 6.12 43.016 0.033 6.99 1.78 11.98
12/17/2021 9:45:00 AM 6.07 42.926 0.033 6.98 1.82 12.02
12/17/2021 10:00:00 AM 6.03 42.854 0.033 6.99 1.83 12.04
12/17/2021 10:15:00 AM 5.99 42.782 0.033 6.99 1.78 12.07
12/17/2021 10:30:00 AM 5.98 42.764 0.033 7.01 1.78 12.09
12/17/2021 10:45:00 AM 5.98 42.764 0.033 7.01 1.76 12.12
12/17/2021 11:00:00 AM 5.98 42.764 0.033 7.02 1.8 12.13
12/17/2021 11:15:00 AM 5.99 42.782 0.033 7.02 1.83 12.15
12/17/2021 11:30:00 AM 6.01 42.818 0.033 7.02 1.78 12.15
12/17/2021 11:45:00 AM 6.03 42.854 0.033 7.03 1.84 12.15
12/17/2021 12:00:00 PM 6.08 42.944 0.033 7.02 1.86 12.15
12/17/2021 12:15:00 PM 6.11 42.998 0.033 7.03 1.77 12.15
12/17/2021 12:30:00 PM 6.15 43.07 0.033 7.04 1.81 12.14
12/17/2021 12:45:00 PM 6.15 43.07 0.033 7.05 1.81 12.14
12/17/2021 1:00:00 PM 6.16 43.088 0.033 7.03 1.78 12.14
12/17/2021 1:15:00 PM 6.18 43.124 0.033 7.04 1.78 12.14
12/17/2021 1:30:00 PM 6.21 43.178 0.033 7.05 1.75 12.14
12/17/2021 1:45:00 PM 6.24 43.232 0.033 7.04 1.76 12.13
12/17/2021 2:00:00 PM 6.27 43.286 0.033 7.05 1.84 12.13
12/17/2021 2:15:00 PM 6.29 43.322 0.033 7.06 1.78 12.12
12/17/2021 2:30:00 PM 6.31 43.358 0.033 7.05 1.71 12.11
12/17/2021 2:45:00 PM 6.36 43.448 0.033 7.05 1.73 12.09
12/17/2021 3:00:00 PM 6.39 43.502 0.033 7.06 1.93 12.06
12/17/2021 3:15:00 PM 6.4 43.52 0.033 7.05 1.85 12.05
12/17/2021 3:30:00 PM 6.42 43.556 0.033 7.04 1.78 12.03
12/17/2021 3:45:00 PM 6.44 43.592 0.033 7.04 1.79 11.99
12/17/2021 4:00:00 PM 6.45 43.61 0.033 7.01 1.77 11.98
12/17/2021 4:15:00 PM 6.46 43.628 0.033 7 2.34 11.94
12/17/2021 4:30:00 PM 6.45 43.61 0.033 7 2.09 11.91
12/17/2021 4:45:00 PM 6.44 43.592 0.033 6.99 2.06 11.88
12/17/2021 5:00:00 PM 6.43 43.574 0.033 6.99 1.78 11.86
12/17/2021 5:15:00 PM 6.41 43.538 0.033 6.98 1.78 11.84
12/17/2021 5:30:00 PM 6.38 43.484 0.033 6.96 2.37 11.84
12/17/2021 5:45:00 PM 6.35 43.43 0.033 6.97 1.86 11.84
12/17/2021 6:00:00 PM 6.32 43.376 0.033 6.94 2.27 11.85
12/17/2021 6:15:00 PM 6.29 43.322 0.033 6.95 2.05 11.85
12/17/2021 6:30:00 PM 6.25 43.25 0.033 6.94 2.18 11.86
12/17/2021 6:45:00 PM 6.21 43.178 0.033 6.93 2.2 11.88
12/17/2021 7:00:00 PM 6.17 43.106 0.033 6.95 2.44 11.89
12/17/2021 7:15:00 PM 6.13 43.034 0.033 6.95 1.94 11.9
12/17/2021 7:30:00 PM 6.09 42.962 0.033 6.94 1.93 11.91
12/17/2021 7:45:00 PM 6.05 42.89 0.033 6.94 1.89 11.93
12/17/2021 8:00:00 PM 6.02 42.836 0.033 6.94 1.9 11.94
12/17/2021 8:15:00 PM 5.98 42.764 0.033 6.95 1.83 11.96
12/17/2021 8:30:00 PM 5.94 42.692 0.034 6.95 1.99 11.96
12/17/2021 8:45:00 PM 5.91 42.638 0.034 6.94 1.9 11.98
12/17/2021 9:00:00 PM 5.88 42.584 0.034 6.95 1.84 11.98
12/17/2021 9:15:00 PM 5.84 42.512 0.034 6.95 1.87 12
12/17/2021 9:30:00 PM 5.8 42.44 0.034 6.95 1.84 12.01
12/17/2021 9:45:00 PM 5.77 42.386 0.034 6.95 1.88 12.02
12/17/2021 10:00:00 PM 5.74 42.332 0.034 6.95 1.87 12.03
12/17/2021 10:15:00 PM 5.72 42.296 0.034 6.96 1.83 12.03
12/17/2021 10:30:00 PM 5.7 42.26 0.034 6.95 1.83 12.04
12/17/2021 10:45:00 PM 5.68 42.224 0.034 6.94 1.83 12.05
12/17/2021 11:00:00 PM 5.66 42.188 0.034 6.95 1.87 12.06
12/17/2021 11:15:00 PM 5.64 42.152 0.034 6.95 1.86 12.06
12/17/2021 11:30:00 PM 5.63 42.134 0.034 6.95 1.94 12.06
12/17/2021 11:45:00 PM 5.61 42.098 0.034 6.96 1.74 12.07
12/18/2021 12:00:00 AM 5.6 42.08 0.034 6.96 1.78 12.08
12/18/2021 12:15:00 AM 5.58 42.044 0.034 6.95 1.9 12.08
12/18/2021 12:30:00 AM 5.57 42.026 0.034 6.95 1.77 12.08
12/18/2021 12:45:00 AM 5.56 42.008 0.034 6.96 1.76 12.09
12/18/2021 1:00:00 AM 5.55 41.99 0.034 6.95 1.89 12.09
12/18/2021 1:15:00 AM 5.54 41.972 0.034 6.94 1.86 12.1
12/18/2021 1:30:00 AM 5.53 41.954 0.034 6.96 1.92 12.09
12/18/2021 1:45:00 AM 5.52 41.936 0.034 6.96 1.85 12.1
12/18/2021 2:00:00 AM 5.5 41.9 0.034 6.95 1.85 12.09
12/18/2021 2:15:00 AM 5.49 41.882 0.034 6.96 1.81 12.1
12/18/2021 2:30:00 AM 5.49 41.882 0.034 6.95 1.82 12.1
12/18/2021 2:45:00 AM 5.48 41.864 0.034 6.95 1.83 12.1
12/18/2021 3:00:00 AM 5.47 41.846 0.034 6.96 1.77 12.1
12/18/2021 3:15:00 AM 5.47 41.846 0.034 6.96 1.84 12.11
12/18/2021 3:30:00 AM 5.46 41.828 0.034 6.96 1.8 12.11
12/18/2021 3:45:00 AM 5.46 41.828 0.034 6.96 1.8 12.11
12/18/2021 4:00:00 AM 5.45 41.81 0.034 6.96 1.81 12.11
12/18/2021 4:15:00 AM 5.45 41.81 0.034 6.95 1.78 12.11
12/18/2021 4:30:00 AM 5.44 41.792 0.034 6.95 1.82 12.11
12/18/2021 4:45:00 AM 5.44 41.792 0.034 6.94 1.81 12.11
12/18/2021 5:00:00 AM 5.44 41.792 0.034 6.95 1.79 12.11
12/18/2021 5:15:00 AM 5.44 41.792 0.034 6.96 1.83 12.11
12/18/2021 5:30:00 AM 5.44 41.792 0.034 6.95 1.85 12.11
12/18/2021 5:45:00 AM 5.43 41.774 0.034 6.95 1.74 12.11
12/18/2021 6:00:00 AM 5.43 41.774 0.034 6.96 1.83 12.1
12/18/2021 6:15:00 AM 5.43 41.774 0.034 6.95 1.73 12.1
12/18/2021 6:30:00 AM 5.43 41.774 0.034 6.96 1.84 12.1
12/18/2021 6:45:00 AM 5.43 41.774 0.034 6.95 1.85 12.1
12/18/2021 7:00:00 AM 5.43 41.774 0.034 6.96 1.84 12.1
12/18/2021 7:15:00 AM 5.43 41.774 0.034 6.96 1.83 12.1
12/18/2021 7:30:00 AM 5.43 41.774 0.034 6.95 1.8 12.1
12/18/2021 7:45:00 AM 5.42 41.756 0.034 6.96 1.8 12.1
12/18/2021 8:00:00 AM 5.42 41.756 0.034 6.97 1.69 12.11
12/18/2021 8:15:00 AM 5.42 41.756 0.034 6.97 1.79 12.12
12/18/2021 8:30:00 AM 5.41 41.738 0.033 6.97 1.74 12.14
12/18/2021 8:45:00 AM 5.4 41.72 0.033 6.98 1.77 12.16
12/18/2021 9:00:00 AM 5.4 41.72 0.033 6.99 1.85 12.18
12/18/2021 9:15:00 AM 5.4 41.72 0.033 6.98 1.8 12.19
12/18/2021 9:30:00 AM 5.41 41.738 0.033 7 1.79 12.2
12/18/2021 9:45:00 AM 5.41 41.738 0.033 6.99 1.8 12.2
12/18/2021 10:00:00 AM 5.41 41.738 0.033 6.99 1.79 12.21
12/18/2021 10:15:00 AM 5.43 41.774 0.033 7 1.81 12.23
12/18/2021 10:30:00 AM 5.44 41.792 0.033 7.02 1.81 12.24
12/18/2021 10:45:00 AM 5.45 41.81 0.033 7.02 1.72 12.23
12/18/2021 11:00:00 AM 5.45 41.81 0.033 7.01 1.79 12.21
12/18/2021 11:15:00 AM 5.45 41.81 0.033 7 1.76 12.2
12/18/2021 11:30:00 AM 5.46 41.828 0.033 7.01 1.76 12.2
12/18/2021 11:45:00 AM 5.47 41.846 0.033 7.02 1.72 12.21
12/18/2021 12:00:00 PM 5.48 41.864 0.033 7.01 1.79 12.2
12/18/2021 12:15:00 PM 5.48 41.864 0.033 7.02 1.74 12.19
12/18/2021 12:30:00 PM 5.5 41.9 0.033 7.02 1.81 12.18
12/18/2021 12:45:00 PM 5.51 41.918 0.033 7.01 1.76 12.16
12/18/2021 1:00:00 PM 5.52 41.936 0.033 7.01 1.74 12.15
12/18/2021 1:15:00 PM 5.53 41.954 0.033 7 1.86 12.13
12/18/2021 1:30:00 PM 5.54 41.972 0.033 7 1.81 12.12
12/18/2021 1:45:00 PM 5.55 41.99 0.033 7.01 1.82 12.12
12/18/2021 2:00:00 PM 5.56 42.008 0.033 7.01 1.77 12.11
12/18/2021 2:15:00 PM 5.58 42.044 0.033 7.01 1.85 12.11
12/18/2021 2:30:00 PM 5.6 42.08 0.033 7 1.78 12.1
12/18/2021 2:45:00 PM 5.61 42.098 0.033 6.99 1.83 12.09
12/18/2021 3:00:00 PM 5.62 42.116 0.033 7 1.8 12.07
12/18/2021 3:15:00 PM 5.64 42.152 0.033 6.98 1.87 12.05
12/18/2021 3:30:00 PM 5.65 42.17 0.033 6.99 1.83 12.03
12/18/2021 3:45:00 PM 5.66 42.188 0.033 6.97 1.88 12.02
12/18/2021 4:00:00 PM 5.67 42.206 0.033 6.97 1.82 11.99
12/18/2021 4:15:00 PM 5.68 42.224 0.033 6.97 1.9 11.97
12/18/2021 4:30:00 PM 5.69 42.242 0.033 6.95 1.86 11.96
12/18/2021 4:45:00 PM 5.69 42.242 0.033 6.95 1.9 11.95
12/18/2021 5:00:00 PM 5.7 42.26 0.033 6.95 1.92 11.93
12/18/2021 5:15:00 PM 5.71 42.278 0.033 6.95 1.98 11.92
12/18/2021 5:30:00 PM 5.72 42.296 0.033 6.94 2.02 11.91
12/18/2021 5:45:00 PM 5.73 42.314 0.033 6.95 1.93 11.9
12/18/2021 6:00:00 PM 5.74 42.332 0.033 6.95 1.94 11.89
12/18/2021 6:15:00 PM 5.74 42.332 0.033 6.92 1.95 11.89
12/18/2021 6:30:00 PM 5.75 42.35 0.033 6.95 1.93 11.89
12/18/2021 6:45:00 PM 5.76 42.368 0.033 6.93 1.99 11.88
12/18/2021 7:00:00 PM 5.77 42.386 0.033 6.93 1.99 11.88
12/18/2021 7:15:00 PM 5.78 42.404 0.033 6.94 1.98 11.88
12/18/2021 7:30:00 PM 5.79 42.422 0.033 6.93 2 11.88
12/18/2021 7:45:00 PM 5.79 42.422 0.033 6.94 1.95 11.87
12/18/2021 8:00:00 PM 5.8 42.44 0.033 6.93 2 11.87
12/18/2021 8:15:00 PM 5.81 42.458 0.033 6.94 2.04 11.87
12/18/2021 8:30:00 PM 5.81 42.458 0.033 6.93 2.06 11.87
12/18/2021 8:45:00 PM 5.82 42.476 0.033 6.93 2.05 11.86
12/18/2021 9:00:00 PM 5.83 42.494 0.033 6.92 1.97 11.86
12/18/2021 9:15:00 PM 5.83 42.494 0.033 6.93 1.97 11.86
12/18/2021 9:30:00 PM 5.84 42.512 0.033 6.92 2.02 11.86
12/18/2021 9:45:00 PM 5.85 42.53 0.033 6.93 1.98 11.86
12/18/2021 10:00:00 PM 5.86 42.548 0.033 6.94 1.98 11.86
12/18/2021 10:15:00 PM 5.86 42.548 0.033 6.93 2.01 11.86
12/18/2021 10:30:00 PM 5.87 42.566 0.033 6.93 1.98 11.86
12/18/2021 10:45:00 PM 5.88 42.584 0.033 6.92 2.06 11.86
12/18/2021 11:00:00 PM 5.89 42.602 0.033 6.92 1.97 11.86
12/18/2021 11:15:00 PM 5.89 42.602 0.033 6.93 2.05 11.85
12/18/2021 11:30:00 PM 5.9 42.62 0.033 6.93 2.03 11.85
12/18/2021 11:45:00 PM 5.91 42.638 0.033 6.91 1.98 11.85
12/19/2021 12:00:00 AM 5.91 42.638 0.033 6.93 1.96 11.85
12/19/2021 12:15:00 AM 5.92 42.656 0.033 6.93 2.01 11.86
12/19/2021 12:30:00 AM 5.91 42.638 0.034 6.93 1.96 11.86
12/19/2021 12:45:00 AM 5.9 42.62 0.034 6.93 2 11.87
12/19/2021 1:00:00 AM 5.9 42.62 0.034 6.92 2.03 11.87
12/19/2021 1:15:00 AM 5.89 42.602 0.034 6.94 1.96 11.88
12/19/2021 1:30:00 AM 5.88 42.584 0.034 6.94 1.94 11.88
12/19/2021 1:45:00 AM 5.88 42.584 0.034 6.93 2.04 11.89
12/19/2021 2:00:00 AM 5.87 42.566 0.034 6.93 1.93 11.9
12/19/2021 2:15:00 AM 5.84 42.512 0.034 6.94 1.97 11.91
12/19/2021 2:30:00 AM 5.81 42.458 0.034 6.93 1.95 11.92
12/19/2021 2:45:00 AM 5.8 42.44 0.034 6.93 2.01 11.93
12/19/2021 3:00:00 AM 5.77 42.386 0.034 6.94 1.93 11.94
12/19/2021 3:15:00 AM 5.75 42.35 0.034 6.93 1.96 11.95
12/19/2021 3:30:00 AM 5.73 42.314 0.034 6.94 1.94 11.97
12/19/2021 3:45:00 AM 5.71 42.278 0.034 6.93 1.92 11.97
12/19/2021 4:00:00 AM 5.68 42.224 0.034 6.94 1.91 11.98
12/19/2021 4:15:00 AM 5.66 42.188 0.034 6.94 1.95 11.99
12/19/2021 4:30:00 AM 5.64 42.152 0.034 6.93 1.93 12
12/19/2021 4:45:00 AM 5.62 42.116 0.034 6.93 1.92 12
12/19/2021 5:00:00 AM 5.59 42.062 0.034 6.92 1.94 12.01
12/19/2021 5:15:00 AM 5.56 42.008 0.034 6.94 1.91 12.02
12/19/2021 5:30:00 AM 5.53 41.954 0.034 6.94 1.87 12.04
12/19/2021 5:45:00 AM 5.5 41.9 0.034 6.92 1.95 12.05
12/19/2021 6:00:00 AM 5.46 41.828 0.034 6.95 1.91 12.06
12/19/2021 6:15:00 AM 5.43 41.774 0.034 6.94 1.96 12.08
12/19/2021 6:30:00 AM 5.4 41.72 0.034 6.94 1.99 12.09
12/19/2021 6:45:00 AM 5.37 41.666 0.034 6.94 1.99 12.1
12/19/2021 7:00:00 AM 5.33 41.594 0.034 6.95 1.86 12.11
12/19/2021 7:15:00 AM 5.3 41.54 0.034 6.93 1.9 12.13
12/19/2021 7:30:00 AM 5.27 41.486 0.034 6.94 1.96 12.15
12/19/2021 7:45:00 AM 5.24 41.432 0.034 6.94 1.81 12.16
12/19/2021 8:00:00 AM 5.21 41.378 0.034 6.96 1.86 12.18
12/19/2021 8:15:00 AM 5.17 41.306 0.034 6.95 1.78 12.19
12/19/2021 8:30:00 AM 5.14 41.252 0.034 6.96 1.96 12.21
12/19/2021 8:45:00 AM 5.11 41.198 0.034 6.96 1.86 12.24
12/19/2021 9:00:00 AM 5.08 41.144 0.034 6.96 1.82 12.29
12/19/2021 9:15:00 AM 5.05 41.09 0.034 6.98 1.84 12.32
12/19/2021 9:30:00 AM 5.03 41.054 0.034 6.98 1.86 12.35
12/19/2021 9:45:00 AM 5.02 41.036 0.034 6.99 1.82 12.39
12/19/2021 10:00:00 AM 5.01 41.018 0.034 7 1.81 12.43
12/19/2021 10:15:00 AM 5 41 0.034 7.02 1.82 12.46
12/19/2021 10:30:00 AM 4.99 40.982 0.034 7.03 1.88 12.49
12/19/2021 10:45:00 AM 5 41 0.034 7.04 1.76 12.51
12/19/2021 11:00:00 AM 5 41 0.034 7.04 1.8 12.53
12/19/2021 11:15:00 AM 5.01 41.018 0.034 7.06 1.87 12.53
12/19/2021 11:30:00 AM 5.03 41.054 0.034 7.06 1.81 12.54
12/19/2021 11:45:00 AM 5.04 41.072 0.034 7.05 1.82 12.54
12/19/2021 12:00:00 PM 5.06 41.108 0.034 7.06 1.75 12.53
12/19/2021 12:15:00 PM 5.07 41.126 0.034 7.06 1.82 12.53
12/19/2021 12:30:00 PM 5.08 41.144 0.034 7.06 1.82 12.52
12/19/2021 12:45:00 PM 5.06 41.108 0.034 7.04 1.75 12.52
12/19/2021 1:00:00 PM 5.03 41.054 0.033 7.05 1.81 12.51
12/19/2021 1:15:00 PM 5.02 41.036 0.033 7.06 1.76 12.5
12/19/2021 1:30:00 PM 5.01 41.018 0.033 7.04 1.72 12.5
12/19/2021 1:45:00 PM 4.98 40.964 0.033 7.04 1.78 12.49
12/19/2021 2:00:00 PM 4.97 40.946 0.033 7.04 1.82 12.48
12/19/2021 2:15:00 PM 4.97 40.946 0.033 7.04 1.74 12.48
12/19/2021 2:30:00 PM 4.97 40.946 0.033 7.05 1.8 12.49
12/19/2021 2:45:00 PM 4.96 40.928 0.033 7.03 1.81 12.48
12/19/2021 3:00:00 PM 4.96 40.928 0.033 7.05 1.75 12.49
12/19/2021 3:15:00 PM 4.94 40.892 0.033 7.02 1.81 12.47
12/19/2021 3:30:00 PM 4.91 40.838 0.033 7.03 2.05 12.47
12/19/2021 3:45:00 PM 4.87 40.766 0.033 7.03 1.79 12.45
12/19/2021 4:00:00 PM 4.85 40.73 0.033 7.02 1.86 12.45
12/19/2021 4:15:00 PM 4.83 40.694 0.033 7.01 1.8 12.43
12/19/2021 4:30:00 PM 4.79 40.622 0.033 7 1.85 12.43
12/19/2021 4:45:00 PM 4.75 40.55 0.034 7 1.82 12.42
12/19/2021 5:00:00 PM 4.7 40.46 0.034 6.99 1.83 12.42
12/19/2021 5:15:00 PM 4.66 40.388 0.034 6.99 1.79 12.41
12/19/2021 5:30:00 PM 4.61 40.298 0.034 6.98 1.85 12.42
12/19/2021 5:45:00 PM 4.56 40.208 0.034 6.98 1.93 12.43
12/19/2021 6:00:00 PM 4.51 40.118 0.034 6.96 1.87 12.44
12/19/2021 6:15:00 PM 4.46 40.028 0.034 6.97 1.88 12.45
12/19/2021 6:30:00 PM 4.41 39.938 0.034 6.97 1.87 12.48
12/19/2021 6:45:00 PM 4.36 39.848 0.034 6.98 1.81 12.49
12/19/2021 7:00:00 PM 4.3 39.74 0.034 6.98 1.85 12.52
12/19/2021 7:15:00 PM 4.25 39.65 0.034 6.97 1.88 12.54
12/19/2021 7:30:00 PM 4.2 39.56 0.034 6.97 1.82 12.56
12/19/2021 7:45:00 PM 4.15 39.47 0.034 6.98 1.98 12.58
12/19/2021 8:00:00 PM 4.1 39.38 0.034 6.97 1.85 12.6
12/19/2021 8:15:00 PM 4.05 39.29 0.034 6.98 1.85 12.61
12/19/2021 8:30:00 PM 4 39.2 0.034 6.97 1.85 12.62
12/19/2021 8:45:00 PM 3.95 39.11 0.034 6.98 1.78 12.65
12/19/2021 9:00:00 PM 3.91 39.038 0.034 6.99 1.86 12.66
12/19/2021 9:15:00 PM 3.86 38.948 0.034 6.98 1.81 12.68
12/19/2021 9:30:00 PM 3.81 38.858 0.034 6.98 1.86 12.69
12/19/2021 9:45:00 PM 3.76 38.768 0.034 6.98 2.03 12.71
12/19/2021 10:00:00 PM 3.71 38.678 0.034 6.99 1.79 12.74
12/19/2021 10:15:00 PM 3.66 38.588 0.034 6.98 2.04 12.75
12/19/2021 10:30:00 PM 3.62 38.516 0.034 6.98 1.85 12.77
12/19/2021 10:45:00 PM 3.57 38.426 0.034 6.98 1.93 12.79
12/19/2021 11:00:00 PM 3.52 38.336 0.034 6.99 1.79 12.81
12/19/2021 11:15:00 PM 3.47 38.246 0.034 6.99 1.8 12.82
12/19/2021 11:30:00 PM 3.43 38.174 0.034 6.98 1.83 12.84
12/19/2021 11:45:00 PM 3.38 38.084 0.034 6.98 1.8 12.86
12/20/2021 12:00:00 AM 3.33 37.994 0.034 6.98 1.82 12.87
12/20/2021 12:15:00 AM 3.29 37.922 0.034 6.98 1.8 12.89
12/20/2021 12:30:00 AM 3.24 37.832 0.034 6.98 1.78 12.9
12/20/2021 12:45:00 AM 3.19 37.742 0.034 6.99 1.79 12.92
12/20/2021 1:00:00 AM 3.15 37.67 0.034 6.99 1.81 12.94
12/20/2021 1:15:00 AM 3.1 37.58 0.034 6.98 1.95 12.96
12/20/2021 1:30:00 AM 3.06 37.508 0.034 6.98 1.75 12.97
12/20/2021 1:45:00 AM 3.01 37.418 0.034 6.99 1.8 12.99
12/20/2021 2:00:00 AM 2.97 37.346 0.034 6.99 1.8 13
12/20/2021 2:15:00 AM 2.93 37.274 0.034 6.99 1.7 13.02
12/20/2021 2:30:00 AM 2.88 37.184 0.034 6.98 1.75 13.03
12/20/2021 2:45:00 AM 2.84 37.112 0.034 6.98 1.87 13.05
12/20/2021 3:00:00 AM 2.8 37.04 0.034 6.99 1.78 13.07
12/20/2021 3:15:00 AM 2.76 36.968 0.034 6.99 1.73 13.09
12/20/2021 3:30:00 AM 2.72 36.896 0.034 6.99 1.81 13.1
12/20/2021 3:45:00 AM 2.68 36.824 0.034 6.99 1.78 13.11
12/20/2021 4:00:00 AM 2.63 36.734 0.034 6.99 1.78 13.13
12/20/2021 4:15:00 AM 2.59 36.662 0.034 6.99 1.74 13.14
12/20/2021 4:30:00 AM 2.55 36.59 0.034 6.99 1.77 13.16
12/20/2021 4:45:00 AM 2.51 36.518 0.034 6.98 1.77 13.17
12/20/2021 5:00:00 AM 2.47 36.446 0.034 6.99 1.74 13.19
12/20/2021 5:15:00 AM 2.44 36.392 0.034 6.99 1.82 13.22
12/20/2021 5:30:00 AM 2.4 36.32 0.034 6.98 1.72 13.23
12/20/2021 5:45:00 AM 2.36 36.248 0.034 6.99 1.73 13.24
12/20/2021 6:00:00 AM 2.32 36.176 0.034 6.99 1.75 13.26
12/20/2021 6:15:00 AM 2.28 36.104 0.034 6.99 1.68 13.26
12/20/2021 6:30:00 AM 2.24 36.032 0.034 6.99 1.74 13.27
12/20/2021 6:45:00 AM 2.21 35.978 0.034 6.99 1.72 13.29
12/20/2021 7:00:00 AM 2.17 35.906 0.034 6.99 1.73 13.3
12/20/2021 7:15:00 AM 2.14 35.852 0.034 7 1.71 13.32
12/20/2021 7:30:00 AM 2.1 35.78 0.034 6.98 1.75 13.34
12/20/2021 7:45:00 AM 2.07 35.726 0.034 6.99 1.7 13.36
12/20/2021 8:00:00 AM 2.03 35.654 0.034 6.99 1.72 13.39
12/20/2021 8:15:00 AM 2.01 35.618 0.034 7.01 1.75 13.42
12/20/2021 8:30:00 AM 1.98 35.564 0.034 7.01 1.69 13.45
12/20/2021 8:45:00 AM 1.97 35.546 0.034 7.01 1.69 13.48
12/20/2021 9:00:00 AM 1.97 35.546 0.034 7.03 1.67 13.52
12/20/2021 9:15:00 AM 1.97 35.546 0.034 7.04 1.65 13.55
12/20/2021 9:30:00 AM 1.99 35.582 0.034 7.04 1.71 13.58
12/20/2021 9:45:00 AM 2.01 35.618 0.034 7.04 1.66 13.59
12/20/2021 10:00:00 AM 2.04 35.672 0.034 7.05 1.67 13.6
12/20/2021 10:15:00 AM 2.08 35.744 0.034 7.05 1.65 13.59
12/20/2021 10:30:00 AM 2.11 35.798 0.034 7.07 1.66 13.59
12/20/2021 10:45:00 AM 2.16 35.888 0.034 7.07 1.68 13.58
12/20/2021 11:00:00 AM 2.22 35.996 0.034 7.06 1.65 13.57
12/20/2021 11:15:00 AM 2.28 36.104 0.034 7.07 1.63 13.55
12/20/2021 11:30:00 AM 2.34 36.212 0.034 7.07 1.65 13.52
12/20/2021 11:45:00 AM 2.42 36.356 0.034 7.08 1.62 13.5
12/20/2021 12:00:00 PM 2.5 36.5 0.034 7.07 1.66 13.47
12/20/2021 12:15:00 PM 2.56 36.608 0.034 7.06 1.59 13.45
12/20/2021 12:30:00 PM 2.62 36.716 0.033 7.07 1.62 13.4
12/20/2021 12:45:00 PM 2.69 36.842 0.033 7.06 1.64 13.37
12/20/2021 1:00:00 PM 2.74 36.932 0.033 7.06 1.65 13.34
12/20/2021 1:15:00 PM 2.78 37.004 0.033 7.05 1.59 13.31
12/20/2021 1:30:00 PM 2.82 37.076 0.033 7.05 1.64 13.28
12/20/2021 1:45:00 PM 2.88 37.184 0.033 7.06 1.6 13.24
12/20/2021 2:00:00 PM 2.93 37.274 0.033 7.06 1.62 13.21
12/20/2021 2:15:00 PM 2.98 37.364 0.033 7.05 1.66 13.19
12/20/2021 2:30:00 PM 3.01 37.418 0.033 7.05 1.64 13.16
12/20/2021 2:45:00 PM 3.03 37.454 0.033 7.06 1.6 13.13
12/20/2021 3:00:00 PM 3.04 37.472 0.033 7.05 1.66 13.1
12/20/2021 3:15:00 PM 3.06 37.508 0.033 7.03 1.66 13.08
12/20/2021 3:30:00 PM 3.07 37.526 0.033 7.04 1.66 13.06
12/20/2021 3:45:00 PM 3.09 37.562 0.033 7.03 1.75 13.04
12/20/2021 4:00:00 PM 3.11 37.598 0.033 7.02 1.67 13.02
12/20/2021 4:15:00 PM 3.13 37.634 0.033 7.04 1.65 13
12/20/2021 4:30:00 PM 3.14 37.652 0.033 7.03 1.62 12.97
12/20/2021 4:45:00 PM 3.15 37.67 0.033 7.02 1.65 12.95
12/20/2021 5:00:00 PM 3.15 37.67 0.034 7.01 1.63 12.93
12/20/2021 5:15:00 PM 3.16 37.688 0.034 7.01 1.7 12.91
12/20/2021 5:30:00 PM 3.16 37.688 0.034 7 1.72 12.9
12/20/2021 5:45:00 PM 3.16 37.688 0.034 7 1.73 12.88
12/20/2021 6:00:00 PM 3.16 37.688 0.034 7 1.68 12.88
12/20/2021 6:15:00 PM 3.15 37.67 0.034 6.99 1.72 12.88
12/20/2021 6:30:00 PM 3.14 37.652 0.034 6.98 1.82 12.88
12/20/2021 6:45:00 PM 3.12 37.616 0.034 6.99 1.68 12.89
12/20/2021 7:00:00 PM 3.1 37.58 0.034 6.99 1.73 12.89
12/20/2021 7:15:00 PM 3.08 37.544 0.034 6.98 1.67 12.9
12/20/2021 7:30:00 PM 3.06 37.508 0.034 6.98 1.74 12.91
12/20/2021 7:45:00 PM 3.02 37.436 0.034 6.99 1.69 12.92
12/20/2021 8:00:00 PM 3 37.4 0.034 7 1.73 12.93
12/20/2021 8:15:00 PM 2.97 37.346 0.034 6.98 1.68 12.94
12/20/2021 8:30:00 PM 2.94 37.292 0.034 7 1.76 12.95
12/20/2021 8:45:00 PM 2.91 37.238 0.034 6.99 1.73 12.96
12/20/2021 9:00:00 PM 2.88 37.184 0.034 6.98 1.7 12.98
12/20/2021 9:15:00 PM 2.85 37.13 0.034 7 1.68 12.99
12/20/2021 9:30:00 PM 2.81 37.058 0.034 6.99 1.73 12.99
12/20/2021 9:45:00 PM 2.78 37.004 0.034 6.99 1.71 13.01
12/20/2021 10:00:00 PM 2.75 36.95 0.034 6.99 1.72 13.02
12/20/2021 10:15:00 PM 2.72 36.896 0.034 6.99 1.72 13.02
12/20/2021 10:30:00 PM 2.69 36.842 0.034 6.99 1.71 13.03
12/20/2021 10:45:00 PM 2.66 36.788 0.034 6.99 1.7 13.05
12/20/2021 11:00:00 PM 2.63 36.734 0.034 7 1.73 13.05
12/20/2021 11:15:00 PM 2.6 36.68 0.034 6.98 1.73 13.07
12/20/2021 11:30:00 PM 2.57 36.626 0.034 6.99 1.76 13.08
12/20/2021 11:45:00 PM 2.54 36.572 0.034 6.99 1.75 13.09
12/21/2021 12:00:00 AM 2.51 36.518 0.034 7.01 1.68 13.11
12/21/2021 12:15:00 AM 2.48 36.464 0.034 6.99 1.66 13.11
12/21/2021 12:30:00 AM 2.45 36.41 0.034 7 1.73 13.12
12/21/2021 12:45:00 AM 2.42 36.356 0.034 6.99 1.74 13.12
12/21/2021 1:00:00 AM 2.39 36.302 0.034 6.99 1.71 13.13
12/21/2021 1:15:00 AM 2.36 36.248 0.034 6.99 1.67 13.14
12/21/2021 1:30:00 AM 2.33 36.194 0.034 6.99 1.76 13.16
12/21/2021 1:45:00 AM 2.3 36.14 0.034 6.99 1.77 13.17
12/21/2021 2:00:00 AM 2.27 36.086 0.034 6.98 1.74 13.17
12/21/2021 2:15:00 AM 2.24 36.032 0.034 6.99 1.68 13.19
12/21/2021 2:30:00 AM 2.22 35.996 0.034 6.99 1.7 13.2
12/21/2021 2:45:00 AM 2.19 35.942 0.034 6.99 1.73 13.21
12/21/2021 3:00:00 AM 2.16 35.888 0.034 7 1.84 13.22
12/21/2021 3:15:00 AM 2.13 35.834 0.034 6.99 1.68 13.23
12/21/2021 3:30:00 AM 2.1 35.78 0.034 6.99 1.66 13.24
12/21/2021 3:45:00 AM 2.07 35.726 0.034 6.99 1.72 13.24
12/21/2021 4:00:00 AM 2.04 35.672 0.034 6.99 1.67 13.26
12/21/2021 4:15:00 AM 2.02 35.636 0.034 6.99 1.69 13.27
12/21/2021 4:30:00 AM 1.99 35.582 0.034 7 1.67 13.29
12/21/2021 4:45:00 AM 1.96 35.528 0.034 7.01 1.67 13.29
12/21/2021 5:00:00 AM 1.94 35.492 0.034 7 1.71 13.3
12/21/2021 5:15:00 AM 1.91 35.438 0.034 7 1.69 13.31
12/21/2021 5:30:00 AM 1.89 35.402 0.034 6.99 1.71 13.32
12/21/2021 5:45:00 AM 1.86 35.348 0.034 6.98 1.66 13.33
12/21/2021 6:00:00 AM 1.84 35.312 0.034 6.99 1.67 13.34
12/21/2021 6:15:00 AM 1.83 35.294 0.034 7 1.65 13.35
12/21/2021 6:30:00 AM 1.83 35.294 0.034 6.99 1.65 13.36
12/21/2021 6:45:00 AM 1.83 35.294 0.034 6.98 1.71 13.36
12/21/2021 7:00:00 AM 1.83 35.294 0.034 7 1.66 13.36
12/21/2021 7:15:00 AM 1.83 35.294 0.034 6.99 1.69 13.36
12/21/2021 7:30:00 AM 1.84 35.312 0.034 6.98 1.75 13.37
12/21/2021 7:45:00 AM 1.85 35.33 0.034 6.99 1.68 13.37
12/21/2021 8:00:00 AM 1.86 35.348 0.034 7 1.64 13.37
12/21/2021 8:15:00 AM 1.87 35.366 0.034 7 1.63 13.38
12/21/2021 8:30:00 AM 1.88 35.384 0.034 7 1.7 13.39
12/21/2021 8:45:00 AM 1.9 35.42 0.034 7 1.69 13.4
12/21/2021 9:00:00 AM 1.92 35.456 0.034 7.01 1.69 13.41
12/21/2021 9:15:00 AM 1.94 35.492 0.034 7.02 1.67 13.42
12/21/2021 9:30:00 AM 1.96 35.528 0.034 7.03 1.6 13.43
12/21/2021 9:45:00 AM 2 35.6 0.034 7.03 1.7 13.45
12/21/2021 10:00:00 AM 2.05 35.69 0.034 7.03 1.69 13.45
12/21/2021 10:15:00 AM 2.1 35.78 0.034 7.05 1.62 13.47
12/21/2021 10:30:00 AM 2.17 35.906 0.034 7.04 1.61 13.46
12/21/2021 10:45:00 AM 2.22 35.996 0.034 7.06 1.66 13.45
12/21/2021 11:00:00 AM 2.28 36.104 0.034 7.05 1.68 13.43
12/21/2021 11:15:00 AM 2.34 36.212 0.034 7.07 1.6 13.42
12/21/2021 11:30:00 AM 2.41 36.338 0.034 7.08 1.57 13.39
12/21/2021 11:45:00 AM 2.49 36.482 0.034 7.08 1.67 13.36
12/21/2021 12:00:00 PM 2.57 36.626 0.034 7.07 1.62 13.35
12/21/2021 12:15:00 PM 2.66 36.788 0.033 7.07 1.67 13.31
12/21/2021 12:30:00 PM 2.75 36.95 0.033 7.07 1.62 13.28
12/21/2021 12:45:00 PM 2.89 37.202 0.033 7.08 1.59 13.24
12/21/2021 1:00:00 PM 2.91 37.238 0.033 7.08 1.63 13.2
12/21/2021 1:15:00 PM 2.98 37.364 0.033 7.07 1.58 13.17
12/21/2021 1:30:00 PM 3.04 37.472 0.033 7.07 1.58 13.13
12/21/2021 1:45:00 PM 3.11 37.598 0.033 7.07 1.63 13.09
12/21/2021 2:00:00 PM 3.18 37.724 0.033 7.07 1.59 13.05
12/21/2021 2:15:00 PM 3.25 37.85 0.033 7.06 1.64 13.01
12/21/2021 2:30:00 PM 3.3 37.94 0.033 7.06 1.63 12.98
12/21/2021 2:45:00 PM 3.33 37.994 0.033 7.06 1.6 12.94
12/21/2021 3:00:00 PM 3.35 38.03 0.033 7.05 1.68 12.91
12/21/2021 3:15:00 PM 3.37 38.066 0.033 7.04 1.57 12.89
12/21/2021 3:30:00 PM 3.39 38.102 0.033 7.05 1.65 12.87
12/21/2021 3:45:00 PM 3.4 38.12 0.033 7.04 1.68 12.84
12/21/2021 4:00:00 PM 3.41 38.138 0.033 7.03 1.62 12.82
12/21/2021 4:15:00 PM 3.43 38.174 0.033 7.03 1.64 12.8
12/21/2021 4:30:00 PM 3.44 38.192 0.033 7.02 1.83 12.77
12/21/2021 4:45:00 PM 3.45 38.21 0.033 7.02 1.71 12.73
12/21/2021 5:00:00 PM 3.45 38.21 0.033 7.01 1.6 12.71
12/21/2021 5:15:00 PM 3.45 38.21 0.033 7.01 1.72 12.69
12/21/2021 5:30:00 PM 3.45 38.21 0.033 7 1.64 12.68
12/21/2021 5:45:00 PM 3.44 38.192 0.034 6.99 1.68 12.67
12/21/2021 6:00:00 PM 3.43 38.174 0.033 6.99 1.68 12.66
12/21/2021 6:15:00 PM 3.42 38.156 0.034 6.99 1.66 12.66
12/21/2021 6:30:00 PM 3.41 38.138 0.034 6.98 1.69 12.66
12/21/2021 6:45:00 PM 3.4 38.12 0.034 6.97 1.7 12.66
12/21/2021 7:00:00 PM 3.38 38.084 0.034 6.99 1.74 12.67
12/21/2021 7:15:00 PM 3.36 38.048 0.034 6.99 1.7 12.67
12/21/2021 7:30:00 PM 3.33 37.994 0.034 6.99 1.72 12.68
12/21/2021 7:45:00 PM 3.31 37.958 0.034 6.99 1.76 12.69
12/21/2021 8:00:00 PM 3.28 37.904 0.034 6.99 1.68 12.7
12/21/2021 8:15:00 PM 3.25 37.85 0.034 7 1.66 12.7
12/21/2021 8:30:00 PM 3.22 37.796 0.034 6.99 1.67 12.71
12/21/2021 8:45:00 PM 3.19 37.742 0.034 6.98 1.66 12.72
12/21/2021 9:00:00 PM 3.16 37.688 0.034 6.98 1.67 12.73
12/21/2021 9:15:00 PM 3.13 37.634 0.034 6.98 1.75 12.74
12/21/2021 9:30:00 PM 3.1 37.58 0.034 6.98 1.68 12.75
12/21/2021 9:45:00 PM 3.07 37.526 0.034 6.99 1.69 12.75
12/21/2021 10:00:00 PM 3.04 37.472 0.034 6.98 1.74 12.76
12/21/2021 10:15:00 PM 3 37.4 0.034 7 1.7 12.77
12/21/2021 10:30:00 PM 2.97 37.346 0.034 6.98 1.69 12.78
12/21/2021 10:45:00 PM 2.94 37.292 0.034 6.98 1.61 12.79
12/21/2021 11:00:00 PM 2.9 37.22 0.034 6.98 1.74 12.8
12/21/2021 11:15:00 PM 2.87 37.166 0.034 6.99 1.81 12.81
12/21/2021 11:30:00 PM 2.84 37.112 0.034 6.98 1.72 12.83
12/21/2021 11:45:00 PM 2.8 37.04 0.034 6.99 1.64 12.84
12/22/2021 12:00:00 AM 2.77 36.986 0.034 6.98 1.67 12.85
12/22/2021 12:15:00 AM 2.73 36.914 0.034 6.98 1.66 12.85
12/22/2021 12:30:00 AM 2.69 36.842 0.034 6.98 1.68 12.87
12/22/2021 12:45:00 AM 2.66 36.788 0.034 6.98 1.63 12.88
12/22/2021 1:00:00 AM 2.62 36.716 0.034 6.99 1.7 12.88
12/22/2021 1:15:00 AM 2.59 36.662 0.034 6.99 1.7 12.89
12/22/2021 1:30:00 AM 2.55 36.59 0.034 6.98 1.66 12.9
12/22/2021 1:45:00 AM 2.52 36.536 0.034 6.97 1.71 12.9
12/22/2021 2:00:00 AM 2.49 36.482 0.034 6.98 1.66 12.92
12/22/2021 2:15:00 AM 2.46 36.428 0.034 6.99 1.7 12.93
12/22/2021 2:30:00 AM 2.43 36.374 0.034 6.99 1.71 12.94
12/22/2021 2:45:00 AM 2.4 36.32 0.034 6.98 1.64 12.94
12/22/2021 3:00:00 AM 2.37 36.266 0.034 6.98 1.68 12.96
12/22/2021 3:15:00 AM 2.34 36.212 0.034 6.98 1.74 12.97
12/22/2021 3:30:00 AM 2.31 36.158 0.034 6.98 1.68 12.98
12/22/2021 3:45:00 AM 2.3 36.14 0.034 6.99 1.67 12.98
12/22/2021 4:00:00 AM 2.29 36.122 0.034 6.99 1.65 12.99
12/22/2021 4:15:00 AM 2.28 36.104 0.034 7 1.66 13
12/22/2021 4:30:00 AM 2.27 36.086 0.034 6.99 1.68 13
12/22/2021 4:45:00 AM 2.27 36.086 0.034 6.97 1.66 13
12/22/2021 5:00:00 AM 2.27 36.086 0.034 6.99 1.67 13
12/22/2021 5:15:00 AM 2.27 36.086 0.034 6.99 1.61 12.99
12/22/2021 5:30:00 AM 2.28 36.104 0.034 6.99 1.66 13
12/22/2021 5:45:00 AM 2.28 36.104 0.034 6.98 1.65 13
12/22/2021 6:00:00 AM 2.28 36.104 0.034 7 1.71 12.99
12/22/2021 6:15:00 AM 2.28 36.104 0.034 6.99 1.65 13
12/22/2021 6:30:00 AM 2.28 36.104 0.034 6.99 1.65 12.99
12/22/2021 6:45:00 AM 2.29 36.122 0.034 7 1.64 13
12/22/2021 7:00:00 AM 2.3 36.14 0.034 6.99 1.83 12.99
12/22/2021 7:15:00 AM 2.31 36.158 0.034 6.99 1.72 12.98
12/22/2021 7:30:00 AM 2.32 36.176 0.034 6.98 1.69 12.99
12/22/2021 7:45:00 AM 2.33 36.194 0.034 6.99 1.65 12.99
12/22/2021 8:00:00 AM 2.35 36.23 0.034 6.99 1.66 12.99
12/22/2021 8:15:00 AM 2.36 36.248 0.034 7 1.67 12.99
12/22/2021 8:30:00 AM 2.38 36.284 0.034 7 1.72 13
12/22/2021 8:45:00 AM 2.4 36.32 0.034 6.99 1.65 13.01
12/22/2021 9:00:00 AM 2.41 36.338 0.034 6.99 1.73 13
12/22/2021 9:15:00 AM 2.44 36.392 0.034 7.01 1.71 13.04
12/22/2021 9:30:00 AM 2.47 36.446 0.034 7.02 1.69 13.06
12/22/2021 9:45:00 AM 2.51 36.518 0.034 7.01 1.7 13.07
12/22/2021 10:00:00 AM 2.55 36.59 0.034 7.03 1.62 13.09
12/22/2021 10:15:00 AM 2.62 36.716 0.034 7.04 1.59 13.1
12/22/2021 10:30:00 AM 2.67 36.806 0.034 7.05 1.63 13.1
12/22/2021 10:45:00 AM 2.72 36.896 0.033 7.05 1.63 13.09
12/22/2021 11:00:00 AM 2.78 37.004 0.033 7.06 1.61 13.08
12/22/2021 11:15:00 AM 2.85 37.13 0.034 7.06 1.66 13.06
12/22/2021 11:30:00 AM 2.93 37.274 0.033 7.06 1.62 13.05
12/22/2021 11:45:00 AM 2.99 37.382 0.033 7.06 1.64 13.03
12/22/2021 12:00:00 PM 2.99 37.382 0.033 7.08 1.72 13.01
12/22/2021 12:15:00 PM 3.04 37.472 0.033 7.07 1.65 12.99
12/22/2021 12:30:00 PM 3.06 37.508 0.033 7.08 1.64 12.99
12/22/2021 12:45:00 PM 3.09 37.562 0.033 7.08 1.81 12.97
12/22/2021 1:00:00 PM 3.12 37.616 0.033 7.08 1.7 12.95
12/22/2021 1:15:00 PM 3.23 37.814 0.033 7.08 1.61 12.96
12/22/2021 1:30:00 PM 3.28 37.904 0.033 7.09 1.62 12.93
12/22/2021 1:45:00 PM 3.32 37.976 0.033 7.1 1.65 12.91
12/22/2021 2:00:00 PM 3.32 37.976 0.033 7.08 1.69 12.89
12/22/2021 2:15:00 PM 3.35 38.03 0.033 7.07 1.58 12.89
12/22/2021 2:30:00 PM 3.37 38.066 0.033 7.08 1.67 12.89
12/22/2021 2:45:00 PM 3.37 38.066 0.033 7.07 1.61 12.89
12/22/2021 3:00:00 PM 3.36 38.048 0.033 7.08 1.68 12.88
12/22/2021 3:15:00 PM 3.32 37.976 0.033 7.07 1.57 12.88
12/22/2021 3:30:00 PM 3.3 37.94 0.033 7.06 1.6 12.88
12/22/2021 3:45:00 PM 3.29 37.922 0.033 7.05 1.65 12.86
12/22/2021 4:00:00 PM 3.29 37.922 0.033 7.05 1.62 12.84
12/22/2021 4:15:00 PM 3.27 37.886 0.033 7.04 1.63 12.82
12/22/2021 4:30:00 PM 3.27 37.886 0.033 7.04 1.62 12.8
12/22/2021 4:45:00 PM 3.24 37.832 0.033 7.03 1.63 12.78
12/22/2021 5:00:00 PM 3.22 37.796 0.033 7.03 1.59 12.78
12/22/2021 5:15:00 PM 3.21 37.778 0.033 7.01 1.7 12.77
12/22/2021 5:30:00 PM 3.21 37.778 0.033 7.02 1.67 12.76
12/22/2021 5:45:00 PM 3.2 37.76 0.033 7.01 1.63 12.76
12/22/2021 6:00:00 PM 3.17 37.706 0.033 7 1.63 12.76
12/22/2021 6:15:00 PM 3.14 37.652 0.033 6.99 1.68 12.78
12/22/2021 6:30:00 PM 3.12 37.616 0.033 6.99 1.65 12.79
12/22/2021 6:45:00 PM 3.09 37.562 0.034 6.99 1.7 12.79
12/22/2021 7:00:00 PM 3.07 37.526 0.033 7 1.68 12.81
12/22/2021 7:15:00 PM 3.05 37.49 0.033 6.99 1.65 12.82
12/22/2021 7:30:00 PM 3.03 37.454 0.034 6.99 1.62 12.83
12/22/2021 7:45:00 PM 3.01 37.418 0.034 7 1.71 12.84
12/22/2021 8:00:00 PM 2.98 37.364 0.034 7 1.6 12.85
12/22/2021 8:15:00 PM 2.96 37.328 0.034 7 1.68 12.86
12/22/2021 8:30:00 PM 2.93 37.274 0.034 6.99 1.67 12.87
12/22/2021 8:45:00 PM 2.92 37.256 0.034 6.99 1.68 12.88
12/22/2021 9:00:00 PM 2.89 37.202 0.034 6.99 1.65 12.89
12/22/2021 9:15:00 PM 2.87 37.166 0.034 7 1.68 12.9
12/22/2021 9:30:00 PM 2.85 37.13 0.034 6.99 1.64 12.91
12/22/2021 9:45:00 PM 2.83 37.094 0.034 7 1.68 12.92
12/22/2021 10:00:00 PM 2.81 37.058 0.034 6.99 1.72 12.94
12/22/2021 10:15:00 PM 2.79 37.022 0.034 7 1.69 12.93
12/22/2021 10:30:00 PM 2.76 36.968 0.034 7 1.69 12.95
12/22/2021 10:45:00 PM 2.74 36.932 0.034 7.01 1.63 12.96
12/22/2021 11:00:00 PM 2.72 36.896 0.034 7 1.67 12.96
12/22/2021 11:15:00 PM 2.71 36.878 0.034 7 1.65 12.98
12/22/2021 11:30:00 PM 2.69 36.842 0.034 6.99 1.7 12.99
12/22/2021 11:45:00 PM 2.68 36.824 0.034 7 1.71 13
12/23/2021 12:00:00 AM 2.66 36.788 0.034 7 1.63 13
12/23/2021 12:15:00 AM 2.65 36.77 0.034 7.01 1.68 13.01
12/23/2021 12:30:00 AM 2.64 36.752 0.034 7 1.69 13.01
12/23/2021 12:45:00 AM 2.63 36.734 0.034 7 1.73 13.01
12/23/2021 1:00:00 AM 2.61 36.698 0.034 7 1.67 13.02
12/23/2021 1:15:00 AM 2.59 36.662 0.034 7 1.7 13.03
12/23/2021 1:30:00 AM 2.58 36.644 0.034 7 1.69 13.05
12/23/2021 1:45:00 AM 2.58 36.644 0.034 7 1.64 13.05
12/23/2021 2:00:00 AM 2.56 36.608 0.034 7 1.67 13.05
12/23/2021 2:15:00 AM 2.55 36.59 0.034 7 1.65 13.06
12/23/2021 2:30:00 AM 2.53 36.554 0.034 7 1.64 13.07
12/23/2021 2:45:00 AM 2.52 36.536 0.034 6.99 1.64 13.07
12/23/2021 3:00:00 AM 2.49 36.482 0.034 6.99 1.7 13.09
12/23/2021 3:15:00 AM 2.47 36.446 0.034 6.99 1.69 13.09
12/23/2021 3:30:00 AM 2.45 36.41 0.034 7 1.74 13.1
12/23/2021 3:45:00 AM 2.42 36.356 0.034 7 1.63 13.1
12/23/2021 4:00:00 AM 2.39 36.302 0.034 7 1.69 13.12
12/23/2021 4:15:00 AM 2.36 36.248 0.034 7 1.67 13.13
12/23/2021 4:30:00 AM 2.34 36.212 0.034 7.01 1.66 13.14
12/23/2021 4:45:00 AM 2.31 36.158 0.034 7 1.65 13.15
12/23/2021 5:00:00 AM 2.28 36.104 0.034 6.99 1.63 13.17
12/23/2021 5:15:00 AM 2.25 36.05 0.034 7 1.66 13.18
12/23/2021 5:30:00 AM 2.22 35.996 0.034 7.01 1.69 13.19
12/23/2021 5:45:00 AM 2.18 35.924 0.034 7 1.63 13.2
12/23/2021 6:00:00 AM 2.15 35.87 0.034 7.01 1.68 13.22
12/23/2021 6:15:00 AM 2.12 35.816 0.034 7 1.69 13.24
12/23/2021 6:30:00 AM 2.1 35.78 0.034 7 1.76 13.25
12/23/2021 6:45:00 AM 2.08 35.744 0.034 7 1.64 13.26
12/23/2021 7:00:00 AM 2.05 35.69 0.034 6.99 1.71 13.28
12/23/2021 7:15:00 AM 2.03 35.654 0.034 7 1.62 13.29
12/23/2021 7:30:00 AM 2.01 35.618 0.034 7 1.61 13.3
12/23/2021 7:45:00 AM 1.99 35.582 0.034 6.99 1.77 13.32
12/23/2021 8:00:00 AM 1.97 35.546 0.034 7.01 1.65 13.34
12/23/2021 8:15:00 AM 1.94 35.492 0.034 7.02 1.62 13.37
12/23/2021 8:30:00 AM 1.92 35.456 0.034 7.03 1.61 13.4
12/23/2021 8:45:00 AM 1.9 35.42 0.034 7.03 1.66 13.42
12/23/2021 9:00:00 AM 1.88 35.384 0.034 7.04 1.6 13.45
12/23/2021 9:15:00 AM 1.86 35.348 0.034 7.04 1.63 13.47
12/23/2021 9:30:00 AM 1.84 35.312 0.034 7.05 1.63 13.5
12/23/2021 9:45:00 AM 1.84 35.312 0.034 7.06 1.61 13.52
12/23/2021 10:00:00 AM 1.84 35.312 0.034 7.05 1.68 13.54
12/23/2021 10:15:00 AM 1.86 35.348 0.034 7.06 1.65 13.56
12/23/2021 10:30:00 AM 1.9 35.42 0.034 7.07 1.59 13.58
12/23/2021 10:45:00 AM 1.94 35.492 0.034 7.07 1.62 13.58
12/23/2021 11:00:00 AM 1.95 35.51 0.034 7.08 1.76 13.58
12/23/2021 11:15:00 AM 1.98 35.564 0.033 7.08 1.61 13.57
12/23/2021 11:30:00 AM 2.03 35.654 0.033 7.08 1.61 13.55
12/23/2021 11:45:00 AM 2.12 35.816 0.033 7.08 1.66 13.53
12/23/2021 12:00:00 PM 2.2 35.96 0.033 7.08 1.59 13.51
12/23/2021 12:15:00 PM 2.25 36.05 0.033 7.09 1.57 13.49
12/23/2021 12:30:00 PM 2.3 36.14 0.033 7.09 1.67 13.46
12/23/2021 12:45:00 PM 2.35 36.23 0.033 7.08 1.66 13.44
12/23/2021 1:00:00 PM 2.38 36.284 0.033 7.08 1.64 13.42
12/23/2021 1:15:00 PM 2.4 36.32 0.033 7.09 1.65 13.41
12/23/2021 1:30:00 PM 2.44 36.392 0.033 7.08 1.6 13.39
12/23/2021 1:45:00 PM 2.48 36.464 0.033 7.08 1.56 13.38
12/23/2021 2:00:00 PM 2.52 36.536 0.033 7.09 1.55 13.35
12/23/2021 2:15:00 PM 2.54 36.572 0.033 7.08 1.58 13.34
12/23/2021 2:30:00 PM 2.57 36.626 0.033 7.08 1.6 13.33
12/23/2021 2:45:00 PM 2.58 36.644 0.033 7.09 1.59 13.32
12/23/2021 3:00:00 PM 2.61 36.698 0.033 7.08 1.59 13.3
12/23/2021 3:15:00 PM 2.64 36.752 0.033 7.07 1.56 13.28
12/23/2021 3:30:00 PM 2.67 36.806 0.033 7.08 1.59 13.26
12/23/2021 3:45:00 PM 2.71 36.878 0.033 7.07 1.59 13.24
12/23/2021 4:00:00 PM 2.73 36.914 0.033 7.06 1.58 13.21
12/23/2021 4:15:00 PM 2.76 36.968 0.033 7.06 1.55 13.16
12/23/2021 4:30:00 PM 2.79 37.022 0.033 7.05 1.62 13.11
12/23/2021 4:45:00 PM 2.81 37.058 0.033 7.05 1.62 13.08
12/23/2021 5:00:00 PM 2.83 37.094 0.033 7.03 1.63 13.04
12/23/2021 5:15:00 PM 2.84 37.112 0.033 7.03 1.59 13.01
12/23/2021 5:30:00 PM 2.86 37.148 0.033 7.03 1.6 12.99
12/23/2021 5:45:00 PM 2.87 37.166 0.033 7.02 1.65 12.98
12/23/2021 6:00:00 PM 2.87 37.166 0.033 7.01 1.63 12.96
12/23/2021 6:15:00 PM 2.88 37.184 0.033 7.01 1.62 12.96
12/23/2021 6:30:00 PM 2.88 37.184 0.034 7.02 1.7 12.95
12/23/2021 6:45:00 PM 2.88 37.184 0.033 7.02 1.7 12.95
12/23/2021 7:00:00 PM 2.89 37.202 0.034 7.01 1.64 12.94
12/23/2021 7:15:00 PM 2.89 37.202 0.034 7.01 1.61 12.95
12/23/2021 7:30:00 PM 2.88 37.184 0.034 7.01 1.6 12.94
12/23/2021 7:45:00 PM 2.88 37.184 0.034 7.01 1.72 12.94
12/23/2021 8:00:00 PM 2.87 37.166 0.034 7 1.7 12.94
12/23/2021 8:15:00 PM 2.86 37.148 0.034 7 1.61 12.94
12/23/2021 8:30:00 PM 2.86 37.148 0.034 7 1.62 12.94
12/23/2021 8:45:00 PM 2.85 37.13 0.034 7.02 1.74 12.95
12/23/2021 9:00:00 PM 2.85 37.13 0.034 7.01 1.67 12.94
12/23/2021 9:15:00 PM 2.85 37.13 0.034 7.01 1.65 12.94
12/23/2021 9:30:00 PM 2.84 37.112 0.034 7 1.66 12.94
12/23/2021 9:45:00 PM 2.84 37.112 0.034 7.01 1.75 12.94
12/23/2021 10:00:00 PM 2.83 37.094 0.034 7.01 1.72 12.95
12/23/2021 10:15:00 PM 2.83 37.094 0.034 7.01 1.69 12.95
12/23/2021 10:30:00 PM 2.83 37.094 0.034 7 1.65 12.93
12/23/2021 10:45:00 PM 2.83 37.094 0.034 7.01 1.62 12.94
12/23/2021 11:00:00 PM 2.84 37.112 0.034 7.01 1.68 12.92
12/23/2021 11:15:00 PM 2.84 37.112 0.034 7.01 1.66 12.93
12/23/2021 11:30:00 PM 2.83 37.094 0.034 7.01 1.74 12.93
12/23/2021 11:45:00 PM 2.81 37.058 0.034 7.01 1.63 12.93
12/24/2021 12:00:00 AM 2.76 36.968 0.034 7.01 1.69 12.93
12/24/2021 12:15:00 AM 2.62 36.716 0.034 7.02 1.7 12.94
12/24/2021 12:30:00 AM 2.65 36.77 0.034 7.01 1.68 12.97
12/24/2021 12:45:00 AM 2.65 36.77 0.034 7.01 1.6 12.97
12/24/2021 1:00:00 AM 2.66 36.788 0.034 7.01 1.59 12.98
12/24/2021 1:15:00 AM 2.66 36.788 0.034 7.01 1.7 12.97
12/24/2021 1:30:00 AM 2.66 36.788 0.034 7.01 1.69 12.97
12/24/2021 1:45:00 AM 2.67 36.806 0.034 7.01 1.72 12.99
12/24/2021 2:00:00 AM 2.68 36.824 0.034 7.01 1.66 12.98
12/24/2021 2:15:00 AM 2.7 36.86 0.034 7.01 1.71 12.97
12/24/2021 2:30:00 AM 2.71 36.878 0.034 7.01 1.68 12.97
12/24/2021 2:45:00 AM 2.73 36.914 0.034 7.01 1.65 12.96
12/24/2021 3:00:00 AM 2.74 36.932 0.034 7.01 1.63 12.97
12/24/2021 3:15:00 AM 2.75 36.95 0.034 7.01 1.66 12.96
12/24/2021 3:30:00 AM 2.76 36.968 0.034 7.01 1.61 12.96
12/24/2021 3:45:00 AM 2.76 36.968 0.034 7 1.67 12.94
12/24/2021 4:00:00 AM 2.77 36.986 0.034 7 1.67 12.94
12/24/2021 4:15:00 AM 2.77 36.986 0.034 7 1.66 12.95
12/24/2021 4:30:00 AM 2.79 37.022 0.034 7.01 1.67 12.94
12/24/2021 4:45:00 AM 2.79 37.022 0.034 7.01 1.65 12.94
12/24/2021 5:00:00 AM 2.8 37.04 0.034 7.02 1.64 12.94
12/24/2021 5:15:00 AM 2.82 37.076 0.034 7.01 1.62 12.94
12/24/2021 5:30:00 AM 2.83 37.094 0.034 7.01 1.9 12.94
12/24/2021 5:45:00 AM 2.84 37.112 0.034 7 1.61 12.93
12/24/2021 6:00:00 AM 2.85 37.13 0.034 7 1.68 12.93
12/24/2021 6:15:00 AM 2.86 37.148 0.034 7 1.71 12.93
12/24/2021 6:30:00 AM 2.87 37.166 0.034 7 1.63 12.93
12/24/2021 6:45:00 AM 2.87 37.166 0.034 7.01 1.63 12.92
12/24/2021 7:00:00 AM 2.88 37.184 0.034 7 1.7 12.91
12/24/2021 7:15:00 AM 2.89 37.202 0.034 7 1.73 12.92
12/24/2021 7:30:00 AM 2.9 37.22 0.034 7 1.6 12.92
12/24/2021 7:45:00 AM 2.9 37.22 0.034 7.02 1.64 12.92
12/24/2021 8:00:00 AM 2.91 37.238 0.034 7.02 1.76 12.93
12/24/2021 8:15:00 AM 2.92 37.256 0.034 7.01 1.63 12.93
12/24/2021 8:30:00 AM 2.94 37.292 0.034 7.01 1.61 12.95
12/24/2021 8:45:00 AM 2.95 37.31 0.034 7.03 1.65 12.96
12/24/2021 9:00:00 AM 2.97 37.346 0.034 7.02 1.63 12.98
12/24/2021 9:15:00 AM 2.99 37.382 0.034 7.03 1.66 13.01
12/24/2021 9:30:00 AM 3.02 37.436 0.034 7.05 1.65 13.03
12/24/2021 9:45:00 AM 3.05 37.49 0.034 7.05 1.65 13.04
12/24/2021 10:00:00 AM 3.08 37.544 0.034 7.05 1.62 13.06
12/24/2021 10:15:00 AM 3.12 37.616 0.034 7.07 1.64 13.06
12/24/2021 10:30:00 AM 3.17 37.706 0.034 7.09 1.64 13.06
12/24/2021 10:45:00 AM 3.21 37.778 0.033 7.09 1.56 13.06
12/24/2021 11:00:00 AM 3.23 37.814 0.033 7.09 1.62 13.05
12/24/2021 11:15:00 AM 3.29 37.922 0.033 7.09 1.65 13.03
12/24/2021 11:30:00 AM 3.36 38.048 0.033 7.1 1.67 13.01
12/24/2021 11:45:00 AM 3.42 38.156 0.033 7.1 1.54 12.99
12/24/2021 12:00:00 PM 3.48 38.264 0.033 7.09 1.59 12.97
12/24/2021 12:15:00 PM 3.54 38.372 0.033 7.1 1.58 12.95
12/24/2021 12:30:00 PM 3.61 38.498 0.033 7.09 1.61 12.93
12/24/2021 12:45:00 PM 3.7 38.66 0.033 7.09 1.6 12.9
12/24/2021 1:00:00 PM 3.75 38.75 0.033 7.09 1.66 12.88
12/24/2021 1:15:00 PM 3.82 38.876 0.033 7.09 1.65 12.85
12/24/2021 1:30:00 PM 3.85 38.93 0.033 7.09 1.56 12.81
12/24/2021 1:45:00 PM 3.89 39.002 0.033 7.09 1.56 12.8
12/24/2021 2:00:00 PM 3.92 39.056 0.033 7.08 1.57 12.77
12/24/2021 2:15:00 PM 3.96 39.128 0.033 7.09 1.61 12.76
12/24/2021 2:30:00 PM 3.99 39.182 0.033 7.08 1.6 12.75
12/24/2021 2:45:00 PM 4.02 39.236 0.033 7.08 1.61 12.73
12/24/2021 3:00:00 PM 4.05 39.29 0.033 7.08 1.64 12.71
12/24/2021 3:15:00 PM 4.09 39.362 0.033 7.08 1.62 12.7
12/24/2021 3:30:00 PM 4.12 39.416 0.033 7.09 1.59 12.69
12/24/2021 3:45:00 PM 4.14 39.452 0.033 7.08 1.59 12.66
12/24/2021 4:00:00 PM 4.15 39.47 0.033 7.06 1.61 12.61
12/24/2021 4:15:00 PM 4.16 39.488 0.033 7.05 1.62 12.58
12/24/2021 4:30:00 PM 4.17 39.506 0.033 7.05 1.62 12.54
12/24/2021 4:45:00 PM 4.18 39.524 0.033 7.03 1.67 12.5
12/24/2021 5:00:00 PM 4.19 39.542 0.033 7.02 1.65 12.47
12/24/2021 5:15:00 PM 4.2 39.56 0.033 7.01 1.72 12.45
12/24/2021 5:30:00 PM 4.21 39.578 0.033 7.01 1.69 12.43
12/24/2021 5:45:00 PM 4.22 39.596 0.033 7.01 1.64 12.42
12/24/2021 6:00:00 PM 4.22 39.596 0.033 7 1.64 12.41
12/24/2021 6:15:00 PM 4.22 39.596 0.033 7 1.7 12.4
12/24/2021 6:30:00 PM 4.23 39.614 0.033 7.01 1.71 12.4
12/24/2021 6:45:00 PM 4.23 39.614 0.033 7.01 1.64 12.39
12/24/2021 7:00:00 PM 4.23 39.614 0.033 7.01 1.6 12.39
12/24/2021 7:15:00 PM 4.23 39.614 0.033 7 1.64 12.39
12/24/2021 7:30:00 PM 4.22 39.596 0.033 7 1.65 12.39
12/24/2021 7:45:00 PM 4.22 39.596 0.034 7 1.65 12.39
12/24/2021 8:00:00 PM 4.21 39.578 0.034 7 1.68 12.39
12/24/2021 8:15:00 PM 4.2 39.56 0.034 7 1.69 12.39
12/24/2021 8:30:00 PM 4.19 39.542 0.034 7 1.67 12.39
12/24/2021 8:45:00 PM 4.19 39.542 0.034 7 1.69 12.4
12/24/2021 9:00:00 PM 4.18 39.524 0.034 7 1.7 12.39
12/24/2021 9:15:00 PM 4.18 39.524 0.034 7 1.65 12.39
12/24/2021 9:30:00 PM 4.18 39.524 0.034 7 1.69 12.39
12/24/2021 9:45:00 PM 4.17 39.506 0.034 7 1.65 12.39
12/24/2021 10:00:00 PM 4.17 39.506 0.034 6.99 1.75 12.4
12/24/2021 10:15:00 PM 4.17 39.506 0.034 7 1.69 12.39
12/24/2021 10:30:00 PM 4.18 39.524 0.034 7.01 1.68 12.39
12/24/2021 10:45:00 PM 4.18 39.524 0.034 7 1.65 12.39
12/24/2021 11:00:00 PM 4.18 39.524 0.034 7 1.63 12.38
12/24/2021 11:15:00 PM 4.18 39.524 0.034 6.99 1.69 12.38
12/24/2021 11:30:00 PM 4.19 39.542 0.034 6.99 1.68 12.38
12/24/2021 11:45:00 PM 4.19 39.542 0.034 7 1.64 12.38
12/25/2021 12:00:00 AM 4.2 39.56 0.034 7 1.67 12.37
12/25/2021 12:15:00 AM 4.2 39.56 0.034 7 1.67 12.36
12/25/2021 12:30:00 AM 4.21 39.578 0.034 6.99 1.76 12.36
12/25/2021 12:45:00 AM 4.21 39.578 0.034 7 1.66 12.35
12/25/2021 1:00:00 AM 4.21 39.578 0.034 6.99 1.69 12.35
12/25/2021 1:15:00 AM 4.22 39.596 0.034 6.99 1.68 12.34
12/25/2021 1:30:00 AM 4.22 39.596 0.034 6.99 1.72 12.33
12/25/2021 1:45:00 AM 4.22 39.596 0.034 7 1.64 12.33
12/25/2021 2:00:00 AM 4.22 39.596 0.034 7 1.66 12.33
12/25/2021 2:15:00 AM 4.23 39.614 0.034 6.99 1.63 12.32
12/25/2021 2:30:00 AM 4.23 39.614 0.034 6.99 1.7 12.32
12/25/2021 2:45:00 AM 4.24 39.632 0.034 7 1.68 12.32
12/25/2021 3:00:00 AM 4.24 39.632 0.034 6.99 1.71 12.31
12/25/2021 3:15:00 AM 4.25 39.65 0.034 7 1.62 12.31
12/25/2021 3:30:00 AM 4.25 39.65 0.034 6.99 1.68 12.31
12/25/2021 3:45:00 AM 4.26 39.668 0.034 6.99 1.69 12.3
12/25/2021 4:00:00 AM 4.27 39.686 0.034 7 1.66 12.3
12/25/2021 4:15:00 AM 4.28 39.704 0.034 6.99 1.7 12.29
12/25/2021 4:30:00 AM 4.28 39.704 0.034 6.99 1.69 12.28
12/25/2021 4:45:00 AM 4.29 39.722 0.034 7 1.65 12.27
12/25/2021 5:00:00 AM 4.3 39.74 0.034 7 1.68 12.27
12/25/2021 5:15:00 AM 4.31 39.758 0.034 6.99 1.66 12.26
12/25/2021 5:30:00 AM 4.31 39.758 0.034 6.99 1.63 12.25
12/25/2021 5:45:00 AM 4.32 39.776 0.034 7 1.85 12.26
12/25/2021 6:00:00 AM 4.33 39.794 0.034 6.99 1.68 12.25
12/25/2021 6:15:00 AM 4.34 39.812 0.034 6.99 1.72 12.24
12/25/2021 6:30:00 AM 4.34 39.812 0.034 6.99 1.71 12.24
12/25/2021 6:45:00 AM 4.35 39.83 0.034 6.99 1.66 12.23
12/25/2021 7:00:00 AM 4.36 39.848 0.034 6.99 1.79 12.23
12/25/2021 7:15:00 AM 4.37 39.866 0.034 6.99 1.83 12.23
12/25/2021 7:30:00 AM 4.37 39.866 0.034 6.98 1.71 12.22
12/25/2021 7:45:00 AM 4.38 39.884 0.034 6.97 1.71 12.22
12/25/2021 8:00:00 AM 4.39 39.902 0.034 6.98 1.75 12.22
12/25/2021 8:15:00 AM 4.4 39.92 0.034 6.98 1.73 12.22
12/25/2021 8:30:00 AM 4.41 39.938 0.034 6.99 1.74 12.23
12/25/2021 8:45:00 AM 4.42 39.956 0.034 6.98 1.7 12.23
12/25/2021 9:00:00 AM 4.43 39.974 0.034 6.98 1.72 12.24
12/25/2021 9:15:00 AM 4.44 39.992 0.034 6.99 1.77 12.24
12/25/2021 9:30:00 AM 4.46 40.028 0.034 6.99 1.73 12.25
12/25/2021 9:45:00 AM 4.47 40.046 0.033 6.99 1.77 12.27
12/25/2021 10:00:00 AM 4.5 40.1 0.033 7 1.93 12.29
12/25/2021 10:15:00 AM 4.52 40.136 0.033 7.01 1.76 12.3
12/25/2021 10:30:00 AM 4.56 40.208 0.033 7.02 1.73 12.32
12/25/2021 10:45:00 AM 4.58 40.244 0.033 7.03 1.76 12.3
12/25/2021 11:00:00 AM 4.6 40.28 0.033 7.02 1.76 12.29
12/25/2021 11:15:00 AM 4.62 40.316 0.033 7.02 1.8 12.27
12/25/2021 11:30:00 AM 4.64 40.352 0.033 7.01 1.73 12.26
12/25/2021 11:45:00 AM 4.66 40.388 0.033 7.01 1.73 12.26
12/25/2021 12:00:00 PM 4.69 40.442 0.033 7.03 1.72 12.25
12/25/2021 12:15:00 PM 4.71 40.478 0.033 7.01 1.67 12.25
12/25/2021 12:30:00 PM 4.74 40.532 0.033 7.03 1.75 12.24
12/25/2021 12:45:00 PM 4.77 40.586 0.033 7.03 1.82 12.25
12/25/2021 1:00:00 PM 4.82 40.676 0.033 7.04 1.71 12.25
12/25/2021 1:15:00 PM 4.85 40.73 0.033 7.04 1.72 12.25
12/25/2021 1:30:00 PM 4.88 40.784 0.033 7.03 1.77 12.23
12/25/2021 1:45:00 PM 4.91 40.838 0.033 7.04 1.77 12.21
12/25/2021 2:00:00 PM 4.94 40.892 0.033 7.03 1.78 12.2
12/25/2021 2:15:00 PM 4.99 40.982 0.033 7.04 1.8 12.2
12/25/2021 2:30:00 PM 5.01 41.018 0.033 7.03 1.72 12.16
12/25/2021 2:45:00 PM 5.03 41.054 0.033 7.02 1.78 12.14
12/25/2021 3:00:00 PM 5.06 41.108 0.033 7.03 1.73 12.11
12/25/2021 3:15:00 PM 5.08 41.144 0.033 7.01 1.77 12.1
12/25/2021 3:30:00 PM 5.11 41.198 0.033 7.01 1.88 12.09
12/25/2021 3:45:00 PM 5.13 41.234 0.033 7 1.84 12.05
12/25/2021 4:00:00 PM 5.15 41.27 0.033 7 1.81 12.05
12/25/2021 4:15:00 PM 5.17 41.306 0.033 7 1.75 12.04
12/25/2021 4:30:00 PM 5.19 41.342 0.033 6.99 1.82 12.01
12/25/2021 4:45:00 PM 5.21 41.378 0.033 6.98 1.69 11.99
12/25/2021 5:00:00 PM 5.23 41.414 0.033 6.99 1.76 11.97
12/25/2021 5:15:00 PM 5.25 41.45 0.033 6.98 1.81 11.95
12/25/2021 5:30:00 PM 5.26 41.468 0.033 6.97 1.82 11.94
12/25/2021 5:45:00 PM 5.27 41.486 0.033 6.97 1.82 11.92
12/25/2021 6:00:00 PM 5.29 41.522 0.033 6.95 1.87 11.92
12/25/2021 6:15:00 PM 5.3 41.54 0.033 6.95 2.02 11.92
12/25/2021 6:30:00 PM 5.3 41.54 0.033 6.97 1.74 11.92
12/25/2021 6:45:00 PM 5.3 41.54 0.033 6.95 1.86 11.92
12/25/2021 7:00:00 PM 5.31 41.558 0.033 6.96 1.81 11.91
12/25/2021 7:15:00 PM 5.32 41.576 0.033 6.97 1.85 11.91
12/25/2021 7:30:00 PM 5.33 41.594 0.033 6.96 1.78 11.91
12/25/2021 7:45:00 PM 5.33 41.594 0.034 6.95 1.91 11.91
12/25/2021 8:00:00 PM 5.34 41.612 0.034 6.94 1.84 11.92
12/25/2021 8:15:00 PM 5.34 41.612 0.034 6.94 1.85 11.92
12/25/2021 8:30:00 PM 5.35 41.63 0.034 6.94 1.9 11.92
12/25/2021 8:45:00 PM 5.35 41.63 0.034 6.95 1.79 11.92
12/25/2021 9:00:00 PM 5.36 41.648 0.034 6.95 1.81 11.92
12/25/2021 9:15:00 PM 5.36 41.648 0.034 6.95 1.78 11.93
12/25/2021 9:30:00 PM 5.37 41.666 0.034 6.96 1.8 11.93
12/25/2021 9:45:00 PM 5.37 41.666 0.034 6.95 1.88 11.93
12/25/2021 10:00:00 PM 5.37 41.666 0.034 6.95 1.86 11.93
12/25/2021 10:15:00 PM 5.37 41.666 0.034 6.96 1.9 11.93
12/25/2021 10:30:00 PM 5.37 41.666 0.034 6.96 1.78 11.93
12/25/2021 10:45:00 PM 5.38 41.684 0.034 6.96 1.78 11.94
12/25/2021 11:00:00 PM 5.38 41.684 0.034 6.96 1.91 11.94
12/25/2021 11:15:00 PM 5.38 41.684 0.034 6.96 1.85 11.94
12/25/2021 11:30:00 PM 5.38 41.684 0.034 6.94 1.88 11.95
12/25/2021 11:45:00 PM 5.39 41.702 0.034 6.95 1.86 11.95
12/26/2021 12:00:00 AM 5.39 41.702 0.034 6.96 1.75 11.96
12/26/2021 12:15:00 AM 5.38 41.684 0.034 6.95 1.78 11.96
12/26/2021 12:30:00 AM 5.38 41.684 0.034 6.96 1.82 11.96
12/26/2021 12:45:00 AM 5.36 41.648 0.034 6.95 1.81 11.96
12/26/2021 1:00:00 AM 5.34 41.612 0.034 6.96 1.79 11.97
12/26/2021 1:15:00 AM 5.33 41.594 0.034 6.96 1.81 11.98
12/26/2021 1:30:00 AM 5.29 41.522 0.034 6.95 2.01 11.99
12/26/2021 1:45:00 AM 5.26 41.468 0.034 6.96 1.8 12
12/26/2021 2:00:00 AM 5.23 41.414 0.034 6.96 1.9 12.01
12/26/2021 2:15:00 AM 5.2 41.36 0.034 6.97 1.8 12.02
12/26/2021 2:30:00 AM 5.17 41.306 0.034 6.97 1.75 12.04
12/26/2021 2:45:00 AM 5.15 41.27 0.034 6.97 1.78 12.05
12/26/2021 3:00:00 AM 5.14 41.252 0.034 6.97 1.75 12.06
12/26/2021 3:15:00 AM 5.14 41.252 0.034 6.97 1.84 12.07
12/26/2021 3:30:00 AM 5.14 41.252 0.034 6.98 1.74 12.07
12/26/2021 3:45:00 AM 5.13 41.234 0.035 6.98 1.82 12.08
12/26/2021 4:00:00 AM 5.13 41.234 0.035 6.98 1.75 12.08
12/26/2021 4:15:00 AM 5.12 41.216 0.035 6.98 1.71 12.09
12/26/2021 4:30:00 AM 5.12 41.216 0.035 6.98 1.79 12.09
12/26/2021 4:45:00 AM 5.11 41.198 0.035 6.98 1.71 12.09
12/26/2021 5:00:00 AM 5.1 41.18 0.035 6.98 1.74 12.1
12/26/2021 5:15:00 AM 5.09 41.162 0.035 6.98 1.83 12.1
12/26/2021 5:30:00 AM 5.07 41.126 0.035 6.98 1.78 12.11
12/26/2021 5:45:00 AM 5.04 41.072 0.035 6.97 1.78 12.12
12/26/2021 6:00:00 AM 5.02 41.036 0.035 6.98 1.76 12.13
12/26/2021 6:15:00 AM 4.99 40.982 0.035 6.99 1.77 12.14
12/26/2021 6:30:00 AM 4.97 40.946 0.035 6.99 1.79 12.16
12/26/2021 6:45:00 AM 4.95 40.91 0.035 6.99 1.82 12.16
12/26/2021 7:00:00 AM 4.92 40.856 0.035 6.99 1.78 12.17
12/26/2021 7:15:00 AM 4.9 40.82 0.034 6.98 1.82 12.19
12/26/2021 7:30:00 AM 4.87 40.766 0.034 6.99 1.78 12.2
12/26/2021 7:45:00 AM 4.84 40.712 0.034 6.98 1.74 12.22
12/26/2021 8:00:00 AM 4.81 40.658 0.034 6.99 1.67 12.25
12/26/2021 8:15:00 AM 4.77 40.586 0.034 7 1.75 12.28
12/26/2021 8:30:00 AM 4.73 40.514 0.034 7.01 1.7 12.31
12/26/2021 8:45:00 AM 4.69 40.442 0.034 7.02 1.72 12.34
12/26/2021 9:00:00 AM 4.65 40.37 0.034 7.02 1.74 12.37
12/26/2021 9:15:00 AM 4.62 40.316 0.034 7.03 1.78 12.41
12/26/2021 9:30:00 AM 4.6 40.28 0.034 7.03 1.72 12.45
12/26/2021 9:45:00 AM 4.6 40.28 0.034 7.04 1.73 12.49
12/26/2021 10:00:00 AM 4.58 40.244 0.034 7.05 1.7 12.5
12/26/2021 10:15:00 AM 4.56 40.208 0.034 7.06 1.82 12.51
12/26/2021 10:30:00 AM 4.57 40.226 0.034 7.06 1.69 12.52
12/26/2021 10:45:00 AM 4.6 40.28 0.034 7.08 1.72 12.54
12/26/2021 11:00:00 AM 4.64 40.352 0.034 7.09 1.78 12.55
12/26/2021 11:15:00 AM 4.68 40.424 0.034 7.09 1.68 12.55
12/26/2021 11:30:00 AM 4.7 40.46 0.034 7.09 1.65 12.54
12/26/2021 11:45:00 AM 4.75 40.55 0.034 7.1 1.62 12.55
12/26/2021 12:00:00 PM 4.79 40.622 0.034 7.09 1.66 12.54
12/26/2021 12:15:00 PM 4.83 40.694 0.034 7.1 1.69 12.53
12/26/2021 12:30:00 PM 4.84 40.712 0.034 7.1 1.69 12.52
12/26/2021 12:45:00 PM 4.85 40.73 0.034 7.1 1.71 12.5
12/26/2021 1:00:00 PM 4.88 40.784 0.033 7.1 1.66 12.51
12/26/2021 1:15:00 PM 4.93 40.874 0.034 7.11 1.64 12.5
12/26/2021 1:30:00 PM 4.99 40.982 0.034 7.12 1.63 12.48
12/26/2021 1:45:00 PM 5.03 41.054 0.033 7.11 1.69 12.46
12/26/2021 2:00:00 PM 5.07 41.126 0.033 7.12 1.72 12.44
12/26/2021 2:15:00 PM 5.08 41.144 0.033 7.12 1.63 12.44
12/26/2021 2:30:00 PM 5.1 41.18 0.033 7.11 1.6 12.43
12/26/2021 2:45:00 PM 5.09 41.162 0.033 7.11 1.65 12.43
12/26/2021 3:00:00 PM 5.08 41.144 0.033 7.11 1.65 12.42
12/26/2021 3:15:00 PM 5.08 41.144 0.033 7.09 1.68 12.39
12/26/2021 3:30:00 PM 5.07 41.126 0.033 7.09 1.67 12.38
12/26/2021 3:45:00 PM 5.06 41.108 0.033 7.09 1.7 12.36
12/26/2021 4:00:00 PM 5.05 41.09 0.033 7.07 1.67 12.33
12/26/2021 4:15:00 PM 5.05 41.09 0.033 7.06 1.81 12.31
12/26/2021 4:30:00 PM 5.05 41.09 0.034 7.06 1.74 12.28
12/26/2021 4:45:00 PM 5.03 41.054 0.034 7.05 1.73 12.27
12/26/2021 5:00:00 PM 5 41 0.034 7.04 1.73 12.25
12/26/2021 5:15:00 PM 4.97 40.946 0.034 7.04 1.69 12.24
12/26/2021 5:30:00 PM 4.93 40.874 0.034 7.03 1.7 12.24
12/26/2021 5:45:00 PM 4.89 40.802 0.034 7.02 1.72 12.24
12/26/2021 6:00:00 PM 4.85 40.73 0.034 7.02 1.79 12.25
12/26/2021 6:15:00 PM 4.8 40.64 0.034 7.02 1.74 12.26
12/26/2021 6:30:00 PM 4.76 40.568 0.034 7 1.79 12.28
12/26/2021 6:45:00 PM 4.71 40.478 0.034 7.02 1.74 12.29
12/26/2021 7:00:00 PM 4.65 40.37 0.034 7.01 1.72 12.31
12/26/2021 7:15:00 PM 4.6 40.28 0.034 7 1.8 12.33
12/26/2021 7:30:00 PM 4.54 40.172 0.034 7.01 1.74 12.35
12/26/2021 7:45:00 PM 4.48 40.064 0.034 7.01 1.87 12.37
12/26/2021 8:00:00 PM 4.43 39.974 0.034 7 1.88 12.4
12/26/2021 8:15:00 PM 4.37 39.866 0.034 7.01 1.76 12.42
12/26/2021 8:30:00 PM 4.3 39.74 0.034 7 1.79 12.44
12/26/2021 8:45:00 PM 4.24 39.632 0.034 7.01 1.73 12.47
12/26/2021 9:00:00 PM 4.18 39.524 0.034 7.01 1.75 12.49
12/26/2021 9:15:00 PM 4.13 39.434 0.034 7.01 1.78 12.52
12/26/2021 9:30:00 PM 4.07 39.326 0.034 7.02 1.75 12.53
12/26/2021 9:45:00 PM 4.02 39.236 0.034 7.02 1.75 12.55
12/26/2021 10:00:00 PM 3.97 39.146 0.034 7.01 1.73 12.56
12/26/2021 10:15:00 PM 3.93 39.074 0.034 7.02 1.85 12.58
12/26/2021 10:30:00 PM 3.89 39.002 0.034 7.01 1.76 12.6
12/26/2021 10:45:00 PM 3.86 38.948 0.034 7.02 1.81 12.62
12/26/2021 11:00:00 PM 3.83 38.894 0.034 7.01 1.77 12.62
12/26/2021 11:15:00 PM 3.8 38.84 0.034 7.01 1.82 12.64
12/26/2021 11:30:00 PM 3.77 38.786 0.034 7.01 1.79 12.64
12/26/2021 11:45:00 PM 3.74 38.732 0.034 7.01 1.81 12.66
12/27/2021 12:00:00 AM 3.71 38.678 0.034 7.01 1.78 12.67
12/27/2021 12:15:00 AM 3.68 38.624 0.034 7.02 1.78 12.68
12/27/2021 12:30:00 AM 3.65 38.57 0.034 7.02 1.95 12.69
12/27/2021 12:45:00 AM 3.62 38.516 0.034 7.01 1.78 12.7
12/27/2021 1:00:00 AM 3.59 38.462 0.034 7.02 1.78 12.71
12/27/2021 1:15:00 AM 3.56 38.408 0.034 7.01 1.7 12.72
12/27/2021 1:30:00 AM 3.54 38.372 0.034 7.01 1.84 12.73
12/27/2021 1:45:00 AM 3.52 38.336 0.034 7.01 1.73 12.73
12/27/2021 2:00:00 AM 3.49 38.282 0.034 7.01 1.72 12.73
12/27/2021 2:15:00 AM 3.46 38.228 0.034 7.01 1.74 12.74
12/27/2021 2:30:00 AM 3.43 38.174 0.034 7.01 1.8 12.75
12/27/2021 2:45:00 AM 3.41 38.138 0.034 7.01 1.77 12.76
12/27/2021 3:00:00 AM 3.38 38.084 0.034 7.02 1.7 12.78
12/27/2021 3:15:00 AM 3.37 38.066 0.034 7.02 1.71 12.77
12/27/2021 3:30:00 AM 3.35 38.03 0.034 7.01 1.68 12.78
12/27/2021 3:45:00 AM 3.34 38.012 0.034 7.02 1.65 12.79
12/27/2021 4:00:00 AM 3.32 37.976 0.034 7.02 1.8 12.8
12/27/2021 4:15:00 AM 3.31 37.958 0.034 7.02 1.76 12.81
12/27/2021 4:30:00 AM 3.3 37.94 0.034 7.02 1.72 12.81
12/27/2021 4:45:00 AM 3.29 37.922 0.034 7.02 1.74 12.81
12/27/2021 5:00:00 AM 3.28 37.904 0.034 7.02 1.68 12.81
12/27/2021 5:15:00 AM 3.28 37.904 0.034 7.02 1.66 12.82
12/27/2021 5:30:00 AM 3.27 37.886 0.034 7.01 1.72 12.82
12/27/2021 5:45:00 AM 3.26 37.868 0.034 7.01 1.72 12.81
12/27/2021 6:00:00 AM 3.26 37.868 0.034 7.02 1.66 12.81
12/27/2021 6:15:00 AM 3.25 37.85 0.034 7.02 1.69 12.81
12/27/2021 6:30:00 AM 3.24 37.832 0.034 7.02 1.69 12.81
12/27/2021 6:45:00 AM 3.24 37.832 0.034 7.02 1.68 12.81
12/27/2021 7:00:00 AM 3.24 37.832 0.034 7.02 1.66 12.82
12/27/2021 7:15:00 AM 3.24 37.832 0.034 7.02 1.67 12.81
12/27/2021 7:30:00 AM 3.24 37.832 0.034 7.02 1.84 12.82
12/27/2021 7:45:00 AM 3.24 37.832 0.034 7.02 1.69 12.82
12/27/2021 8:00:00 AM 3.24 37.832 0.034 7.02 1.69 12.81
12/27/2021 8:15:00 AM 3.25 37.85 0.034 7.02 1.62 12.82
12/27/2021 8:30:00 AM 3.25 37.85 0.034 7.03 1.62 12.82
12/27/2021 8:45:00 AM 3.25 37.85 0.034 7.03 1.69 12.83
12/27/2021 9:00:00 AM 3.26 37.868 0.034 7.03 1.7 12.85
12/27/2021 9:15:00 AM 3.23 37.814 0.034 7.04 1.69 12.86
12/27/2021 9:30:00 AM 3.22 37.796 0.034 7.05 1.75 12.89
12/27/2021 9:45:00 AM 3.23 37.814 0.034 7.05 1.63 12.91
12/27/2021 10:00:00 AM 3.25 37.85 0.034 7.06 1.62 12.92
12/27/2021 10:15:00 AM 3.25 37.85 0.034 7.07 1.67 12.94
12/27/2021 10:30:00 AM 3.28 37.904 0.034 7.08 1.66 12.97
12/27/2021 10:45:00 AM 3.3 37.94 0.034 7.09 1.6 12.98
12/27/2021 11:00:00 AM 3.31 37.958 0.034 7.1 1.66 12.98
12/27/2021 11:15:00 AM 3.34 38.012 0.034 7.1 1.66 12.97
12/27/2021 11:30:00 AM 3.36 38.048 0.034 7.1 2.09 12.97
12/27/2021 11:45:00 AM 3.36 38.048 0.034 7.11 1.6 12.96
12/27/2021 12:00:00 PM 3.39 38.102 0.034 7.11 1.67 12.95
12/27/2021 12:15:00 PM 3.41 38.138 0.034 7.11 1.73 12.94
12/27/2021 12:30:00 PM 3.43 38.174 0.034 7.11 1.64 12.9
12/27/2021 12:45:00 PM 3.43 38.174 0.034 7.1 1.7 12.88
12/27/2021 1:00:00 PM 3.45 38.21 0.034 7.1 1.76 12.88
12/27/2021 1:15:00 PM 3.47 38.246 0.034 7.1 1.64 12.87
12/27/2021 1:30:00 PM 3.49 38.282 0.034 7.09 1.65 12.83
12/27/2021 1:45:00 PM 3.5 38.3 0.034 7.09 1.67 12.83
12/27/2021 2:00:00 PM 3.51 38.318 0.034 7.08 1.67 12.8
12/27/2021 2:15:00 PM 3.52 38.336 0.034 7.08 1.65 12.79
12/27/2021 2:30:00 PM 3.55 38.39 0.033 7.08 1.63 12.79
12/27/2021 2:45:00 PM 3.57 38.426 0.034 7.08 1.67 12.77
12/27/2021 3:00:00 PM 3.58 38.444 0.034 7.08 1.66 12.75
12/27/2021 3:15:00 PM 3.59 38.462 0.034 7.07 1.6 12.74
12/27/2021 3:30:00 PM 3.6 38.48 0.034 7.07 1.71 12.71
12/27/2021 3:45:00 PM 3.61 38.498 0.033 7.06 1.71 12.69
12/27/2021 4:00:00 PM 3.62 38.516 0.033 7.05 1.66 12.68
12/27/2021 4:15:00 PM 3.63 38.534 0.034 7.06 1.66 12.65
12/27/2021 4:30:00 PM 3.64 38.552 0.034 7.05 1.67 12.63
12/27/2021 4:45:00 PM 3.65 38.57 0.033 7.05 1.65 12.61
12/27/2021 5:00:00 PM 3.66 38.588 0.034 7.04 1.67 12.6
12/27/2021 5:15:00 PM 3.66 38.588 0.034 7.04 1.76 12.59
12/27/2021 5:30:00 PM 3.67 38.606 0.034 7.03 1.73 12.58
12/27/2021 5:45:00 PM 3.67 38.606 0.034 7.03 1.68 12.57
12/27/2021 6:00:00 PM 3.66 38.588 0.034 7.03 1.79 12.57
12/27/2021 6:15:00 PM 3.67 38.606 0.034 7.02 1.81 12.57
12/27/2021 6:30:00 PM 3.68 38.624 0.034 7.02 1.82 12.56
12/27/2021 6:45:00 PM 3.68 38.624 0.034 7.02 1.81 12.56
12/27/2021 7:00:00 PM 3.68 38.624 0.034 7.02 1.7 12.55
12/27/2021 7:15:00 PM 3.69 38.642 0.034 7.02 1.77 12.55
12/27/2021 7:30:00 PM 3.69 38.642 0.034 7.02 1.89 12.55
12/27/2021 7:45:00 PM 3.69 38.642 0.034 7.02 1.85 12.55
12/27/2021 8:00:00 PM 3.7 38.66 0.034 7.02 1.81 12.54
12/27/2021 8:15:00 PM 3.7 38.66 0.034 7.02 1.84 12.54
12/27/2021 8:30:00 PM 3.7 38.66 0.034 7.01 1.81 12.54
12/27/2021 8:45:00 PM 3.71 38.678 0.034 7.01 1.93 12.54
12/27/2021 9:00:00 PM 3.71 38.678 0.034 7.02 1.93 12.53
12/27/2021 9:15:00 PM 3.72 38.696 0.034 7.01 1.82 12.52
12/27/2021 9:30:00 PM 3.73 38.714 0.034 7.01 1.82 12.52
12/27/2021 9:45:00 PM 3.74 38.732 0.034 7.02 1.87 12.52
12/27/2021 10:00:00 PM 3.74 38.732 0.034 7.02 1.94 12.52
12/27/2021 10:15:00 PM 3.74 38.732 0.034 7.02 1.89 12.52
12/27/2021 10:30:00 PM 3.75 38.75 0.034 7.02 1.82 12.51
12/27/2021 10:45:00 PM 3.76 38.768 0.034 7.02 1.85 12.51
12/27/2021 11:00:00 PM 3.77 38.786 0.034 7.02 1.86 12.51
12/27/2021 11:15:00 PM 3.78 38.804 0.034 7.02 1.81 12.5
12/27/2021 11:30:00 PM 3.78 38.804 0.034 7.01 1.91 12.5
12/27/2021 11:45:00 PM 3.79 38.822 0.034 7.02 1.82 12.49
12/28/2021 12:00:00 AM 3.79 38.822 0.034 7.02 1.75 12.5
12/28/2021 12:15:00 AM 3.8 38.84 0.034 7.01 1.84 12.5
12/28/2021 12:30:00 AM 3.8 38.84 0.034 7.02 1.79 12.49
12/28/2021 12:45:00 AM 3.81 38.858 0.034 7.02 1.94 12.49
12/28/2021 1:00:00 AM 3.82 38.876 0.034 7.02 1.79 12.49
12/28/2021 1:15:00 AM 3.82 38.876 0.034 7.01 1.73 12.49
12/28/2021 1:30:00 AM 3.83 38.894 0.034 7.02 1.77 12.49
12/28/2021 1:45:00 AM 3.83 38.894 0.034 7.02 1.74 12.49
12/28/2021 2:00:00 AM 3.84 38.912 0.034 7.02 1.8 12.49
12/28/2021 2:15:00 AM 3.84 38.912 0.034 7.01 1.81 12.5
12/28/2021 2:30:00 AM 3.85 38.93 0.034 7.01 1.78 12.48
12/28/2021 2:45:00 AM 3.86 38.948 0.034 7.02 1.74 12.49
12/28/2021 3:00:00 AM 3.86 38.948 0.034 7.02 1.83 12.49
12/28/2021 3:15:00 AM 3.86 38.948 0.034 7.01 1.81 12.48
12/28/2021 3:30:00 AM 3.86 38.948 0.034 7.02 1.74 12.49
12/28/2021 3:45:00 AM 3.87 38.966 0.034 7.02 1.77 12.49
12/28/2021 4:00:00 AM 3.86 38.948 0.034 7.02 1.74 12.49
12/28/2021 4:15:00 AM 3.87 38.966 0.034 7.02 1.73 12.49
12/28/2021 4:30:00 AM 3.86 38.948 0.034 7.01 1.81 12.48
12/28/2021 4:45:00 AM 3.84 38.912 0.034 7.02 1.8 12.49
12/28/2021 5:00:00 AM 3.83 38.894 0.034 7.02 1.74 12.49
12/28/2021 5:15:00 AM 3.82 38.876 0.034 7.01 1.81 12.5
12/28/2021 5:30:00 AM 3.82 38.876 0.034 7.01 1.78 12.5
12/28/2021 5:45:00 AM 3.83 38.894 0.034 7.02 1.73 12.5
12/28/2021 6:00:00 AM 3.84 38.912 0.034 7.02 1.72 12.5
12/28/2021 6:15:00 AM 3.85 38.93 0.034 7.01 1.77 12.51
12/28/2021 6:30:00 AM 3.85 38.93 0.034 7.02 1.77 12.51
12/28/2021 6:45:00 AM 3.85 38.93 0.034 7.02 1.78 12.52
12/28/2021 7:00:00 AM 3.84 38.912 0.034 7.01 1.75 12.51
12/28/2021 7:15:00 AM 3.84 38.912 0.034 7.01 1.75 12.52
12/28/2021 7:30:00 AM 3.84 38.912 0.034 7.02 1.72 12.53
12/28/2021 7:45:00 AM 3.83 38.894 0.034 7.02 1.73 12.53
12/28/2021 8:00:00 AM 3.83 38.894 0.034 7.02 1.75 12.55
12/28/2021 8:15:00 AM 3.83 38.894 0.034 7.03 1.8 12.57
12/28/2021 8:30:00 AM 3.82 38.876 0.034 7.03 1.72 12.6
12/28/2021 8:45:00 AM 3.82 38.876 0.034 7.04 1.75 12.63
12/28/2021 9:00:00 AM 3.83 38.894 0.034 7.06 1.7 12.66
12/28/2021 9:15:00 AM 3.83 38.894 0.034 7.07 1.7 12.68
12/28/2021 9:30:00 AM 3.85 38.93 0.034 7.07 1.73 12.7
12/28/2021 9:45:00 AM 3.87 38.966 0.034 7.08 1.75 12.72
12/28/2021 10:00:00 AM 3.9 39.02 0.034 7.09 1.72 12.73
12/28/2021 10:15:00 AM 3.93 39.074 0.034 7.1 1.7 12.75
12/28/2021 10:30:00 AM 3.96 39.128 0.034 7.1 1.75 12.75
12/28/2021 10:45:00 AM 4.02 39.236 0.034 7.11 1.73 12.76
12/28/2021 11:00:00 AM 4.07 39.326 0.034 7.12 1.86 12.75
12/28/2021 11:15:00 AM 4.14 39.452 0.034 7.12 1.66 12.74
12/28/2021 11:30:00 AM 4.18 39.524 0.034 7.12 1.73 12.72
12/28/2021 11:45:00 AM 4.25 39.65 0.034 7.12 1.69 12.7
12/28/2021 12:00:00 PM 4.29 39.722 0.034 7.12 1.65 12.68
12/28/2021 12:15:00 PM 4.34 39.812 0.034 7.12 1.65 12.66
12/28/2021 12:30:00 PM 4.38 39.884 0.034 7.12 1.69 12.63
12/28/2021 12:45:00 PM 4.42 39.956 0.034 7.11 1.65 12.6
12/28/2021 1:00:00 PM 4.45 40.01 0.034 7.12 1.67 12.58
12/28/2021 1:15:00 PM 4.47 40.046 0.034 7.1 1.68 12.55
12/28/2021 1:30:00 PM 4.5 40.1 0.034 7.1 1.67 12.52
12/28/2021 1:45:00 PM 4.51 40.118 0.034 7.1 1.67 12.5
12/28/2021 2:00:00 PM 4.52 40.136 0.034 7.1 1.6 12.5
12/28/2021 2:15:00 PM 4.53 40.154 0.034 7.11 1.75 12.5
12/28/2021 2:30:00 PM 4.54 40.172 0.034 7.1 1.73 12.49
12/28/2021 2:45:00 PM 4.55 40.19 0.034 7.09 1.68 12.45
12/28/2021 3:00:00 PM 4.56 40.208 0.034 7.09 1.75 12.42
12/28/2021 3:15:00 PM 4.57 40.226 0.034 7.07 1.72 12.39
12/28/2021 3:30:00 PM 4.58 40.244 0.034 7.06 1.74 12.37
12/28/2021 3:45:00 PM 4.6 40.28 0.034 7.06 1.74 12.36
12/28/2021 4:00:00 PM 4.61 40.298 0.034 7.05 1.76 12.35
12/28/2021 4:15:00 PM 4.62 40.316 0.034 7.04 1.73 12.33
12/28/2021 4:30:00 PM 4.63 40.334 0.034 7.04 1.73 12.31
12/28/2021 4:45:00 PM 4.63 40.334 0.034 7.03 1.7 12.29
12/28/2021 5:00:00 PM 4.64 40.352 0.034 7.04 1.75 12.28
12/28/2021 5:15:00 PM 4.64 40.352 0.034 7.03 1.76 12.27
12/28/2021 5:30:00 PM 4.64 40.352 0.034 7.03 1.73 12.26
12/28/2021 5:45:00 PM 4.64 40.352 0.034 7.03 1.75 12.25
12/28/2021 6:00:00 PM 4.64 40.352 0.034 7.02 1.83 12.26
12/28/2021 6:15:00 PM 4.63 40.334 0.034 7.02 1.89 12.25
12/28/2021 6:30:00 PM 4.59 40.262 0.034 7.01 1.78 12.25
12/28/2021 6:45:00 PM 4.52 40.136 0.034 7.01 1.82 12.25
12/28/2021 7:00:00 PM 4.47 40.046 0.034 7.02 1.97 12.26
12/28/2021 7:15:00 PM 4.36 39.848 0.034 7.01 1.86 12.28
12/28/2021 7:30:00 PM 4.27 39.686 0.034 7.01 1.85 12.31
12/28/2021 7:45:00 PM 4.17 39.506 0.034 7.02 1.93 12.33
12/28/2021 8:00:00 PM 4.06 39.308 0.034 7.01 1.89 12.36
12/28/2021 8:15:00 PM 3.97 39.146 0.034 7.01 1.91 12.38
12/28/2021 8:30:00 PM 3.8 38.84 0.034 7.02 1.9 12.42
12/28/2021 8:45:00 PM 3.8 38.84 0.034 7.01 1.93 12.46
12/28/2021 9:00:00 PM 3.79 38.822 0.034 7 1.93 12.48
12/28/2021 9:15:00 PM 3.78 38.804 0.034 7.02 1.89 12.49
12/28/2021 9:30:00 PM 3.77 38.786 0.034 7.02 1.91 12.51
12/28/2021 9:45:00 PM 3.75 38.75 0.034 7.01 1.88 12.52
12/28/2021 10:00:00 PM 3.74 38.732 0.034 7.01 1.89 12.53
12/28/2021 10:15:00 PM 3.74 38.732 0.034 7.01 1.9 12.52
12/28/2021 10:30:00 PM 3.73 38.714 0.034 7.01 1.9 12.53
12/28/2021 10:45:00 PM 3.72 38.696 0.034 7 1.94 12.54
12/28/2021 11:00:00 PM 3.7 38.66 0.034 7 2.01 12.54
12/28/2021 11:15:00 PM 3.69 38.642 0.034 7 1.86 12.54
12/28/2021 11:30:00 PM 3.67 38.606 0.034 7.01 1.92 12.54
12/28/2021 11:45:00 PM 3.65 38.57 0.034 7 1.95 12.56
12/29/2021 12:00:00 AM 3.62 38.516 0.034 7.01 1.9 12.56
12/29/2021 12:15:00 AM 3.6 38.48 0.034 7 1.95 12.57
12/29/2021 12:30:00 AM 3.59 38.462 0.034 7.01 1.92 12.57
12/29/2021 12:45:00 AM 3.58 38.444 0.034 7 1.86 12.57
12/29/2021 1:00:00 AM 3.57 38.426 0.034 7.01 1.87 12.58
12/29/2021 1:15:00 AM 3.56 38.408 0.034 7.01 1.94 12.57
12/29/2021 1:30:00 AM 3.56 38.408 0.034 7.01 1.99 12.57
12/29/2021 1:45:00 AM 3.57 38.426 0.034 7 1.87 12.57
12/29/2021 2:00:00 AM 3.57 38.426 0.034 7 1.96 12.56
12/29/2021 2:15:00 AM 3.58 38.444 0.034 7.01 1.9 12.56
12/29/2021 2:30:00 AM 3.59 38.462 0.034 7 1.83 12.56
12/29/2021 2:45:00 AM 3.6 38.48 0.034 7.01 1.89 12.55
12/29/2021 3:00:00 AM 3.61 38.498 0.034 7.01 1.91 12.56
12/29/2021 3:15:00 AM 3.62 38.516 0.034 7 1.86 12.55
12/29/2021 3:30:00 AM 3.63 38.534 0.034 7.01 1.97 12.55
12/29/2021 3:45:00 AM 3.64 38.552 0.034 7.01 1.89 12.54
12/29/2021 4:00:00 AM 3.65 38.57 0.034 7 1.83 12.54
12/29/2021 4:15:00 AM 3.66 38.588 0.034 7 1.8 12.54
12/29/2021 4:30:00 AM 3.67 38.606 0.034 7.01 1.87 12.53
12/29/2021 4:45:00 AM 3.68 38.624 0.034 7.01 1.88 12.53
12/29/2021 5:00:00 AM 3.69 38.642 0.034 7.01 1.83 12.53
12/29/2021 5:15:00 AM 3.7 38.66 0.034 7 1.85 12.53
12/29/2021 5:30:00 AM 3.71 38.678 0.034 7.01 1.86 12.53
12/29/2021 5:45:00 AM 3.72 38.696 0.034 7.01 1.88 12.51
12/29/2021 6:00:00 AM 3.73 38.714 0.034 7.01 1.9 12.52
12/29/2021 6:15:00 AM 3.74 38.732 0.035 7.01 1.87 12.52
12/29/2021 6:30:00 AM 3.75 38.75 0.034 7 2.03 12.52
12/29/2021 6:45:00 AM 3.76 38.768 0.035 7 1.87 12.51
12/29/2021 7:00:00 AM 3.77 38.786 0.035 7 1.86 12.51
12/29/2021 7:15:00 AM 3.78 38.804 0.035 7.01 1.89 12.51
12/29/2021 7:30:00 AM 3.79 38.822 0.035 7 2.01 12.51
12/29/2021 7:45:00 AM 3.81 38.858 0.035 7 1.92 12.51
12/29/2021 8:00:00 AM 3.82 38.876 0.035 7.01 1.87 12.51
12/29/2021 8:15:00 AM 3.83 38.894 0.035 7.01 1.85 12.51
12/29/2021 8:30:00 AM 3.84 38.912 0.035 7.01 1.9 12.52
12/29/2021 8:45:00 AM 3.86 38.948 0.035 7.01 1.8 12.55
12/29/2021 9:00:00 AM 3.87 38.966 0.034 7.02 1.88 12.56
12/29/2021 9:15:00 AM 3.89 39.002 0.034 7.02 1.86 12.58
12/29/2021 9:30:00 AM 3.92 39.056 0.034 7.02 1.83 12.6
12/29/2021 9:45:00 AM 3.94 39.092 0.034 7.03 1.88 12.62
12/29/2021 10:00:00 AM 3.97 39.146 0.034 7.05 1.83 12.64
12/29/2021 10:15:00 AM 4 39.2 0.034 7.05 1.81 12.64
12/29/2021 10:30:00 AM 4.03 39.254 0.034 7.06 1.84 12.65
12/29/2021 10:45:00 AM 4.07 39.326 0.034 7.06 1.79 12.65
12/29/2021 11:00:00 AM 4.1 39.38 0.034 7.07 1.83 12.65
12/29/2021 11:15:00 AM 4.13 39.434 0.034 7.08 1.78 12.65
12/29/2021 11:30:00 AM 4.16 39.488 0.034 7.06 1.82 12.63
12/29/2021 11:45:00 AM 4.19 39.542 0.034 7.08 1.76 12.62
12/29/2021 12:00:00 PM 4.23 39.614 0.034 7.08 1.78 12.6
12/29/2021 12:15:00 PM 4.26 39.668 0.034 7.07 1.79 12.59
12/29/2021 12:30:00 PM 4.3 39.74 0.034 7.07 1.81 12.59
12/29/2021 12:45:00 PM 4.33 39.794 0.034 7.07 1.83 12.57
12/29/2021 1:00:00 PM 4.36 39.848 0.034 7.07 1.85 12.56
12/29/2021 1:15:00 PM 4.4 39.92 0.034 7.08 1.81 12.56
12/29/2021 1:30:00 PM 4.44 39.992 0.034 7.07 1.79 12.55
12/29/2021 1:45:00 PM 4.48 40.064 0.034 7.08 1.79 12.54
12/29/2021 2:00:00 PM 4.52 40.136 0.034 7.08 1.9 12.53
12/29/2021 2:15:00 PM 4.57 40.226 0.034 7.09 1.86 12.52
12/29/2021 2:30:00 PM 4.62 40.316 0.034 7.09 1.86 12.52
12/29/2021 2:45:00 PM 4.66 40.388 0.034 7.09 1.85 12.5
12/29/2021 3:00:00 PM 4.71 40.478 0.034 7.08 1.96 12.48
12/29/2021 3:15:00 PM 4.75 40.55 0.034 7.07 1.87 12.47
12/29/2021 3:30:00 PM 4.79 40.622 0.034 7.08 1.92 12.43
12/29/2021 3:45:00 PM 4.81 40.658 0.034 7.07 1.87 12.4
12/29/2021 4:00:00 PM 4.83 40.694 0.034 7.06 1.89 12.35
12/29/2021 4:15:00 PM 4.85 40.73 0.034 7.04 1.87 12.32
12/29/2021 4:30:00 PM 4.87 40.766 0.034 7.04 1.84 12.28
12/29/2021 4:45:00 PM 4.89 40.802 0.034 7.01 1.96 12.25
12/29/2021 5:00:00 PM 4.91 40.838 0.034 7.02 1.99 12.22
12/29/2021 5:15:00 PM 4.92 40.856 0.034 7 1.85 12.2
12/29/2021 5:30:00 PM 4.94 40.892 0.034 6.99 1.93 12.19
12/29/2021 5:45:00 PM 4.95 40.91 0.035 6.99 1.89 12.18
12/29/2021 6:00:00 PM 4.97 40.946 0.035 6.98 1.85 12.17
12/29/2021 6:15:00 PM 4.98 40.964 0.035 6.97 1.94 12.16
12/29/2021 6:30:00 PM 5 41 0.035 6.97 1.94 12.15
12/29/2021 6:45:00 PM 5.01 41.018 0.035 6.98 2.04 12.15
12/29/2021 7:00:00 PM 5.02 41.036 0.035 6.97 2.01 12.15
12/29/2021 7:15:00 PM 5.03 41.054 0.035 6.97 2.04 12.14
12/29/2021 7:30:00 PM 5.03 41.054 0.035 6.96 1.97 12.14
12/29/2021 7:45:00 PM 5.04 41.072 0.035 6.96 1.98 12.14
12/29/2021 8:00:00 PM 5.05 41.09 0.035 6.97 1.97 12.14
12/29/2021 8:15:00 PM 5.05 41.09 0.035 6.95 2.03 12.14
12/29/2021 8:30:00 PM 5.05 41.09 0.035 6.95 2.04 12.13
12/29/2021 8:45:00 PM 5.06 41.108 0.035 6.97 2.1 12.13
12/29/2021 9:00:00 PM 5.06 41.108 0.035 6.97 2.01 12.13
12/29/2021 9:15:00 PM 5.06 41.108 0.035 6.97 2.07 12.13
12/29/2021 9:30:00 PM 5.07 41.126 0.035 6.96 2.06 12.13
12/29/2021 9:45:00 PM 5.07 41.126 0.035 6.96 2.03 12.14
12/29/2021 10:00:00 PM 5.07 41.126 0.035 6.96 2.03 12.14
12/29/2021 10:15:00 PM 5.07 41.126 0.035 6.96 1.97 12.14
12/29/2021 10:30:00 PM 5.07 41.126 0.035 6.97 2.01 12.13
12/29/2021 10:45:00 PM 5.08 41.144 0.035 6.96 2.06 12.13
12/29/2021 11:00:00 PM 5.08 41.144 0.035 6.96 2.05 12.13
12/29/2021 11:15:00 PM 5.08 41.144 0.035 6.96 2.02 12.14
12/29/2021 11:30:00 PM 5.08 41.144 0.035 6.96 2.07 12.13
12/29/2021 11:45:00 PM 5.08 41.144 0.035 6.96 2.04 12.13
12/30/2021 12:00:00 AM 5.09 41.162 0.035 6.96 2.02 12.13
12/30/2021 12:15:00 AM 5.09 41.162 0.035 6.96 2.05 12.13
12/30/2021 12:30:00 AM 5.09 41.162 0.035 6.95 1.97 12.12
12/30/2021 12:45:00 AM 5.09 41.162 0.035 6.95 2.06 12.12
12/30/2021 1:00:00 AM 5.1 41.18 0.035 6.95 2.09 12.12
12/30/2021 1:15:00 AM 5.1 41.18 0.035 6.96 2.01 12.12
12/30/2021 1:30:00 AM 5.1 41.18 0.035 6.95 2.04 12.11
12/30/2021 1:45:00 AM 5.1 41.18 0.036 6.95 2.03 12.11
12/30/2021 2:00:00 AM 5.1 41.18 0.035 6.96 2.02 12.11
12/30/2021 2:15:00 AM 5.11 41.198 0.036 6.95 1.96 12.11
12/30/2021 2:30:00 AM 5.11 41.198 0.035 6.95 1.97 12.11
12/30/2021 2:45:00 AM 5.11 41.198 0.036 6.95 2.12 12.11
12/30/2021 3:00:00 AM 5.11 41.198 0.036 6.95 2.03 12.11
12/30/2021 3:15:00 AM 5.12 41.216 0.035 6.95 2.02 12.11
12/30/2021 3:30:00 AM 5.12 41.216 0.036 6.95 2 12.1
12/30/2021 3:45:00 AM 5.12 41.216 0.036 6.95 2.1 12.1
12/30/2021 4:00:00 AM 5.13 41.234 0.036 6.96 2.06 12.1
12/30/2021 4:15:00 AM 5.13 41.234 0.036 6.96 2.03 12.1
12/30/2021 4:30:00 AM 5.14 41.252 0.036 6.96 2.09 12.1
12/30/2021 4:45:00 AM 5.14 41.252 0.036 6.96 1.92 12.09
12/30/2021 5:00:00 AM 5.14 41.252 0.036 6.95 1.98 12.09
12/30/2021 5:15:00 AM 5.15 41.27 0.036 6.96 1.93 12.09
12/30/2021 5:30:00 AM 5.15 41.27 0.036 6.95 2.04 12.09
12/30/2021 5:45:00 AM 5.16 41.288 0.036 6.95 2.08 12.09
12/30/2021 6:00:00 AM 5.16 41.288 0.036 6.94 1.98 12.09
12/30/2021 6:15:00 AM 5.17 41.306 0.036 6.95 1.98 12.09
12/30/2021 6:30:00 AM 5.17 41.306 0.036 6.95 1.99 12.09
12/30/2021 6:45:00 AM 5.18 41.324 0.036 6.95 1.99 12.09
12/30/2021 7:00:00 AM 5.18 41.324 0.036 6.95 1.95 12.09
12/30/2021 7:15:00 AM 5.19 41.342 0.036 6.95 2.01 12.08
12/30/2021 7:30:00 AM 5.19 41.342 0.036 6.95 1.98 12.08
12/30/2021 7:45:00 AM 5.19 41.342 0.036 6.95 1.98 12.09
12/30/2021 8:00:00 AM 5.2 41.36 0.036 6.95 2 12.09
12/30/2021 8:15:00 AM 5.21 41.378 0.036 6.95 2.05 12.1
12/30/2021 8:30:00 AM 5.21 41.378 0.036 6.95 1.95 12.11
12/30/2021 8:45:00 AM 5.22 41.396 0.036 6.95 1.97 12.12
12/30/2021 9:00:00 AM 5.23 41.414 0.036 6.97 1.89 12.13
12/30/2021 9:15:00 AM 5.24 41.432 0.036 6.98 1.89 12.14
12/30/2021 9:30:00 AM 5.26 41.468 0.036 6.97 2 12.16
12/30/2021 9:45:00 AM 5.28 41.504 0.036 6.98 1.98 12.18
12/30/2021 10:00:00 AM 5.29 41.522 0.036 6.98 2.17 12.19
12/30/2021 10:15:00 AM 5.32 41.576 0.036 7 1.92 12.22
12/30/2021 10:30:00 AM 5.35 41.63 0.036 7.01 1.95 12.23
12/30/2021 10:45:00 AM 5.38 41.684 0.036 7.02 1.91 12.24
12/30/2021 11:00:00 AM 5.42 41.756 0.035 7.03 1.96 12.25
12/30/2021 11:15:00 AM 5.45 41.81 0.035 7.04 1.88 12.25
12/30/2021 11:30:00 AM 5.49 41.882 0.035 7.04 1.98 12.25
12/30/2021 11:45:00 AM 5.53 41.954 0.035 7.05 1.93 12.23
12/30/2021 12:00:00 PM 5.57 42.026 0.035 7.04 1.99 12.23
12/30/2021 12:15:00 PM 5.6 42.08 0.035 7.04 1.95 12.21
12/30/2021 12:30:00 PM 5.64 42.152 0.035 7.05 1.93 12.2
12/30/2021 12:45:00 PM 5.69 42.242 0.035 7.06 1.93 12.19
12/30/2021 1:00:00 PM 5.72 42.296 0.035 7.05 1.94 12.17
12/30/2021 1:15:00 PM 5.76 42.368 0.035 7.06 1.97 12.15
12/30/2021 1:30:00 PM 5.8 42.44 0.035 7.05 2.01 12.14
12/30/2021 1:45:00 PM 5.84 42.512 0.035 7.05 1.93 12.12
12/30/2021 2:00:00 PM 5.87 42.566 0.035 7.05 1.97 12.09
12/30/2021 2:15:00 PM 5.9 42.62 0.035 7.05 1.98 12.07
12/30/2021 2:30:00 PM 5.93 42.674 0.035 7.04 1.92 12.04
12/30/2021 2:45:00 PM 5.96 42.728 0.035 7.03 1.91 12
12/30/2021 3:00:00 PM 5.98 42.764 0.035 7.01 1.92 11.98
12/30/2021 3:15:00 PM 6.01 42.818 0.035 7.03 1.92 11.99
12/30/2021 3:30:00 PM 6.04 42.872 0.035 7.02 1.89 11.99
12/30/2021 3:45:00 PM 6.06 42.908 0.035 7.02 1.94 11.97
12/30/2021 4:00:00 PM 6.08 42.944 0.035 7.01 1.97 11.94
12/30/2021 4:15:00 PM 6.1 42.98 0.035 7 2.05 11.91
12/30/2021 4:30:00 PM 6.11 42.998 0.035 6.99 1.88 11.87
12/30/2021 4:45:00 PM 6.12 43.016 0.035 6.97 2.03 11.85
12/30/2021 5:00:00 PM 6.13 43.034 0.035 6.97 1.99 11.82
12/30/2021 5:15:00 PM 6.15 43.07 0.035 6.96 2.02 11.8
12/30/2021 5:30:00 PM 6.15 43.07 0.035 6.96 1.95 11.79
12/30/2021 5:45:00 PM 6.16 43.088 0.035 6.95 2 11.78
12/30/2021 6:00:00 PM 6.17 43.106 0.035 6.94 1.99 11.77
12/30/2021 6:15:00 PM 6.17 43.106 0.035 6.94 2.04 11.77
12/30/2021 6:30:00 PM 6.18 43.124 0.035 6.93 2.04 11.76
12/30/2021 6:45:00 PM 6.19 43.142 0.035 6.93 2.09 11.76
12/30/2021 7:00:00 PM 6.19 43.142 0.035 6.92 2.09 11.76
12/30/2021 7:15:00 PM 6.19 43.142 0.035 6.93 1.99 11.76
12/30/2021 7:30:00 PM 6.19 43.142 0.035 6.92 2.06 11.76
12/30/2021 7:45:00 PM 6.19 43.142 0.035 6.93 2.09 11.76
12/30/2021 8:00:00 PM 6.19 43.142 0.036 6.92 2.03 11.76
12/30/2021 8:15:00 PM 6.19 43.142 0.036 6.92 2.1 11.76
12/30/2021 8:30:00 PM 6.19 43.142 0.035 6.91 2.13 11.76
12/30/2021 8:45:00 PM 6.19 43.142 0.036 6.91 2.06 11.76
12/30/2021 9:00:00 PM 6.19 43.142 0.036 6.91 2.13 11.76
12/30/2021 9:15:00 PM 6.19 43.142 0.036 6.91 2.07 11.76
12/30/2021 9:30:00 PM 6.19 43.142 0.036 6.91 2.06 11.76
12/30/2021 9:45:00 PM 6.19 43.142 0.036 6.91 2.27 11.77
12/30/2021 10:00:00 PM 6.2 43.16 0.036 6.9 2.06 11.76
12/30/2021 10:15:00 PM 6.2 43.16 0.036 6.9 2.05 11.76
12/30/2021 10:30:00 PM 6.2 43.16 0.036 6.9 2.02 11.76
12/30/2021 10:45:00 PM 6.2 43.16 0.036 6.92 2.26 11.76
12/30/2021 11:00:00 PM 6.2 43.16 0.036 6.9 2.1 11.77
12/30/2021 11:15:00 PM 6.2 43.16 0.036 6.91 2.11 11.76
12/30/2021 11:30:00 PM 6.2 43.16 0.036 6.9 2.09 11.76
12/30/2021 11:45:00 PM 6.2 43.16 0.036 6.91 2.07 11.77
12/31/2021 12:00:00 AM 6.2 43.16 0.036 6.91 2.11 11.76
12/31/2021 12:15:00 AM 6.2 43.16 0.036 6.9 2.05 11.76
12/31/2021 12:30:00 AM 6.2 43.16 0.036 6.91 2.07 11.77
12/31/2021 12:45:00 AM 6.2 43.16 0.036 6.92 2.05 11.77
12/31/2021 1:00:00 AM 6.2 43.16 0.036 6.91 2.17 11.76
12/31/2021 1:15:00 AM 6.2 43.16 0.036 6.91 2.09 11.77
12/31/2021 1:30:00 AM 6.2 43.16 0.036 6.91 2.15 11.77
12/31/2021 1:45:00 AM 6.19 43.142 0.036 6.91 2.09 11.77
12/31/2021 2:00:00 AM 6.19 43.142 0.036 6.91 1.96 11.77
12/31/2021 2:15:00 AM 6.19 43.142 0.036 6.91 2.06 11.77
12/31/2021 2:30:00 AM 6.19 43.142 0.036 6.91 2.13 11.77
12/31/2021 2:45:00 AM 6.19 43.142 0.036 6.91 2.22 11.77
12/31/2021 3:00:00 AM 6.19 43.142 0.036 6.91 2.01 11.77
12/31/2021 3:15:00 AM 6.19 43.142 0.036 6.91 2.09 11.77
12/31/2021 3:30:00 AM 6.19 43.142 0.036 6.91 1.99 11.76
12/31/2021 3:45:00 AM 6.19 43.142 0.036 6.92 2.07 11.77
12/31/2021 4:00:00 AM 6.18 43.124 0.036 6.91 2.04 11.77
12/31/2021 4:15:00 AM 6.18 43.124 0.036 6.91 2.07 11.77
12/31/2021 4:30:00 AM 6.18 43.124 0.036 6.92 2.08 11.77
12/31/2021 4:45:00 AM 6.18 43.124 0.036 6.92 2 11.77
12/31/2021 5:00:00 AM 6.18 43.124 0.036 6.91 2.09 11.76
12/31/2021 5:15:00 AM 6.18 43.124 0.036 6.93 2.12 11.77
12/31/2021 5:30:00 AM 6.17 43.106 0.036 6.91 2.03 11.76
12/31/2021 5:45:00 AM 6.17 43.106 0.036 6.9 2.08 11.76
12/31/2021 6:00:00 AM 6.17 43.106 0.036 6.91 2.07 11.77
12/31/2021 6:15:00 AM 6.16 43.088 0.036 6.92 2.04 11.77
12/31/2021 6:30:00 AM 6.16 43.088 0.036 6.91 2.07 11.77
12/31/2021 6:45:00 AM 6.16 43.088 0.036 6.92 2.12 11.77
12/31/2021 7:00:00 AM 6.15 43.07 0.036 6.92 2.07 11.77
12/31/2021 7:15:00 AM 6.15 43.07 0.036 6.92 2.03 11.77
12/31/2021 7:30:00 AM 6.15 43.07 0.036 6.91 2.05 11.78
12/31/2021 7:45:00 AM 6.15 43.07 0.036 6.91 2.05 11.78
12/31/2021 8:00:00 AM 6.15 43.07 0.036 6.91 1.99 11.8
12/31/2021 8:15:00 AM 6.15 43.07 0.036 6.91 2.17 11.81
12/31/2021 8:30:00 AM 6.15 43.07 0.036 6.94 2.1 11.83
12/31/2021 8:45:00 AM 6.17 43.106 0.036 6.94 2.01 11.87
12/31/2021 9:00:00 AM 6.18 43.124 0.035 6.97 1.99 11.9
12/31/2021 9:15:00 AM 6.19 43.142 0.035 6.97 2.04 11.92
12/31/2021 9:30:00 AM 6.2 43.16 0.035 6.98 1.98 11.92
12/31/2021 9:45:00 AM 6.21 43.178 0.035 7 2.02 11.94
12/31/2021 10:00:00 AM 6.24 43.232 0.035 6.99 1.92 11.97
12/31/2021 10:15:00 AM 6.26 43.268 0.035 7.01 1.96 11.97
12/31/2021 10:30:00 AM 6.3 43.34 0.035 7.02 2.1 11.99
12/31/2021 10:45:00 AM 6.32 43.376 0.035 7.02 2 11.99
12/31/2021 11:00:00 AM 6.34 43.412 0.035 7.04 2.02 12
12/31/2021 11:15:00 AM 6.36 43.448 0.035 7.03 1.97 11.99
12/31/2021 11:30:00 AM 6.45 43.61 0.035 7.05 1.99 11.98
12/31/2021 11:45:00 AM 6.55 43.79 0.035 7.03 1.99 11.97
12/31/2021 12:00:00 PM 6.55 43.79 0.035 7.04 2 11.94
12/31/2021 12:15:00 PM 6.55 43.79 0.035 7.06 1.96 11.92
12/31/2021 12:30:00 PM 6.58 43.844 0.035 7.04 1.97 11.91
12/31/2021 12:45:00 PM 6.64 43.952 0.035 7.04 1.95 11.91
12/31/2021 1:00:00 PM 6.69 44.042 0.035 7.04 2.08 11.9
12/31/2021 1:15:00 PM 6.71 44.078 0.035 7.06 2.05 11.86
12/31/2021 1:30:00 PM 6.76 44.168 0.035 7.06 1.94 11.85
12/31/2021 1:45:00 PM 6.83 44.294 0.035 7.05 2 11.85
12/31/2021 2:00:00 PM 6.87 44.366 0.035 7.06 2 11.83
12/31/2021 2:15:00 PM 6.94 44.492 0.035 7.05 1.95 11.82
12/31/2021 2:30:00 PM 7.01 44.618 0.034 7.07 1.9 11.8
12/31/2021 2:45:00 PM 7.05 44.69 0.035 7.06 2.05 11.78
12/31/2021 3:00:00 PM 7.09 44.762 0.035 7.06 2.06 11.76
12/31/2021 3:15:00 PM 7.12 44.816 0.035 7.06 2.02 11.73
12/31/2021 3:30:00 PM 7.15 44.87 0.035 7.04 2.03 11.7
12/31/2021 3:45:00 PM 7.17 44.906 0.035 7.03 1.95 11.66
12/31/2021 4:00:00 PM 7.19 44.942 0.035 7.02 2.07 11.62
12/31/2021 4:15:00 PM 7.21 44.978 0.035 7 2.06 11.58
12/31/2021 4:30:00 PM 7.21 44.978 0.035 6.99 2.04 11.53
12/31/2021 4:45:00 PM 7.22 44.996 0.035 6.96 2.1 11.5
12/31/2021 5:00:00 PM 7.23 45.014 0.035 6.96 2.13 11.48
12/31/2021 5:15:00 PM 7.23 45.014 0.035 6.95 2.18 11.47
12/31/2021 5:30:00 PM 7.23 45.014 0.035 6.95 2.06 11.45
12/31/2021 5:45:00 PM 7.23 45.014 0.035 6.94 2.08 11.45
12/31/2021 6:00:00 PM 7.22 44.996 0.035 6.93 2.17 11.45
12/31/2021 6:15:00 PM 7.21 44.978 0.035 6.93 2.16 11.45
12/31/2021 6:30:00 PM 7.2 44.96 0.035 6.94 2.07 11.46
12/31/2021 6:45:00 PM 7.18 44.924 0.035 6.91 2.18 11.46
12/31/2021 7:00:00 PM 7.16 44.888 0.035 6.92 2.24 11.46
12/31/2021 7:15:00 PM 7.14 44.852 0.035 6.92 2.09 11.47
12/31/2021 7:30:00 PM 7.11 44.798 0.035 6.91 2.09 11.48
12/31/2021 7:45:00 PM 7.08 44.744 0.035 6.92 2.13 11.48
12/31/2021 8:00:00 PM 7.05 44.69 0.035 6.92 2.03 11.49
12/31/2021 8:15:00 PM 7.02 44.636 0.035 6.92 2.2 11.5
12/31/2021 8:30:00 PM 7 44.6 0.035 6.92 2.15 11.51
12/31/2021 8:45:00 PM 6.97 44.546 0.035 6.92 2.16 11.51
12/31/2021 9:00:00 PM 6.95 44.51 0.035 6.92 2.11 11.52
12/31/2021 9:15:00 PM 6.93 44.474 0.035 6.93 2.11 11.52
12/31/2021 9:30:00 PM 6.91 44.438 0.035 6.92 2.16 11.53
12/31/2021 9:45:00 PM 6.89 44.402 0.035 6.9 2.09 11.53
12/31/2021 10:00:00 PM 6.87 44.366 0.035 6.92 2.09 11.54
12/31/2021 10:15:00 PM 6.85 44.33 0.035 6.92 2.12 11.55
12/31/2021 10:30:00 PM 6.83 44.294 0.035 6.92 2.14 11.55
12/31/2021 10:45:00 PM 6.82 44.276 0.035 6.93 2.07 11.56
12/31/2021 11:00:00 PM 6.79 44.222 0.035 6.92 2.15 11.56
12/31/2021 11:15:00 PM 6.77 44.186 0.035 6.92 2.08 11.57
12/31/2021 11:30:00 PM 6.76 44.168 0.035 6.92 2.1 11.57
12/31/2021 11:45:00 PM 6.74 44.132 0.035 6.92 2.11 11.57
1/1/2022 12:00:00 AM 6.73 44.114 0.035 6.92 2.06 11.58
1/1/2022 12:15:00 AM 6.72 44.096 0.035 6.92 2.01 11.58
1/1/2022 12:30:00 AM 6.71 44.078 0.035 6.91 2.12 11.58
1/1/2022 12:45:00 AM 6.7 44.06 0.035 6.91 2.37 11.58
1/1/2022 1:00:00 AM 6.69 44.042 0.035 6.91 2.08 11.58
1/1/2022 1:15:00 AM 6.69 44.042 0.035 6.91 2.19 11.59
1/1/2022 1:30:00 AM 6.69 44.042 0.035 6.91 2.04 11.58
1/1/2022 1:45:00 AM 6.68 44.024 0.035 6.9 2.19 11.58
1/1/2022 2:00:00 AM 6.68 44.024 0.035 6.9 2.08 11.58
1/1/2022 2:15:00 AM 6.68 44.024 0.035 6.9 2.15 11.59
1/1/2022 2:30:00 AM 6.67 44.006 0.035 6.9 2.09 11.58
1/1/2022 2:45:00 AM 6.67 44.006 0.035 6.91 2.1 11.59
1/1/2022 3:00:00 AM 6.67 44.006 0.035 6.9 2.17 11.58
1/1/2022 3:15:00 AM 6.67 44.006 0.035 6.91 2.12 11.59
1/1/2022 3:30:00 AM 6.67 44.006 0.035 6.91 2.08 11.58
1/1/2022 3:45:00 AM 6.67 44.006 0.035 6.92 2.05 11.58
1/1/2022 4:00:00 AM 6.68 44.024 0.035 6.9 2.16 11.58
1/1/2022 4:15:00 AM 6.68 44.024 0.035 6.91 2.13 11.57
1/1/2022 4:30:00 AM 6.69 44.042 0.035 6.9 2.06 11.57
1/1/2022 4:45:00 AM 6.69 44.042 0.035 6.92 2.11 11.57
1/1/2022 5:00:00 AM 6.69 44.042 0.035 6.9 2.04 11.57
1/1/2022 5:15:00 AM 6.7 44.06 0.035 6.89 2.1 11.56
1/1/2022 5:30:00 AM 6.7 44.06 0.035 6.89 2.08 11.57
1/1/2022 5:45:00 AM 6.7 44.06 0.035 6.9 2.06 11.57
1/1/2022 6:00:00 AM 6.7 44.06 0.035 6.89 2.07 11.57
1/1/2022 6:15:00 AM 6.69 44.042 0.035 6.9 2.07 11.57
1/1/2022 6:30:00 AM 6.69 44.042 0.035 6.89 2.06 11.57
1/1/2022 6:45:00 AM 6.69 44.042 0.035 6.89 2.13 11.56
1/1/2022 7:00:00 AM 6.69 44.042 0.035 6.88 2.05 11.56
1/1/2022 7:15:00 AM 6.69 44.042 0.035 6.9 2.05 11.57
1/1/2022 7:30:00 AM 6.69 44.042 0.035 6.9 2.68 11.57
1/1/2022 7:45:00 AM 6.68 44.024 0.035 6.9 2.02 11.58
1/1/2022 8:00:00 AM 6.68 44.024 0.035 6.89 2.1 11.58
1/1/2022 8:15:00 AM 6.68 44.024 0.035 6.88 2.02 11.59
1/1/2022 8:30:00 AM 6.69 44.042 0.035 6.88 2.05 11.6
1/1/2022 8:45:00 AM 6.69 44.042 0.035 6.92 2.29 11.62
1/1/2022 9:00:00 AM 6.69 44.042 0.035 6.91 2.04 11.63
1/1/2022 9:15:00 AM 6.7 44.06 0.035 6.92 2.04 11.64
1/1/2022 9:30:00 AM 6.72 44.096 0.035 6.92 1.96 11.66
1/1/2022 9:45:00 AM 6.73 44.114 0.035 6.93 2.07 11.68
1/1/2022 10:00:00 AM 6.75 44.15 0.035 6.93 2.07 11.7
1/1/2022 10:15:00 AM 6.77 44.186 0.035 6.94 1.93 11.71
1/1/2022 10:30:00 AM 6.79 44.222 0.035 6.95 2 11.72
1/1/2022 10:45:00 AM 6.81 44.258 0.035 6.95 2 11.72
1/1/2022 11:00:00 AM 6.83 44.294 0.035 6.96 1.98 11.73
1/1/2022 11:15:00 AM 6.86 44.348 0.035 6.98 1.98 11.74
1/1/2022 11:30:00 AM 6.89 44.402 0.035 6.99 1.96 11.74
1/1/2022 11:45:00 AM 6.92 44.456 0.035 6.99 1.99 11.73
1/1/2022 12:00:00 PM 6.95 44.51 0.035 7 1.96 11.72
1/1/2022 12:15:00 PM 6.98 44.564 0.035 7 2.19 11.72
1/1/2022 12:30:00 PM 7.02 44.636 0.035 7 1.95 11.71
1/1/2022 12:45:00 PM 7.05 44.69 0.034 7.01 1.96 11.7
1/1/2022 1:00:00 PM 7.09 44.762 0.035 7 1.99 11.7
1/1/2022 1:15:00 PM 7.13 44.834 0.034 7.01 1.99 11.69
1/1/2022 1:30:00 PM 7.16 44.888 0.034 7.01 2.06 11.68
1/1/2022 1:45:00 PM 7.2 44.96 0.034 7.02 2.07 11.66
1/1/2022 2:00:00 PM 7.22 44.996 0.034 7.01 1.94 11.64
1/1/2022 2:15:00 PM 7.25 45.05 0.034 7 1.98 11.61
1/1/2022 2:30:00 PM 7.27 45.086 0.034 7 2.03 11.57
1/1/2022 2:45:00 PM 7.28 45.104 0.034 6.98 1.99 11.54
1/1/2022 3:00:00 PM 7.3 45.14 0.034 6.97 2.01 11.52
1/1/2022 3:15:00 PM 7.32 45.176 0.034 6.97 2.15 11.5
1/1/2022 3:30:00 PM 7.33 45.194 0.034 6.96 2.14 11.47
1/1/2022 3:45:00 PM 7.35 45.23 0.034 6.94 2.02 11.45
1/1/2022 4:00:00 PM 7.36 45.248 0.034 6.93 2 11.43
1/1/2022 4:15:00 PM 7.38 45.284 0.034 6.93 2.08 11.41
1/1/2022 4:30:00 PM 7.39 45.302 0.034 6.92 2.1 11.4
1/1/2022 4:45:00 PM 7.41 45.338 0.034 6.91 2.12 11.37
1/1/2022 5:00:00 PM 7.42 45.356 0.034 6.9 2.09 11.36
1/1/2022 5:15:00 PM 7.43 45.374 0.034 6.91 2.15 11.35
1/1/2022 5:30:00 PM 7.43 45.374 0.034 6.9 2.16 11.34
1/1/2022 5:45:00 PM 7.44 45.392 0.034 6.9 2.24 11.33
1/1/2022 6:00:00 PM 7.45 45.41 0.035 6.89 2.2 11.33
1/1/2022 6:15:00 PM 7.45 45.41 0.034 6.88 2.1 11.32
1/1/2022 6:30:00 PM 7.45 45.41 0.035 6.87 2.22 11.32
1/1/2022 6:45:00 PM 7.46 45.428 0.034 6.87 2.24 11.31
1/1/2022 7:00:00 PM 7.46 45.428 0.035 6.87 2.24 11.31
1/1/2022 7:15:00 PM 7.47 45.446 0.034 6.86 2.13 11.31
1/1/2022 7:30:00 PM 7.47 45.446 0.035 6.85 2.17 11.31
1/1/2022 7:45:00 PM 7.47 45.446 0.035 6.86 2.25 11.31
1/1/2022 8:00:00 PM 7.47 45.446 0.035 6.85 2.26 11.31
1/1/2022 8:15:00 PM 7.47 45.446 0.035 6.85 2.19 11.3
1/1/2022 8:30:00 PM 7.47 45.446 0.035 6.84 2.18 11.3
1/1/2022 8:45:00 PM 7.47 45.446 0.035 6.85 2.26 11.29
1/1/2022 9:00:00 PM 7.47 45.446 0.035 6.84 2.48 11.29
1/1/2022 9:15:00 PM 7.47 45.446 0.035 6.87 2.33 11.29
1/1/2022 9:30:00 PM 7.47 45.446 0.035 6.83 2.32 11.29
1/1/2022 9:45:00 PM 7.47 45.446 0.035 6.84 2.27 11.29
1/1/2022 10:00:00 PM 7.47 45.446 0.035 6.86 2.28 11.29
1/1/2022 10:15:00 PM 7.47 45.446 0.035 6.86 2.38 11.29
1/1/2022 10:30:00 PM 7.47 45.446 0.035 6.85 2.33 11.29
1/1/2022 10:45:00 PM 7.48 45.464 0.035 6.85 2.27 11.28
1/1/2022 11:00:00 PM 7.48 45.464 0.035 6.83 2.28 11.28
1/1/2022 11:15:00 PM 7.48 45.464 0.035 6.85 2.33 11.28
1/1/2022 11:30:00 PM 7.48 45.464 0.035 6.86 2.24 11.28
1/1/2022 11:45:00 PM 7.48 45.464 0.035 6.84 2.54 11.28
1/2/2022 12:00:00 AM 7.49 45.482 0.035 6.85 2.24 11.28
1/2/2022 12:15:00 AM 7.49 45.482 0.035 6.85 2.28 11.28
1/2/2022 12:30:00 AM 7.49 45.482 0.035 6.85 2.28 11.29
1/2/2022 12:45:00 AM 7.49 45.482 0.035 6.85 2.39 11.29
1/2/2022 1:00:00 AM 7.49 45.482 0.035 6.85 2.35 11.28
1/2/2022 1:15:00 AM 7.49 45.482 0.035 6.86 2.33 11.28
1/2/2022 1:30:00 AM 7.48 45.464 0.035 6.91 2.45 11.28
1/2/2022 1:45:00 AM 7.48 45.464 0.035 6.87 2.44 11.28
1/2/2022 2:00:00 AM 7.46 45.428 0.035 6.88 2.5 11.29
1/2/2022 2:15:00 AM 7.45 45.41 0.034 6.89 2.41 11.29
1/2/2022 2:30:00 AM 7.44 45.392 0.034 6.9 2.44 11.3
1/2/2022 2:45:00 AM 7.42 45.356 0.034 6.9 2.52 11.31
1/2/2022 3:00:00 AM 7.4 45.32 0.034 6.87 2.53 11.31
1/2/2022 3:15:00 AM 7.38 45.284 0.034 6.88 2.51 11.32
1/2/2022 3:30:00 AM 7.36 45.248 0.034 6.89 2.56 11.32
1/2/2022 3:45:00 AM 7.34 45.212 0.034 6.89 2.5 11.33
1/2/2022 4:00:00 AM 7.32 45.176 0.034 6.89 2.5 11.34
1/2/2022 4:15:00 AM 7.3 45.14 0.034 6.86 2.53 11.34
1/2/2022 4:30:00 AM 7.27 45.086 0.034 6.87 2.68 11.35
1/2/2022 4:45:00 AM 7.25 45.05 0.034 6.89 2.57 11.35
1/2/2022 5:00:00 AM 7.23 45.014 0.034 6.9 2.63 11.36
1/2/2022 5:15:00 AM 7.2 44.96 0.034 6.89 2.55 11.37
1/2/2022 5:30:00 AM 7.17 44.906 0.034 6.9 2.7 11.37
1/2/2022 5:45:00 AM 7.15 44.87 0.034 6.9 2.51 11.39
1/2/2022 6:00:00 AM 7.12 44.816 0.034 6.9 2.55 11.39
1/2/2022 6:15:00 AM 7.1 44.78 0.034 6.91 2.59 11.4
1/2/2022 6:30:00 AM 7.07 44.726 0.034 6.9 2.51 11.41
1/2/2022 6:45:00 AM 7.05 44.69 0.034 6.88 2.57 11.42
1/2/2022 7:00:00 AM 7.02 44.636 0.034 6.9 2.61 11.43
1/2/2022 7:15:00 AM 6.99 44.582 0.034 6.9 2.54 11.44
1/2/2022 7:30:00 AM 6.96 44.528 0.034 6.88 2.5 11.45
1/2/2022 7:45:00 AM 6.94 44.492 0.034 6.89 2.45 11.46
1/2/2022 8:00:00 AM 6.92 44.456 0.034 6.89 2.49 11.48
1/2/2022 8:15:00 AM 6.9 44.42 0.034 6.9 2.43 11.51
1/2/2022 8:30:00 AM 6.88 44.384 0.034 6.9 2.53 11.54
1/2/2022 8:45:00 AM 6.87 44.366 0.034 6.92 2.44 11.57
1/2/2022 9:00:00 AM 6.85 44.33 0.034 6.92 2.33 11.59
1/2/2022 9:15:00 AM 6.83 44.294 0.034 6.9 2.38 11.59
1/2/2022 9:30:00 AM 6.82 44.276 0.034 6.93 2.34 11.6
1/2/2022 9:45:00 AM 6.8 44.24 0.034 6.92 2.25 11.62
1/2/2022 10:00:00 AM 6.79 44.222 0.034 6.93 2.29 11.64
1/2/2022 10:15:00 AM 6.77 44.186 0.034 6.93 2.34 11.65
1/2/2022 10:30:00 AM 6.76 44.168 0.034 6.92 2.35 11.68
1/2/2022 10:45:00 AM 6.76 44.168 0.034 6.93 2.21 11.7
1/2/2022 11:00:00 AM 6.76 44.168 0.034 6.94 2.34 11.73
1/2/2022 11:15:00 AM 6.75 44.15 0.034 6.95 2.3 11.75
1/2/2022 11:30:00 AM 6.75 44.15 0.034 6.97 2.35 11.76
1/2/2022 11:45:00 AM 6.74 44.132 0.034 6.97 2.23 11.77
1/2/2022 12:00:00 PM 6.73 44.114 0.034 6.97 2.21 11.77
1/2/2022 12:15:00 PM 6.73 44.114 0.034 6.99 2.23 11.78
1/2/2022 12:30:00 PM 6.72 44.096 0.034 6.98 2.16 11.79
1/2/2022 12:45:00 PM 6.72 44.096 0.034 6.99 2.15 11.8
1/2/2022 1:00:00 PM 6.71 44.078 0.034 7 2.16 11.8
1/2/2022 1:15:00 PM 6.7 44.06 0.034 6.99 2.26 11.8
1/2/2022 1:30:00 PM 6.69 44.042 0.034 7 2.27 11.79
1/2/2022 1:45:00 PM 6.67 44.006 0.034 6.97 2.26 11.76
1/2/2022 2:00:00 PM 6.65 43.97 0.034 6.97 2.21 11.75
1/2/2022 2:15:00 PM 6.63 43.934 0.034 6.98 2.14 11.75
1/2/2022 2:30:00 PM 6.6 43.88 0.034 6.99 2.15 11.76
1/2/2022 2:45:00 PM 6.57 43.826 0.034 6.97 2.27 11.76
1/2/2022 3:00:00 PM 6.54 43.772 0.034 6.97 2.18 11.78
1/2/2022 3:15:00 PM 6.52 43.736 0.034 6.97 2.23 11.79
1/2/2022 3:30:00 PM 6.5 43.7 0.034 6.99 2.16 11.79
1/2/2022 3:45:00 PM 6.46 43.628 0.034 6.97 2.29 11.78
1/2/2022 4:00:00 PM 6.43 43.574 0.034 6.96 2.21 11.78
1/2/2022 4:15:00 PM 6.39 43.502 0.034 6.95 2.21 11.78
1/2/2022 4:30:00 PM 6.35 43.43 0.034 6.94 2.22 11.79
1/2/2022 4:45:00 PM 6.3 43.34 0.034 6.92 2.14 11.8
1/2/2022 5:00:00 PM 6.27 43.286 0.034 6.92 2.16 11.79
1/2/2022 5:15:00 PM 6.23 43.214 0.034 6.93 2.24 11.8
1/2/2022 5:30:00 PM 6.19 43.142 0.034 6.95 2.21 11.81
1/2/2022 5:45:00 PM 6.15 43.07 0.034 6.93 2.23 11.82
1/2/2022 6:00:00 PM 6.1 42.98 0.034 6.93 2.25 11.83
1/2/2022 6:15:00 PM 6.06 42.908 0.034 6.92 2.25 11.85
1/2/2022 6:30:00 PM 6.02 42.836 0.034 6.92 2.23 11.86
1/2/2022 6:45:00 PM 5.98 42.764 0.034 6.92 2.25 11.88
1/2/2022 7:00:00 PM 5.94 42.692 0.034 6.92 2.29 11.9
1/2/2022 7:15:00 PM 5.9 42.62 0.035 6.93 2.41 11.91
1/2/2022 7:30:00 PM 5.85 42.53 0.034 6.93 2.32 11.92
1/2/2022 7:45:00 PM 5.81 42.458 0.034 6.94 2.34 11.94
1/2/2022 8:00:00 PM 5.77 42.386 0.034 6.93 2.3 11.95
1/2/2022 8:15:00 PM 5.72 42.296 0.034 6.92 2.28 11.97
1/2/2022 8:30:00 PM 5.67 42.206 0.034 6.94 2.28 11.99
1/2/2022 8:45:00 PM 5.63 42.134 0.034 6.94 2.19 12
1/2/2022 9:00:00 PM 5.59 42.062 0.034 6.93 2.25 12.02
1/2/2022 9:15:00 PM 5.55 41.99 0.034 6.94 2.23 12.03
1/2/2022 9:30:00 PM 5.51 41.918 0.034 6.93 2.17 12.04
1/2/2022 9:45:00 PM 5.47 41.846 0.034 6.93 2.21 12.06
1/2/2022 10:00:00 PM 5.44 41.792 0.035 6.93 2.14 12.07
1/2/2022 10:15:00 PM 5.4 41.72 0.035 6.93 2.19 12.09
1/2/2022 10:30:00 PM 5.36 41.648 0.035 6.93 2.15 12.1
1/2/2022 10:45:00 PM 5.32 41.576 0.035 6.92 2.22 12.11
1/2/2022 11:00:00 PM 5.28 41.504 0.035 6.94 2.18 12.13
1/2/2022 11:15:00 PM 5.24 41.432 0.035 6.93 2.24 12.14
1/2/2022 11:30:00 PM 5.2 41.36 0.035 6.93 2.15 12.15
1/2/2022 11:45:00 PM 5.16 41.288 0.035 6.94 2.21 12.17
1/3/2022 12:00:00 AM 5.11 41.198 0.034 6.94 2.16 12.19
1/3/2022 12:15:00 AM 5.07 41.126 0.035 6.94 2.22 12.2
1/3/2022 12:30:00 AM 5.03 41.054 0.035 6.94 2.14 12.22
1/3/2022 12:45:00 AM 4.99 40.982 0.035 6.95 2.12 12.24
1/3/2022 1:00:00 AM 4.94 40.892 0.035 6.94 2.08 12.25
1/3/2022 1:15:00 AM 4.9 40.82 0.034 6.94 2.17 12.26
1/3/2022 1:30:00 AM 4.86 40.748 0.034 6.95 2.16 12.28
1/3/2022 1:45:00 AM 4.82 40.676 0.035 6.95 2.12 12.29
1/3/2022 2:00:00 AM 4.78 40.604 0.034 6.95 2.14 12.31
1/3/2022 2:15:00 AM 4.74 40.532 0.034 6.94 2.19 12.33
1/3/2022 2:30:00 AM 4.69 40.442 0.034 6.94 2.21 12.34
1/3/2022 2:45:00 AM 4.65 40.37 0.034 6.95 2.16 12.36
1/3/2022 3:00:00 AM 4.62 40.316 0.034 6.94 2.12 12.37
1/3/2022 3:15:00 AM 4.58 40.244 0.034 6.95 2.18 12.38
1/3/2022 3:30:00 AM 4.55 40.19 0.034 6.94 2.2 12.39
1/3/2022 3:45:00 AM 4.51 40.118 0.034 6.95 2.09 12.41
1/3/2022 4:00:00 AM 4.47 40.046 0.034 6.95 2.07 12.42
1/3/2022 4:15:00 AM 4.43 39.974 0.034 6.94 2.02 12.44
1/3/2022 4:30:00 AM 4.38 39.884 0.035 6.95 2.11 12.45
1/3/2022 4:45:00 AM 4.34 39.812 0.034 6.95 2.08 12.47
1/3/2022 5:00:00 AM 4.3 39.74 0.034 6.94 2.08 12.48
1/3/2022 5:15:00 AM 4.26 39.668 0.034 6.96 2.11 12.49
1/3/2022 5:30:00 AM 4.2 39.56 0.035 6.94 2.14 12.51
1/3/2022 5:45:00 AM 4.16 39.488 0.034 6.96 2.08 12.53
1/3/2022 6:00:00 AM 4.1 39.38 0.035 6.93 2.09 12.54
1/3/2022 6:15:00 AM 4.05 39.29 0.035 6.96 2.02 12.56
1/3/2022 6:30:00 AM 4 39.2 0.034 6.96 2.1 12.59
1/3/2022 6:45:00 AM 3.95 39.11 0.034 6.96 2.08 12.6
1/3/2022 7:00:00 AM 3.9 39.02 0.034 6.96 2.01 12.62
1/3/2022 7:15:00 AM 3.86 38.948 0.034 6.95 2.08 12.63
1/3/2022 7:30:00 AM 3.81 38.858 0.034 6.96 2.05 12.65
1/3/2022 7:45:00 AM 3.76 38.768 0.034 6.95 2.13 12.68
1/3/2022 8:00:00 AM 3.71 38.678 0.034 6.95 2.07 12.71
1/3/2022 8:15:00 AM 3.68 38.624 0.034 6.96 2.03 12.73
1/3/2022 8:30:00 AM 3.63 38.534 0.034 6.96 2.02 12.76
1/3/2022 8:45:00 AM 3.59 38.462 0.034 6.98 2.02 12.79
1/3/2022 9:00:00 AM 3.56 38.408 0.034 6.98 2.06 12.83
1/3/2022 9:15:00 AM 3.53 38.354 0.034 6.99 1.97 12.88
1/3/2022 9:30:00 AM 3.5 38.3 0.034 7 2.02 12.91
1/3/2022 9:45:00 AM 3.48 38.264 0.034 7.01 2.05 12.95
1/3/2022 10:00:00 AM 3.45 38.21 0.034 7.01 1.94 12.99
1/3/2022 10:15:00 AM 3.43 38.174 0.034 7.03 2.2 13
1/3/2022 10:30:00 AM 3.4 38.12 0.034 7.03 1.95 13.03
1/3/2022 10:45:00 AM 3.38 38.084 0.034 7.03 2.01 13.04
1/3/2022 11:00:00 AM 3.36 38.048 0.034 7.05 1.94 13.06
1/3/2022 11:15:00 AM 3.35 38.03 0.034 7.04 1.94 13.06
1/3/2022 11:30:00 AM 3.32 37.976 0.034 7.04 1.95 13.07
1/3/2022 11:45:00 AM 3.31 37.958 0.034 7.05 2.01 13.08
1/3/2022 12:00:00 PM 3.29 37.922 0.034 7.05 1.91 13.09
1/3/2022 12:15:00 PM 3.3 37.94 0.034 7.04 1.97 13.09
1/3/2022 12:30:00 PM 3.31 37.958 0.034 7.05 1.98 13.09
1/3/2022 12:45:00 PM 3.32 37.976 0.034 7.04 1.91 13.09
1/3/2022 1:00:00 PM 3.33 37.994 0.034 7.06 1.86 13.07
1/3/2022 1:15:00 PM 3.32 37.976 0.034 7.04 1.88 13.06
1/3/2022 1:30:00 PM 3.32 37.976 0.034 7.03 1.89 13.05
1/3/2022 1:45:00 PM 3.32 37.976 0.034 7.03 1.97 13.04
1/3/2022 2:00:00 PM 3.33 37.994 0.034 7.02 2.04 13.03
1/3/2022 2:15:00 PM 3.33 37.994 0.034 7.03 2.01 13.02
1/3/2022 2:30:00 PM 3.32 37.976 0.034 7.02 2.03 13.02
1/3/2022 2:45:00 PM 3.3 37.94 0.034 7.04 2 13.01
1/3/2022 3:00:00 PM 3.27 37.886 0.034 7.01 1.91 12.99
1/3/2022 3:15:00 PM 3.24 37.832 0.034 7.02 1.91 12.99
1/3/2022 3:30:00 PM 3.21 37.778 0.034 7.01 2 12.99
1/3/2022 3:45:00 PM 3.19 37.742 0.034 7.02 1.95 12.99
1/3/2022 4:00:00 PM 3.17 37.706 0.034 7.02 1.94 12.99
1/3/2022 4:15:00 PM 3.15 37.67 0.034 7.01 1.91 12.99
1/3/2022 4:30:00 PM 3.13 37.634 0.034 7 1.93 12.99
1/3/2022 4:45:00 PM 3.11 37.598 0.034 7.01 1.94 12.98
1/3/2022 5:00:00 PM 3.1 37.58 0.034 6.99 2 12.97
1/3/2022 5:15:00 PM 3.08 37.544 0.034 6.98 1.99 12.97
1/3/2022 5:30:00 PM 3.05 37.49 0.034 6.98 1.98 12.97
1/3/2022 5:45:00 PM 3.02 37.436 0.034 6.98 1.93 12.97
1/3/2022 6:00:00 PM 2.98 37.364 0.034 6.98 1.98 12.98
1/3/2022 6:15:00 PM 2.94 37.292 0.034 6.97 2.1 12.99
1/3/2022 6:30:00 PM 2.9 37.22 0.034 6.97 2.02 13
1/3/2022 6:45:00 PM 2.86 37.148 0.034 6.97 2.03 13.02
1/3/2022 7:00:00 PM 2.82 37.076 0.034 6.98 2 13.04
1/3/2022 7:15:00 PM 2.78 37.004 0.034 6.98 2 13.07
1/3/2022 7:30:00 PM 2.73 36.914 0.034 6.97 1.96 13.08
1/3/2022 7:45:00 PM 2.68 36.824 0.034 6.98 1.92 13.1
1/3/2022 8:00:00 PM 2.64 36.752 0.034 6.99 2.02 13.12
1/3/2022 8:15:00 PM 2.6 36.68 0.034 6.97 2.01 13.14
1/3/2022 8:30:00 PM 2.56 36.608 0.034 6.98 2.05 13.15
1/3/2022 8:45:00 PM 2.51 36.518 0.034 6.98 1.97 13.18
1/3/2022 9:00:00 PM 2.47 36.446 0.034 6.97 1.95 13.2
1/3/2022 9:15:00 PM 2.43 36.374 0.034 6.98 2.03 13.21
1/3/2022 9:30:00 PM 2.39 36.302 0.034 6.97 2.02 13.23
1/3/2022 9:45:00 PM 2.35 36.23 0.034 6.97 2.03 13.25
1/3/2022 10:00:00 PM 2.31 36.158 0.034 6.98 2 13.27
1/3/2022 10:15:00 PM 2.27 36.086 0.034 6.98 2.02 13.27
1/3/2022 10:30:00 PM 2.23 36.014 0.034 6.98 2.01 13.29
1/3/2022 10:45:00 PM 2.2 35.96 0.034 6.98 1.98 13.31
1/3/2022 11:00:00 PM 2.16 35.888 0.034 6.98 1.98 13.32
1/3/2022 11:15:00 PM 2.13 35.834 0.034 6.98 2.03 13.33
1/3/2022 11:30:00 PM 2.1 35.78 0.034 6.97 1.96 13.35
1/3/2022 11:45:00 PM 2.07 35.726 0.034 6.98 1.95 13.36
1/4/2022 12:00:00 AM 2.03 35.654 0.034 6.98 2 13.38
1/4/2022 12:15:00 AM 2 35.6 0.034 6.97 2.03 13.39
1/4/2022 12:30:00 AM 1.96 35.528 0.034 6.98 1.99 13.4
1/4/2022 12:45:00 AM 1.93 35.474 0.034 6.97 1.95 13.42
1/4/2022 1:00:00 AM 1.9 35.42 0.034 6.98 1.99 13.43
1/4/2022 1:15:00 AM 1.86 35.348 0.034 6.97 1.94 13.44
1/4/2022 1:30:00 AM 1.83 35.294 0.034 6.98 1.93 13.46
1/4/2022 1:45:00 AM 1.8 35.24 0.034 6.98 1.97 13.47
1/4/2022 2:00:00 AM 1.78 35.204 0.034 6.98 1.91 13.48
1/4/2022 2:15:00 AM 1.76 35.168 0.034 6.97 1.92 13.49
1/4/2022 2:30:00 AM 1.73 35.114 0.034 6.74 1.9 13.5
1/4/2022 2:45:00 AM 1.71 35.078 0.034 6.76 1.93 13.51
1/4/2022 3:00:00 AM 1.68 35.024 0.034 6.81 1.92 13.52
1/4/2022 3:15:00 AM 1.66 34.988 0.034 6.85 1.89 13.54
1/4/2022 3:30:00 AM 1.63 34.934 0.034 6.87 1.96 13.54
1/4/2022 3:45:00 AM 1.61 34.898 0.034 6.87 2.02 13.56
1/4/2022 4:00:00 AM 1.59 34.862 0.034 6.89 1.88 13.57
1/4/2022 4:15:00 AM 1.56 34.808 0.034 6.91 1.92 13.57
1/4/2022 4:30:00 AM 1.54 34.772 0.034 6.91 1.97 13.58
1/4/2022 4:45:00 AM 1.52 34.736 0.034 6.92 1.96 13.59
1/4/2022 5:00:00 AM 1.5 34.7 0.034 6.94 1.99 13.59
1/4/2022 5:15:00 AM 1.48 34.664 0.034 6.93 1.99 13.6
1/4/2022 5:30:00 AM 1.46 34.628 0.034 6.92 1.92 13.61
1/4/2022 5:45:00 AM 1.43 34.574 0.034 6.91 1.96 13.62
1/4/2022 6:00:00 AM 1.41 34.538 0.034 6.92 1.96 13.63
1/4/2022 6:15:00 AM 1.39 34.502 0.034 6.92 1.93 13.64
1/4/2022 6:30:00 AM 1.37 34.466 0.034 6.93 1.92 13.64
1/4/2022 6:45:00 AM 1.36 34.448 0.034 6.92 1.93 13.65
1/4/2022 7:00:00 AM 1.34 34.412 0.034 6.92 1.97 13.66
1/4/2022 7:15:00 AM 1.32 34.376 0.034 6.92 1.91 13.67
1/4/2022 7:30:00 AM 1.3 34.34 0.034 6.93 1.88 13.68
1/4/2022 7:45:00 AM 1.28 34.304 0.034 6.93 1.95 13.69
1/4/2022 8:00:00 AM 1.26 34.268 0.034 6.92 1.91 13.71
1/4/2022 8:15:00 AM 1.24 34.232 0.034 6.94 1.91 13.74
1/4/2022 8:30:00 AM 1.23 34.214 0.034 6.96 1.92 13.76
1/4/2022 8:45:00 AM 1.22 34.196 0.034 6.95 1.88 13.78
1/4/2022 9:00:00 AM 1.21 34.178 0.034 6.96 1.96 13.81
1/4/2022 9:15:00 AM 1.21 34.178 0.034 6.97 1.89 13.82
1/4/2022 9:30:00 AM 1.21 34.178 0.034 6.97 1.86 13.84
1/4/2022 9:45:00 AM 1.21 34.178 0.034 6.99 1.87 13.84